Time,TemperatureF,DewpointF,PressureIn,WindDirection,WindDirectionDegrees,WindSpeedMPH,WindSpeedGustMPH,Humidity,HourlyPrecipIn,Conditions,Clouds,dailyrainin,SoftwareType,DateUTC
2013-01-09 00:00:00,24.4,20.0,29.15,East,90,2.7,2.7,83,0.00,,---,0.08,VWS V14.01,2013-01-09 04:00:00,
2013-01-09 00:01:00,24.4,19.7,29.11,East,90,2.7,2.7,82,0.00,,---,0.08,VWS V14.01,2013-01-09 04:01:00,
2013-01-09 00:02:00,22.6,19.4,29.12,East,90,2.7,2.7,87,0.00,,---,0.00,VWS V14.01,2013-01-09 04:02:00,
2013-01-09 00:03:00,24.4,19.7,29.11,East,90,2.7,2.7,82,0.00,,---,0.08,VWS V14.01,2013-01-09 04:03:00,
2013-01-09 00:04:00,24.4,19.7,29.11,East,90,2.7,2.7,82,0.00,,---,0.08,VWS V14.01,2013-01-09 04:04:00,
2013-01-09 00:05:00,24.8,20.1,29.11,East,90,2.7,2.7,82,0.00,,---,0.08,VWS V14.01,2013-01-09 04:05:00,
2013-01-09 00:06:00,24.8,20.4,29.11,East,90,2.7,2.7,83,0.00,,---,0.08,VWS V14.01,2013-01-09 04:06:00,
2013-01-09 00:07:00,22.6,19.4,29.12,East,90,2.7,2.7,87,0.00,,---,0.00,VWS V14.01,2013-01-09 04:07:00,
2013-01-09 00:08:00,24.8,20.4,29.11,East,90,2.7,2.7,83,0.00,,---,0.08,VWS V14.01,2013-01-09 04:08:00,
2013-01-09 00:09:00,24.6,20.2,29.11,East,90,2.7,2.7,83,0.00,,---,0.08,VWS V14.01,2013-01-09 04:09:00,
2013-01-09 00:10:00,24.6,20.2,29.11,East,90,2.7,2.7,83,0.00,,---,0.08,VWS V14.01,2013-01-09 04:10:00,
2013-01-09 00:11:00,24.4,20.0,29.11,East,90,2.7,2.7,83,0.00,,---,0.08,VWS V14.01,2013-01-09 04:11:00,
2013-01-09 00:12:00,22.5,18.9,29.12,East,90,2.7,2.7,86,0.00,,---,0.00,VWS V14.01,2013-01-09 04:12:00,
2013-01-09 00:13:00,24.3,20.1,29.11,East,90,2.7,2.7,84,0.00,,---,0.08,VWS V14.01,2013-01-09 04:13:00,
2013-01-09 00:14:00,24.3,20.1,29.11,East,90,2.7,2.7,84,0.00,,---,0.08,VWS V14.01,2013-01-09 04:14:00,
2013-01-09 00:15:00,24.1,20.0,29.11,East,90,2.7,2.7,84,0.00,,---,0.08,VWS V14.01,2013-01-09 04:15:00,
2013-01-09 00:16:00,24.1,20.0,29.15,East,90,2.7,2.7,84,0.00,,---,0.08,VWS V14.01,2013-01-09 04:16:00,
2013-01-09 00:17:00,22.6,19.4,29.12,East,90,2.7,2.7,87,0.00,,---,0.00,VWS V14.01,2013-01-09 04:17:00,
2013-01-09 00:18:00,24.1,20.0,29.15,East,90,2.7,2.7,84,0.00,,---,0.08,VWS V14.01,2013-01-09 04:18:00,
2013-01-09 00:19:00,23.9,19.8,29.15,East,90,2.7,2.7,84,0.00,,---,0.08,VWS V14.01,2013-01-09 04:19:00,
2013-01-09 00:20:00,23.9,19.8,29.15,East,90,2.7,2.7,84,0.00,,---,0.08,VWS V14.01,2013-01-09 04:20:00,
2013-01-09 00:21:00,23.9,19.8,29.15,East,90,2.7,2.7,84,0.00,,---,0.08,VWS V14.01,2013-01-09 04:21:00,
2013-01-09 00:22:00,22.6,19.6,29.12,East,90,2.7,2.7,88,0.00,,---,0.00,VWS V14.01,2013-01-09 04:22:00,
2013-01-09 00:23:00,23.9,19.8,29.15,East,90,2.7,2.7,84,0.00,,---,0.08,VWS V14.01,2013-01-09 04:23:00,
2013-01-09 00:24:00,23.9,19.8,29.15,East,90,2.7,2.7,84,0.00,,---,0.08,VWS V14.01,2013-01-09 04:24:00,
2013-01-09 00:25:00,23.9,19.8,29.15,East,90,2.7,2.7,84,0.00,,---,0.08,VWS V14.01,2013-01-09 04:25:00,
2013-01-09 00:26:00,23.9,19.8,29.15,East,90,2.7,2.7,84,0.00,,---,0.08,VWS V14.01,2013-01-09 04:26:00,
2013-01-09 00:27:00,22.5,19.7,29.12,East,90,2.7,2.7,89,0.00,,---,0.00,VWS V14.01,2013-01-09 04:27:00,
2013-01-09 00:28:00,23.9,19.8,29.15,East,90,2.7,2.7,84,0.00,,---,0.08,VWS V14.01,2013-01-09 04:28:00,
2013-01-09 00:29:00,23.9,19.8,29.15,East,90,2.7,2.7,84,0.00,,---,0.08,VWS V14.01,2013-01-09 04:29:00,
2013-01-09 00:30:00,23.9,19.8,29.15,East,90,2.7,2.7,84,0.00,,---,0.08,VWS V14.01,2013-01-09 04:30:00,
2013-01-09 00:31:00,23.7,19.6,29.11,East,90,2.7,2.7,84,0.00,,---,0.08,VWS V14.01,2013-01-09 04:31:00,
2013-01-09 00:32:00,22.3,19.3,29.12,East,90,2.7,2.7,88,0.00,,---,0.00,VWS V14.01,2013-01-09 04:32:00,
2013-01-09 00:33:00,23.7,19.9,29.11,East,90,2.7,2.7,85,0.00,,---,0.08,VWS V14.01,2013-01-09 04:33:00,
2013-01-09 00:34:00,23.7,20.1,29.11,East,90,2.7,2.7,86,0.00,,---,0.08,VWS V14.01,2013-01-09 04:34:00,
2013-01-09 00:35:00,23.7,20.1,29.11,East,90,2.7,2.7,86,0.00,,---,0.08,VWS V14.01,2013-01-09 04:35:00,
2013-01-09 00:36:00,23.5,19.7,29.11,East,90,2.7,2.7,85,0.00,,---,0.08,VWS V14.01,2013-01-09 04:36:00,
2013-01-09 00:37:00,22.5,19.5,29.12,East,90,2.7,2.7,88,0.00,,---,0.00,VWS V14.01,2013-01-09 04:37:00,
2013-01-09 00:38:00,23.5,20.0,29.11,East,90,2.7,2.7,86,0.00,,---,0.08,VWS V14.01,2013-01-09 04:38:00,
2013-01-09 00:39:00,23.5,20.0,29.11,East,90,2.7,2.7,86,0.00,,---,0.08,VWS V14.01,2013-01-09 04:39:00,
2013-01-09 00:40:00,23.5,20.0,29.11,East,90,2.7,2.7,86,0.00,,---,0.08,VWS V14.01,2013-01-09 04:40:00,
2013-01-09 00:41:00,23.4,19.5,29.11,East,90,2.7,2.7,85,0.00,,---,0.08,VWS V14.01,2013-01-09 04:41:00,
2013-01-09 00:42:00,22.3,19.5,29.09,East,90,2.7,2.7,89,0.00,,---,0.00,VWS V14.01,2013-01-09 04:42:00,
2013-01-09 00:43:00,23.4,19.5,29.11,East,90,2.7,2.7,85,0.00,,---,0.08,VWS V14.01,2013-01-09 04:43:00,
2013-01-09 00:44:00,23.4,19.5,29.11,East,90,2.7,2.7,85,0.00,,---,0.08,VWS V14.01,2013-01-09 04:44:00,
2013-01-09 00:45:00,23.4,19.5,29.11,East,90,2.7,2.7,85,0.00,,---,0.08,VWS V14.01,2013-01-09 04:45:00,
2013-01-09 00:46:00,23.4,19.5,29.11,East,90,2.7,2.7,85,0.00,,---,0.08,VWS V14.01,2013-01-09 04:46:00,
2013-01-09 00:47:00,21.9,18.9,29.09,East,90,2.7,2.7,88,0.00,,---,0.00,VWS V14.01,2013-01-09 04:47:00,
2013-01-09 00:48:00,23.4,19.5,29.11,East,90,2.7,2.7,85,0.00,,---,0.08,VWS V14.01,2013-01-09 04:48:00,
2013-01-09 00:49:00,23.4,19.5,29.11,East,90,2.7,2.7,85,0.00,,---,0.08,VWS V14.01,2013-01-09 04:49:00,
2013-01-09 00:50:00,23.4,19.5,29.11,East,90,2.7,2.7,85,0.00,,---,0.08,VWS V14.01,2013-01-09 04:50:00,
2013-01-09 00:51:00,23.2,19.4,29.11,East,90,2.7,2.7,85,0.00,,---,0.08,VWS V14.01,2013-01-09 04:51:00,
2013-01-09 00:52:00,21.9,18.9,29.09,East,90,2.7,2.7,88,0.00,,---,0.00,VWS V14.01,2013-01-09 04:52:00,
2013-01-09 00:53:00,23.2,19.6,29.11,East,90,2.7,2.7,86,0.00,,---,0.08,VWS V14.01,2013-01-09 04:53:00,
2013-01-09 00:54:00,23.0,19.4,29.11,East,90,2.7,2.7,86,0.00,,---,0.08,VWS V14.01,2013-01-09 04:54:00,
2013-01-09 00:55:00,23.0,19.4,29.11,East,90,2.7,2.7,86,0.00,,---,0.08,VWS V14.01,2013-01-09 04:55:00,
2013-01-09 00:56:00,23.0,19.4,29.11,East,90,2.7,2.7,86,0.00,,---,0.08,VWS V14.01,2013-01-09 04:56:00,
2013-01-09 00:57:00,21.9,18.9,29.09,East,90,2.7,2.7,88,0.00,,---,0.00,VWS V14.01,2013-01-09 04:57:00,
2013-01-09 00:58:00,22.8,19.3,29.11,East,90,2.7,2.7,86,0.00,,---,0.08,VWS V14.01,2013-01-09 04:58:00,
2013-01-09 00:59:00,22.8,19.3,29.11,East,90,2.7,2.7,86,0.00,,---,0.08,VWS V14.01,2013-01-09 04:59:00,
2013-01-09 01:00:00,21.7,19.0,29.09,East,90,2.7,2.7,89,0.00,,---,0.00,VWS V14.01,2013-01-09 05:00:00,
2013-01-09 01:01:00,22.8,19.3,29.11,East,90,2.7,2.7,86,0.00,,---,0.00,VWS V14.01,2013-01-09 05:01:00,
2013-01-09 01:02:00,21.7,19.0,29.09,East,90,2.7,2.7,89,0.00,,---,0.00,VWS V14.01,2013-01-09 05:02:00,
2013-01-09 01:03:00,21.7,19.0,29.09,East,90,2.7,2.7,89,0.00,,---,0.00,VWS V14.01,2013-01-09 05:03:00,
2013-01-09 01:04:00,22.8,19.3,29.11,East,90,2.7,2.7,86,0.00,,---,0.00,VWS V14.01,2013-01-09 05:04:00,
2013-01-09 01:05:00,22.8,19.3,29.11,East,90,2.7,2.7,86,0.00,,---,0.00,VWS V14.01,2013-01-09 05:05:00,
2013-01-09 01:06:00,22.8,19.5,29.11,East,90,2.7,2.7,87,0.00,,---,0.00,VWS V14.01,2013-01-09 05:06:00,
2013-01-09 01:07:00,22.6,19.4,29.11,East,90,2.7,2.7,87,0.00,,---,0.00,VWS V14.01,2013-01-09 05:07:00,
2013-01-09 01:08:00,21.7,19.0,29.09,East,90,2.7,2.7,89,0.00,,---,0.00,VWS V14.01,2013-01-09 05:08:00,
2013-01-09 01:09:00,22.6,19.4,29.11,East,90,2.7,2.7,87,0.00,,---,0.00,VWS V14.01,2013-01-09 05:09:00,
2013-01-09 01:10:00,22.6,19.4,29.11,East,90,2.7,2.7,87,0.00,,---,0.00,VWS V14.01,2013-01-09 05:10:00,
2013-01-09 01:11:00,22.6,19.4,29.11,East,90,2.7,2.7,87,0.00,,---,0.00,VWS V14.01,2013-01-09 05:11:00,
2013-01-09 01:12:00,22.6,19.4,29.11,East,90,2.7,2.7,87,0.00,,---,0.00,VWS V14.01,2013-01-09 05:12:00,
2013-01-09 01:13:00,21.7,19.0,29.09,East,90,2.7,2.7,89,0.00,,---,0.00,VWS V14.01,2013-01-09 05:13:00,
2013-01-09 01:14:00,22.6,19.4,29.11,East,90,2.7,2.7,87,0.00,,---,0.00,VWS V14.01,2013-01-09 05:14:00,
2013-01-09 01:15:00,22.6,19.4,29.11,East,90,2.7,2.7,87,0.00,,---,0.00,VWS V14.01,2013-01-09 05:15:00,
2013-01-09 01:16:00,22.5,19.2,29.11,East,90,2.7,2.7,87,0.00,,---,0.00,VWS V14.01,2013-01-09 05:16:00,
2013-01-09 01:17:00,22.5,19.2,29.11,East,90,2.7,2.7,87,0.00,,---,0.00,VWS V14.01,2013-01-09 05:17:00,
2013-01-09 01:18:00,21.7,19.0,29.09,East,90,2.7,2.7,89,0.00,,---,0.00,VWS V14.01,2013-01-09 05:18:00,
2013-01-09 01:19:00,22.6,19.1,29.11,East,90,2.7,2.7,86,0.00,,---,0.00,VWS V14.01,2013-01-09 05:19:00,
2013-01-09 01:20:00,22.6,19.4,29.11,East,90,2.7,2.7,87,0.00,,---,0.00,VWS V14.01,2013-01-09 05:20:00,
2013-01-09 01:21:00,22.5,19.2,29.11,East,90,2.7,2.7,87,0.00,,---,0.00,VWS V14.01,2013-01-09 05:21:00,
2013-01-09 01:22:00,22.6,19.4,29.11,East,90,2.7,2.7,87,0.00,,---,0.00,VWS V14.01,2013-01-09 05:22:00,
2013-01-09 01:23:00,21.7,19.0,29.09,East,90,2.7,2.7,89,0.00,,---,0.00,VWS V14.01,2013-01-09 05:23:00,
2013-01-09 01:24:00,22.6,19.4,29.11,East,90,2.7,2.7,87,0.00,,---,0.00,VWS V14.01,2013-01-09 05:24:00,
2013-01-09 01:25:00,22.6,19.4,29.11,East,90,2.7,2.7,87,0.00,,---,0.00,VWS V14.01,2013-01-09 05:25:00,
2013-01-09 01:26:00,22.6,19.4,29.11,East,90,2.7,2.7,87,0.00,,---,0.00,VWS V14.01,2013-01-09 05:26:00,
2013-01-09 01:27:00,22.6,19.6,29.11,East,90,2.7,2.7,88,0.00,,---,0.00,VWS V14.01,2013-01-09 05:27:00,
2013-01-09 01:28:00,21.4,18.6,29.09,East,90,2.7,2.7,89,0.00,,---,0.00,VWS V14.01,2013-01-09 05:28:00,
2013-01-09 01:29:00,22.6,19.6,29.11,East,90,2.7,2.7,88,0.00,,---,0.00,VWS V14.01,2013-01-09 05:29:00,
2013-01-09 01:30:00,22.6,19.6,29.11,East,90,2.7,2.7,88,0.00,,---,0.00,VWS V14.01,2013-01-09 05:30:00,
2013-01-09 01:31:00,22.6,19.6,29.11,East,90,2.7,2.7,88,0.00,,---,0.00,VWS V14.01,2013-01-09 05:31:00,
2013-01-09 01:32:00,22.5,19.7,29.11,East,90,2.7,2.7,89,0.00,,---,0.00,VWS V14.01,2013-01-09 05:32:00,
2013-01-09 01:33:00,21.2,18.5,29.09,East,90,2.7,2.7,89,0.00,,---,0.00,VWS V14.01,2013-01-09 05:33:00,
2013-01-09 01:34:00,22.5,19.7,29.11,East,90,2.7,2.7,89,0.00,,---,0.00,VWS V14.01,2013-01-09 05:34:00,
2013-01-09 01:35:00,22.5,19.7,29.11,East,90,2.7,2.7,89,0.00,,---,0.00,VWS V14.01,2013-01-09 05:35:00,
2013-01-09 01:36:00,22.3,19.3,29.11,East,90,2.7,2.7,88,0.00,,---,0.00,VWS V14.01,2013-01-09 05:36:00,
2013-01-09 01:37:00,22.3,19.3,29.11,East,90,2.7,2.7,88,0.00,,---,0.00,VWS V14.01,2013-01-09 05:37:00,
2013-01-09 01:38:00,21.2,18.7,29.09,East,90,2.7,2.7,90,0.00,,---,0.00,VWS V14.01,2013-01-09 05:38:00,
2013-01-09 01:39:00,22.3,19.3,29.11,East,90,2.7,2.7,88,0.00,,---,0.00,VWS V14.01,2013-01-09 05:39:00,
2013-01-09 01:40:00,22.3,19.3,29.11,East,90,2.7,2.7,88,0.00,,---,0.00,VWS V14.01,2013-01-09 05:40:00,
2013-01-09 01:41:00,22.3,19.3,29.11,East,90,2.7,2.7,88,0.00,,---,0.00,VWS V14.01,2013-01-09 05:41:00,
2013-01-09 01:42:00,22.5,19.5,29.11,East,90,2.7,2.7,88,0.00,,---,0.00,VWS V14.01,2013-01-09 05:42:00,
2013-01-09 01:43:00,21.4,18.6,29.06,East,90,2.7,2.7,89,0.00,,---,0.00,VWS V14.01,2013-01-09 05:43:00,
2013-01-09 01:44:00,22.3,19.5,29.11,East,90,2.7,2.7,89,0.00,,---,0.00,VWS V14.01,2013-01-09 05:44:00,
2013-01-09 01:45:00,22.3,19.5,29.11,East,90,2.7,2.7,89,0.00,,---,0.00,VWS V14.01,2013-01-09 05:45:00,
2013-01-09 01:46:00,22.3,19.5,29.09,East,90,2.7,2.7,89,0.00,,---,0.00,VWS V14.01,2013-01-09 05:46:00,
2013-01-09 01:47:00,22.3,19.5,29.09,East,90,2.7,2.7,89,0.00,,---,0.00,VWS V14.01,2013-01-09 05:47:00,
2013-01-09 01:48:00,21.2,18.7,29.06,East,90,2.7,2.7,90,0.00,,---,0.00,VWS V14.01,2013-01-09 05:48:00,
2013-01-09 01:49:00,22.1,19.1,29.09,East,90,2.7,2.7,88,0.00,,---,0.00,VWS V14.01,2013-01-09 05:49:00,
2013-01-09 01:50:00,22.1,19.1,29.09,East,90,2.7,2.7,88,0.00,,---,0.00,VWS V14.01,2013-01-09 05:50:00,
2013-01-09 01:51:00,21.9,18.9,29.09,East,90,2.7,2.7,88,0.00,,---,0.00,VWS V14.01,2013-01-09 05:51:00,
2013-01-09 01:52:00,21.9,18.9,29.09,East,90,2.7,2.7,88,0.00,,---,0.00,VWS V14.01,2013-01-09 05:52:00,
2013-01-09 01:53:00,20.8,18.4,29.06,East,90,2.7,2.7,90,0.00,,---,0.00,VWS V14.01,2013-01-09 05:53:00,
2013-01-09 01:54:00,21.9,18.9,29.09,East,90,2.7,2.7,88,0.00,,---,0.00,VWS V14.01,2013-01-09 05:54:00,
2013-01-09 01:55:00,21.9,18.9,29.09,East,90,2.7,2.7,88,0.00,,---,0.00,VWS V14.01,2013-01-09 05:55:00,
2013-01-09 01:56:00,21.9,18.9,29.09,East,90,2.7,2.7,88,0.00,,---,0.00,VWS V14.01,2013-01-09 05:56:00,
2013-01-09 01:57:00,21.9,18.9,29.09,East,90,2.7,2.7,88,0.00,,---,0.00,VWS V14.01,2013-01-09 05:57:00,
2013-01-09 01:58:00,20.7,18.2,29.09,East,90,2.7,2.7,90,0.00,,---,0.00,VWS V14.01,2013-01-09 05:58:00,
2013-01-09 01:59:00,21.9,18.9,29.09,East,90,2.7,2.7,88,0.00,,---,0.00,VWS V14.01,2013-01-09 05:59:00,
2013-01-09 02:00:00,21.9,18.9,29.09,East,90,2.7,2.7,88,0.00,,---,0.00,VWS V14.01,2013-01-09 06:00:00,
2013-01-09 02:01:00,21.9,18.9,29.09,East,90,2.7,2.7,88,0.00,,---,0.00,VWS V14.01,2013-01-09 06:01:00,
2013-01-09 02:02:00,21.9,18.9,29.09,East,90,2.7,2.7,88,0.00,,---,0.00,VWS V14.01,2013-01-09 06:02:00,
2013-01-09 02:03:00,20.5,17.8,29.09,East,90,2.7,2.7,89,0.00,,---,0.00,VWS V14.01,2013-01-09 06:03:00,
2013-01-09 02:04:00,21.7,19.0,29.09,East,90,2.7,2.7,89,0.00,,---,0.00,VWS V14.01,2013-01-09 06:04:00,
2013-01-09 02:05:00,21.7,19.0,29.09,East,90,2.7,2.7,89,0.00,,---,0.00,VWS V14.01,2013-01-09 06:05:00,
2013-01-09 02:06:00,21.7,19.0,29.09,East,90,2.7,2.7,89,0.00,,---,0.00,VWS V14.01,2013-01-09 06:06:00,
2013-01-09 02:07:00,21.7,19.0,29.09,East,90,2.7,2.7,89,0.00,,---,0.00,VWS V14.01,2013-01-09 06:07:00,
2013-01-09 02:08:00,20.7,18.2,29.09,East,90,2.7,2.7,90,0.00,,---,0.00,VWS V14.01,2013-01-09 06:08:00,
2013-01-09 02:09:00,21.7,19.0,29.09,East,90,2.7,2.7,89,0.00,,---,0.00,VWS V14.01,2013-01-09 06:09:00,
2013-01-09 02:10:00,21.7,19.0,29.09,East,90,2.7,2.7,89,0.00,,---,0.00,VWS V14.01,2013-01-09 06:10:00,
2013-01-09 02:11:00,21.9,19.2,29.09,East,90,2.7,2.7,89,0.00,,---,0.00,VWS V14.01,2013-01-09 06:11:00,
2013-01-09 02:12:00,21.7,19.0,29.09,East,90,2.7,2.7,89,0.00,,---,0.00,VWS V14.01,2013-01-09 06:12:00,
2013-01-09 02:13:00,21.0,18.5,29.09,East,90,2.7,2.7,90,0.00,,---,0.00,VWS V14.01,2013-01-09 06:13:00,
2013-01-09 02:14:00,21.7,19.0,29.09,East,90,2.7,2.7,89,0.00,,---,0.00,VWS V14.01,2013-01-09 06:14:00,
2013-01-09 02:15:00,21.7,19.0,29.09,East,90,2.7,2.7,89,0.00,,---,0.00,VWS V14.01,2013-01-09 06:15:00,
2013-01-09 02:16:00,21.7,19.0,29.09,East,90,2.7,2.7,89,0.00,,---,0.00,VWS V14.01,2013-01-09 06:16:00,
2013-01-09 02:17:00,21.7,19.0,29.09,East,90,2.7,2.7,89,0.00,,---,0.00,VWS V14.01,2013-01-09 06:17:00,
2013-01-09 02:18:00,20.8,18.4,29.09,East,90,2.7,2.7,90,0.00,,---,0.00,VWS V14.01,2013-01-09 06:18:00,
2013-01-09 02:19:00,21.7,19.0,29.09,East,90,2.7,2.7,89,0.00,,---,0.00,VWS V14.01,2013-01-09 06:19:00,
2013-01-09 02:20:00,21.7,19.0,29.09,East,90,2.7,2.7,89,0.00,,---,0.00,VWS V14.01,2013-01-09 06:20:00,
2013-01-09 02:21:00,21.7,19.0,29.09,East,90,2.7,2.7,89,0.00,,---,0.00,VWS V14.01,2013-01-09 06:21:00,
2013-01-09 02:22:00,21.7,19.0,29.09,East,90,2.7,2.7,89,0.00,,---,0.00,VWS V14.01,2013-01-09 06:22:00,
2013-01-09 02:23:00,20.5,18.0,29.09,East,90,2.7,2.7,90,0.00,,---,0.00,VWS V14.01,2013-01-09 06:23:00,
2013-01-09 02:24:00,21.7,19.0,29.09,East,90,2.7,2.7,89,0.00,,---,0.00,VWS V14.01,2013-01-09 06:24:00,
2013-01-09 02:25:00,21.7,19.0,29.09,East,90,2.7,2.7,89,0.00,,---,0.00,VWS V14.01,2013-01-09 06:25:00,
2013-01-09 02:26:00,21.7,19.0,29.09,East,90,2.7,2.7,89,0.00,,---,0.00,VWS V14.01,2013-01-09 06:26:00,
2013-01-09 02:27:00,21.7,19.0,29.09,East,90,2.7,2.7,89,0.00,,---,0.00,VWS V14.01,2013-01-09 06:27:00,
2013-01-09 02:28:00,20.5,18.0,29.12,East,90,2.7,2.7,90,0.00,,---,0.00,VWS V14.01,2013-01-09 06:28:00,
2013-01-09 02:29:00,21.7,19.0,29.09,East,90,2.7,2.7,89,0.00,,---,0.00,VWS V14.01,2013-01-09 06:29:00,
2013-01-09 02:30:00,21.6,18.8,29.09,East,90,2.7,2.7,89,0.00,,---,0.00,VWS V14.01,2013-01-09 06:30:00,
2013-01-09 02:31:00,21.4,18.6,29.09,East,90,2.7,2.7,89,0.00,,---,0.00,VWS V14.01,2013-01-09 06:31:00,
2013-01-09 02:32:00,21.4,18.6,29.09,East,90,2.7,2.7,89,0.00,,---,0.00,VWS V14.01,2013-01-09 06:32:00,
2013-01-09 02:33:00,20.8,18.4,29.12,East,90,2.7,2.7,90,0.00,,---,0.00,VWS V14.01,2013-01-09 06:33:00,
2013-01-09 02:34:00,21.4,18.6,29.09,East,90,2.7,2.7,89,0.00,,---,0.00,VWS V14.01,2013-01-09 06:34:00,
2013-01-09 02:35:00,21.2,18.5,29.09,East,90,2.7,2.7,89,0.00,,---,0.00,VWS V14.01,2013-01-09 06:35:00,
2013-01-09 02:36:00,21.2,18.5,29.09,East,90,2.7,2.7,89,0.00,,---,0.00,VWS V14.01,2013-01-09 06:36:00,
2013-01-09 02:37:00,21.2,18.5,29.09,East,90,2.7,2.7,89,0.00,,---,0.00,VWS V14.01,2013-01-09 06:37:00,
2013-01-09 02:38:00,20.8,18.4,29.12,East,90,2.7,2.7,90,0.00,,---,0.00,VWS V14.01,2013-01-09 06:38:00,
2013-01-09 02:39:00,21.2,18.5,29.09,East,90,2.7,2.7,89,0.00,,---,0.00,VWS V14.01,2013-01-09 06:39:00,
2013-01-09 02:40:00,21.2,18.5,29.09,East,90,2.7,2.7,89,0.00,,---,0.00,VWS V14.01,2013-01-09 06:40:00,
2013-01-09 02:41:00,21.2,18.7,29.09,East,90,2.7,2.7,90,0.00,,---,0.00,VWS V14.01,2013-01-09 06:41:00,
2013-01-09 02:42:00,21.2,18.7,29.09,East,90,2.7,2.7,90,0.00,,---,0.00,VWS V14.01,2013-01-09 06:42:00,
2013-01-09 02:43:00,20.8,18.4,29.06,East,90,2.7,2.7,90,0.00,,---,0.00,VWS V14.01,2013-01-09 06:43:00,
2013-01-09 02:44:00,21.2,18.7,29.09,East,90,2.7,2.7,90,0.00,,---,0.00,VWS V14.01,2013-01-09 06:44:00,
2013-01-09 02:45:00,21.2,18.7,29.09,East,90,2.7,2.7,90,0.00,,---,0.00,VWS V14.01,2013-01-09 06:45:00,
2013-01-09 02:46:00,21.2,18.7,29.06,East,90,2.7,2.7,90,0.00,,---,0.00,VWS V14.01,2013-01-09 06:46:00,
2013-01-09 02:47:00,21.4,18.6,29.06,East,90,2.7,2.7,89,0.00,,---,0.00,VWS V14.01,2013-01-09 06:47:00,
2013-01-09 02:48:00,20.7,18.2,29.06,East,90,2.7,2.7,90,0.00,,---,0.00,VWS V14.01,2013-01-09 06:48:00,
2013-01-09 02:49:00,21.2,18.7,29.06,East,90,2.7,2.7,90,0.00,,---,0.00,VWS V14.01,2013-01-09 06:49:00,
2013-01-09 02:50:00,21.2,18.7,29.06,East,90,2.7,2.7,90,0.00,,---,0.00,VWS V14.01,2013-01-09 06:50:00,
2013-01-09 02:51:00,21.2,18.7,29.06,East,90,2.7,2.7,90,0.00,,---,0.00,VWS V14.01,2013-01-09 06:51:00,
2013-01-09 02:52:00,21.2,18.7,29.06,East,90,2.7,2.7,90,0.00,,---,0.00,VWS V14.01,2013-01-09 06:52:00,
2013-01-09 02:53:00,20.5,18.0,29.06,East,90,2.7,2.7,90,0.00,,---,0.00,VWS V14.01,2013-01-09 06:53:00,
2013-01-09 02:54:00,21.2,18.7,29.06,East,90,2.7,2.7,90,0.00,,---,0.00,VWS V14.01,2013-01-09 06:54:00,
2013-01-09 02:55:00,21.0,18.5,29.06,East,90,2.7,2.7,90,0.00,,---,0.00,VWS V14.01,2013-01-09 06:55:00,
2013-01-09 02:56:00,21.0,18.5,29.06,East,90,2.7,2.7,90,0.00,,---,0.00,VWS V14.01,2013-01-09 06:56:00,
2013-01-09 02:57:00,21.0,18.5,29.06,East,90,2.7,2.7,90,0.00,,---,0.00,VWS V14.01,2013-01-09 06:57:00,
2013-01-09 02:58:00,20.5,17.8,29.09,East,90,2.7,2.7,89,0.00,,---,0.00,VWS V14.01,2013-01-09 06:58:00,
2013-01-09 02:59:00,20.8,18.4,29.06,East,90,2.7,2.7,90,0.00,,---,0.00,VWS V14.01,2013-01-09 06:59:00,
2013-01-09 03:00:00,20.8,18.4,29.06,East,90,2.7,2.7,90,0.00,,---,0.00,VWS V14.01,2013-01-09 07:00:00,
2013-01-09 03:01:00,20.7,18.2,29.09,East,90,2.7,2.7,90,0.00,,---,0.00,VWS V14.01,2013-01-09 07:01:00,
2013-01-09 03:02:00,20.7,18.2,29.09,East,90,2.7,2.7,90,0.00,,---,0.00,VWS V14.01,2013-01-09 07:02:00,
2013-01-09 03:03:00,20.7,17.9,29.09,East,90,2.7,2.7,89,0.00,,---,0.00,VWS V14.01,2013-01-09 07:03:00,
2013-01-09 03:04:00,20.7,18.2,29.09,East,90,2.7,2.7,90,0.00,,---,0.00,VWS V14.01,2013-01-09 07:04:00,
2013-01-09 03:05:00,20.5,18.0,29.09,East,90,2.7,2.7,90,0.00,,---,0.00,VWS V14.01,2013-01-09 07:05:00,
2013-01-09 03:06:00,20.5,18.0,29.09,East,90,2.7,2.7,90,0.00,,---,0.00,VWS V14.01,2013-01-09 07:06:00,
2013-01-09 03:07:00,20.5,17.8,29.09,East,90,2.7,2.7,89,0.00,,---,0.00,VWS V14.01,2013-01-09 07:07:00,
2013-01-09 03:08:00,20.5,18.0,29.09,East,90,2.7,2.7,90,0.00,,---,0.00,VWS V14.01,2013-01-09 07:08:00,
2013-01-09 03:09:00,20.5,17.8,29.09,East,90,2.7,2.7,89,0.00,,---,0.00,VWS V14.01,2013-01-09 07:09:00,
2013-01-09 03:10:00,20.5,17.8,29.09,East,90,2.7,2.7,89,0.00,,---,0.00,VWS V14.01,2013-01-09 07:10:00,
2013-01-09 03:11:00,20.7,17.9,29.09,East,90,2.7,2.7,89,0.00,,---,0.00,VWS V14.01,2013-01-09 07:11:00,
2013-01-09 03:12:00,20.7,17.9,29.09,East,90,2.7,2.7,89,0.00,,---,0.00,VWS V14.01,2013-01-09 07:12:00,
2013-01-09 03:13:00,20.3,17.6,29.12,East,90,2.7,2.7,89,0.00,,---,0.00,VWS V14.01,2013-01-09 07:13:00,
2013-01-09 03:14:00,20.7,18.2,29.09,East,90,2.7,2.7,90,0.00,,---,0.00,VWS V14.01,2013-01-09 07:14:00,
2013-01-09 03:15:00,20.8,18.4,29.09,East,90,2.7,2.7,90,0.00,,---,0.00,VWS V14.01,2013-01-09 07:15:00,
2013-01-09 03:16:00,20.8,18.4,29.09,East,90,2.7,2.7,90,0.00,,---,0.00,VWS V14.01,2013-01-09 07:16:00,
2013-01-09 03:17:00,21.0,18.5,29.09,East,90,2.7,2.7,90,0.00,,---,0.00,VWS V14.01,2013-01-09 07:17:00,
2013-01-09 03:18:00,20.1,17.4,29.12,East,90,2.7,2.7,89,0.00,,---,0.00,VWS V14.01,2013-01-09 07:18:00,
2013-01-09 03:19:00,21.0,18.8,29.09,East,90,2.7,2.7,91,0.00,,---,0.00,VWS V14.01,2013-01-09 07:19:00,
2013-01-09 03:20:00,21.0,18.8,29.09,East,90,2.7,2.7,91,0.00,,---,0.00,VWS V14.01,2013-01-09 07:20:00,
2013-01-09 03:21:00,21.0,18.8,29.09,East,90,2.7,2.7,91,0.00,,---,0.00,VWS V14.01,2013-01-09 07:21:00,
2013-01-09 03:22:00,20.8,18.6,29.09,East,90,2.7,2.7,91,0.00,,---,0.00,VWS V14.01,2013-01-09 07:22:00,
2013-01-09 03:23:00,19.9,17.2,29.12,East,90,2.7,2.7,89,0.00,,---,0.00,VWS V14.01,2013-01-09 07:23:00,
2013-01-09 03:24:00,20.7,18.2,29.09,East,90,2.7,2.7,90,0.00,,---,0.00,VWS V14.01,2013-01-09 07:24:00,
2013-01-09 03:25:00,20.7,18.2,29.09,East,90,2.7,2.7,90,0.00,,---,0.00,VWS V14.01,2013-01-09 07:25:00,
2013-01-09 03:26:00,20.7,18.2,29.09,East,90,2.7,2.7,90,0.00,,---,0.00,VWS V14.01,2013-01-09 07:26:00,
2013-01-09 03:27:00,20.7,18.2,29.09,East,90,2.7,2.7,90,0.00,,---,0.00,VWS V14.01,2013-01-09 07:27:00,
2013-01-09 03:28:00,19.6,16.9,29.09,East,90,2.7,2.7,89,0.00,,---,0.00,VWS V14.01,2013-01-09 07:28:00,
2013-01-09 03:29:00,20.5,18.0,29.09,East,90,2.7,2.7,90,0.00,,---,0.00,VWS V14.01,2013-01-09 07:29:00,
2013-01-09 03:30:00,20.5,18.0,29.09,East,90,2.7,2.7,90,0.00,,---,0.00,VWS V14.01,2013-01-09 07:30:00,
2013-01-09 03:31:00,20.5,18.0,29.11,East,90,2.7,2.7,90,0.00,,---,0.00,VWS V14.01,2013-01-09 07:31:00,
2013-01-09 03:32:00,20.5,18.0,29.11,East,90,2.7,2.7,90,0.00,,---,0.00,VWS V14.01,2013-01-09 07:32:00,
2013-01-09 03:33:00,19.6,16.9,29.09,East,90,2.7,2.7,89,0.00,,---,0.00,VWS V14.01,2013-01-09 07:33:00,
2013-01-09 03:34:00,20.7,18.2,29.11,East,90,2.7,2.7,90,0.00,,---,0.00,VWS V14.01,2013-01-09 07:34:00,
2013-01-09 03:35:00,20.7,18.2,29.11,East,90,2.7,2.7,90,0.00,,---,0.00,VWS V14.01,2013-01-09 07:35:00,
2013-01-09 03:36:00,20.8,18.4,29.11,East,90,2.7,2.7,90,0.00,,---,0.00,VWS V14.01,2013-01-09 07:36:00,
2013-01-09 03:37:00,20.8,18.4,29.11,East,90,2.7,2.7,90,0.00,,---,0.00,VWS V14.01,2013-01-09 07:37:00,
2013-01-09 03:38:00,19.6,16.9,29.09,East,90,2.7,2.7,89,0.00,,---,0.00,VWS V14.01,2013-01-09 07:38:00,
2013-01-09 03:39:00,20.8,18.4,29.11,East,90,2.7,2.7,90,0.00,,---,0.00,VWS V14.01,2013-01-09 07:39:00,
2013-01-09 03:40:00,20.8,18.4,29.11,East,90,2.7,2.7,90,0.00,,---,0.00,VWS V14.01,2013-01-09 07:40:00,
2013-01-09 03:41:00,20.8,18.4,29.11,East,90,2.7,2.7,90,0.00,,---,0.00,VWS V14.01,2013-01-09 07:41:00,
2013-01-09 03:42:00,20.8,18.4,29.11,East,90,2.7,2.7,90,0.00,,---,0.00,VWS V14.01,2013-01-09 07:42:00,
2013-01-09 03:43:00,19.6,16.9,29.09,East,90,2.7,2.7,89,0.00,,---,0.00,VWS V14.01,2013-01-09 07:43:00,
2013-01-09 03:44:00,21.0,18.5,29.11,East,90,2.7,2.7,90,0.00,,---,0.00,VWS V14.01,2013-01-09 07:44:00,
2013-01-09 03:45:00,21.0,18.5,29.11,East,90,2.7,2.7,90,0.00,,---,0.00,VWS V14.01,2013-01-09 07:45:00,
2013-01-09 03:46:00,20.8,18.4,29.06,East,90,2.7,2.7,90,0.00,,---,0.00,VWS V14.01,2013-01-09 07:46:00,
2013-01-09 03:47:00,20.8,18.4,29.06,East,90,2.7,2.7,90,0.00,,---,0.00,VWS V14.01,2013-01-09 07:47:00,
2013-01-09 03:48:00,19.8,17.0,29.09,East,90,2.7,2.7,89,0.00,,---,0.00,VWS V14.01,2013-01-09 07:48:00,
2013-01-09 03:49:00,20.8,18.4,29.06,East,90,2.7,2.7,90,0.00,,---,0.00,VWS V14.01,2013-01-09 07:49:00,
2013-01-09 03:50:00,20.8,18.4,29.06,East,90,2.7,2.7,90,0.00,,---,0.00,VWS V14.01,2013-01-09 07:50:00,
2013-01-09 03:51:00,20.7,18.2,29.06,East,90,2.7,2.7,90,0.00,,---,0.00,VWS V14.01,2013-01-09 07:51:00,
2013-01-09 03:52:00,20.7,18.2,29.06,East,90,2.7,2.7,90,0.00,,---,0.00,VWS V14.01,2013-01-09 07:52:00,
2013-01-09 03:53:00,19.6,16.9,29.09,East,90,2.7,2.7,89,0.00,,---,0.00,VWS V14.01,2013-01-09 07:53:00,
2013-01-09 03:54:00,20.7,18.2,29.06,East,90,2.7,2.7,90,0.00,,---,0.00,VWS V14.01,2013-01-09 07:54:00,
2013-01-09 03:55:00,20.5,18.0,29.06,East,90,2.7,2.7,90,0.00,,---,0.00,VWS V14.01,2013-01-09 07:55:00,
2013-01-09 03:56:00,20.5,18.0,29.06,East,90,2.7,2.7,90,0.00,,---,0.00,VWS V14.01,2013-01-09 07:56:00,
2013-01-09 03:57:00,20.5,18.0,29.06,East,90,2.7,2.7,90,0.00,,---,0.00,VWS V14.01,2013-01-09 07:57:00,
2013-01-09 03:58:00,19.8,17.0,29.09,East,90,2.7,2.7,89,0.00,,---,0.00,VWS V14.01,2013-01-09 07:58:00,
2013-01-09 03:59:00,20.5,17.8,29.06,East,90,2.7,2.7,89,0.00,,---,0.00,VWS V14.01,2013-01-09 07:59:00,
2013-01-09 04:00:00,20.5,17.8,29.06,East,90,2.7,2.7,89,0.00,,---,0.00,VWS V14.01,2013-01-09 08:00:00,
2013-01-09 04:01:00,20.5,17.8,29.09,East,90,2.7,2.7,89,0.00,,---,0.00,VWS V14.01,2013-01-09 08:01:00,
2013-01-09 04:02:00,20.5,17.8,29.09,East,90,2.7,2.7,89,0.00,,---,0.00,VWS V14.01,2013-01-09 08:02:00,
2013-01-09 04:03:00,19.8,17.0,29.09,East,90,2.7,2.7,89,0.00,,---,0.00,VWS V14.01,2013-01-09 08:03:00,
2013-01-09 04:04:00,20.5,17.8,29.09,East,90,2.7,2.7,89,0.00,,---,0.00,VWS V14.01,2013-01-09 08:04:00,
2013-01-09 04:05:00,20.5,17.8,29.09,East,90,2.7,2.7,89,0.00,,---,0.00,VWS V14.01,2013-01-09 08:05:00,
2013-01-09 04:06:00,20.7,17.9,29.09,East,90,2.7,2.7,89,0.00,,---,0.00,VWS V14.01,2013-01-09 08:06:00,
2013-01-09 04:07:00,20.7,17.9,29.09,East,90,2.7,2.7,89,0.00,,---,0.00,VWS V14.01,2013-01-09 08:07:00,
2013-01-09 04:08:00,19.6,16.9,29.09,East,90,2.7,2.7,89,0.00,,---,0.00,VWS V14.01,2013-01-09 08:08:00,
2013-01-09 04:09:00,20.7,18.2,29.09,East,90,2.7,2.7,90,0.00,,---,0.00,VWS V14.01,2013-01-09 08:09:00,
2013-01-09 04:10:00,20.7,18.2,29.09,East,90,2.7,2.7,90,0.00,,---,0.00,VWS V14.01,2013-01-09 08:10:00,
2013-01-09 04:11:00,20.7,18.2,29.09,East,90,2.7,2.7,90,0.00,,---,0.00,VWS V14.01,2013-01-09 08:11:00,
2013-01-09 04:12:00,20.7,18.2,29.09,East,90,2.7,2.7,90,0.00,,---,0.00,VWS V14.01,2013-01-09 08:12:00,
2013-01-09 04:13:00,19.4,16.7,29.09,East,90,2.7,2.7,89,0.00,,---,0.00,VWS V14.01,2013-01-09 08:13:00,
2013-01-09 04:14:00,20.5,18.0,29.09,East,90,2.7,2.7,90,0.00,,---,0.00,VWS V14.01,2013-01-09 08:14:00,
2013-01-09 04:15:00,20.3,17.6,29.09,East,90,2.7,2.7,89,0.00,,---,0.00,VWS V14.01,2013-01-09 08:15:00,
2013-01-09 04:16:00,20.3,17.6,29.11,East,90,2.7,2.7,89,0.00,,---,0.00,VWS V14.01,2013-01-09 08:16:00,
2013-01-09 04:17:00,20.3,17.6,29.11,East,90,2.7,2.7,89,0.00,,---,0.00,VWS V14.01,2013-01-09 08:17:00,
2013-01-09 04:18:00,19.8,17.0,29.09,East,90,2.7,2.7,89,0.00,,---,0.00,VWS V14.01,2013-01-09 08:18:00,
2013-01-09 04:19:00,20.1,17.4,29.11,East,90,2.7,2.7,89,0.00,,---,0.00,VWS V14.01,2013-01-09 08:19:00,
2013-01-09 04:20:00,20.1,17.4,29.11,East,90,2.7,2.7,89,0.00,,---,0.00,VWS V14.01,2013-01-09 08:20:00,
2013-01-09 04:21:00,20.1,17.4,29.11,East,90,2.7,2.7,89,0.00,,---,0.00,VWS V14.01,2013-01-09 08:21:00,
2013-01-09 04:22:00,20.1,17.4,29.11,East,90,2.7,2.7,89,0.00,,---,0.00,VWS V14.01,2013-01-09 08:22:00,
2013-01-09 04:23:00,19.6,16.9,29.09,East,90,2.7,2.7,89,0.00,,---,0.00,VWS V14.01,2013-01-09 08:23:00,
2013-01-09 04:24:00,20.1,17.4,29.11,East,90,2.7,2.7,89,0.00,,---,0.00,VWS V14.01,2013-01-09 08:24:00,
2013-01-09 04:25:00,20.1,17.4,29.11,East,90,2.7,2.7,89,0.00,,---,0.00,VWS V14.01,2013-01-09 08:25:00,
2013-01-09 04:26:00,20.1,17.4,29.11,East,90,2.7,2.7,89,0.00,,---,0.00,VWS V14.01,2013-01-09 08:26:00,
2013-01-09 04:27:00,19.9,17.2,29.11,East,90,2.7,2.7,89,0.00,,---,0.00,VWS V14.01,2013-01-09 08:27:00,
2013-01-09 04:28:00,19.9,17.2,29.11,East,90,2.7,2.7,89,0.00,,---,0.00,VWS V14.01,2013-01-09 08:28:00,
2013-01-09 04:29:00,19.9,17.2,29.11,East,90,2.7,2.7,89,0.00,,---,0.00,VWS V14.01,2013-01-09 08:29:00,
2013-01-09 04:30:00,19.8,17.0,29.11,East,90,2.7,2.7,89,0.00,,---,0.00,VWS V14.01,2013-01-09 08:30:00,
2013-01-09 04:31:00,19.8,17.0,29.09,East,90,2.7,2.7,89,0.00,,---,0.00,VWS V14.01,2013-01-09 08:31:00,
2013-01-09 04:32:00,19.8,17.0,29.09,East,90,2.7,2.7,89,0.00,,---,0.00,VWS V14.01,2013-01-09 08:32:00,
2013-01-09 04:33:00,19.6,16.9,29.09,East,90,2.7,2.7,89,0.00,,---,0.00,VWS V14.01,2013-01-09 08:33:00,
2013-01-09 04:34:00,19.6,16.9,29.09,East,90,2.7,2.7,89,0.00,,---,0.00,VWS V14.01,2013-01-09 08:34:00,
2013-01-09 04:35:00,19.6,16.9,29.09,East,90,2.7,2.7,89,0.00,,---,0.00,VWS V14.01,2013-01-09 08:35:00,
2013-01-09 04:36:00,19.8,17.0,29.09,East,90,2.7,2.7,89,0.00,,---,0.00,VWS V14.01,2013-01-09 08:36:00,
2013-01-09 04:37:00,19.8,17.0,29.09,East,90,2.7,2.7,89,0.00,,---,0.00,VWS V14.01,2013-01-09 08:37:00,
2013-01-09 04:38:00,19.6,16.9,29.09,East,90,2.7,2.7,89,0.00,,---,0.00,VWS V14.01,2013-01-09 08:38:00,
2013-01-09 04:39:00,19.6,16.9,29.09,East,90,2.7,2.7,89,0.00,,---,0.00,VWS V14.01,2013-01-09 08:39:00,
2013-01-09 04:40:00,19.6,16.9,29.09,East,90,2.7,2.7,89,0.00,,---,0.00,VWS V14.01,2013-01-09 08:40:00,
2013-01-09 04:41:00,19.6,16.9,29.09,East,90,2.7,2.7,89,0.00,,---,0.00,VWS V14.01,2013-01-09 08:41:00,
2013-01-09 04:42:00,19.6,16.9,29.09,East,90,2.7,2.7,89,0.00,,---,0.00,VWS V14.01,2013-01-09 08:42:00,
2013-01-09 04:43:00,19.6,16.9,29.09,East,90,2.7,2.7,89,0.00,,---,0.00,VWS V14.01,2013-01-09 08:43:00,
2013-01-09 04:44:00,19.6,16.9,29.09,East,90,2.7,2.7,89,0.00,,---,0.00,VWS V14.01,2013-01-09 08:44:00,
2013-01-09 04:45:00,19.6,16.9,29.09,East,90,2.7,2.7,89,0.00,,---,0.00,VWS V14.01,2013-01-09 08:45:00,
2013-01-09 04:46:00,19.6,16.9,29.09,East,90,2.7,2.7,89,0.00,,---,0.00,VWS V14.01,2013-01-09 08:46:00,
2013-01-09 04:47:00,19.6,16.9,29.09,East,90,2.7,2.7,89,0.00,,---,0.00,VWS V14.01,2013-01-09 08:47:00,
2013-01-09 04:48:00,19.6,16.9,29.09,East,90,2.7,2.7,89,0.00,,---,0.00,VWS V14.01,2013-01-09 08:48:00,
2013-01-09 04:49:00,19.8,17.0,29.09,East,90,2.7,2.7,89,0.00,,---,0.00,VWS V14.01,2013-01-09 08:49:00,
2013-01-09 04:50:00,19.8,17.0,29.09,East,90,2.7,2.7,89,0.00,,---,0.00,VWS V14.01,2013-01-09 08:50:00,
2013-01-09 04:51:00,19.8,17.0,29.09,East,90,2.7,2.7,89,0.00,,---,0.00,VWS V14.01,2013-01-09 08:51:00,
2013-01-09 04:52:00,19.8,17.0,29.09,East,90,2.7,2.7,89,0.00,,---,0.00,VWS V14.01,2013-01-09 08:52:00,
2013-01-09 04:53:00,19.8,17.0,29.09,East,90,2.7,2.7,89,0.00,,---,0.00,VWS V14.01,2013-01-09 08:53:00,
2013-01-09 04:54:00,19.8,17.0,29.09,East,90,2.7,2.7,89,0.00,,---,0.00,VWS V14.01,2013-01-09 08:54:00,
2013-01-09 04:55:00,19.6,16.9,29.09,East,90,2.7,2.7,89,0.00,,---,0.00,VWS V14.01,2013-01-09 08:55:00,
2013-01-09 04:56:00,19.6,16.9,29.09,East,90,2.7,2.7,89,0.00,,---,0.00,VWS V14.01,2013-01-09 08:56:00,
2013-01-09 04:57:00,19.6,16.9,29.09,East,90,2.7,2.7,89,0.00,,---,0.00,VWS V14.01,2013-01-09 08:57:00,
2013-01-09 04:58:00,19.6,16.9,29.09,East,90,2.7,2.7,89,0.00,,---,0.00,VWS V14.01,2013-01-09 08:58:00,
2013-01-09 04:59:00,19.6,16.9,29.09,East,90,2.7,2.7,89,0.00,,---,0.00,VWS V14.01,2013-01-09 08:59:00,
2013-01-09 05:00:00,19.4,17.0,29.09,East,90,2.7,2.7,90,0.00,,---,0.00,VWS V14.01,2013-01-09 09:00:00,
2013-01-09 05:01:00,19.6,16.9,29.09,East,90,2.7,2.7,89,0.00,,---,0.00,VWS V14.01,2013-01-09 09:01:00,
2013-01-09 05:02:00,19.8,17.0,29.09,East,90,2.7,2.7,89,0.00,,---,0.00,VWS V14.01,2013-01-09 09:02:00,
2013-01-09 05:03:00,19.8,17.0,29.09,East,90,2.7,2.7,89,0.00,,---,0.00,VWS V14.01,2013-01-09 09:03:00,
2013-01-09 05:04:00,19.8,17.0,29.09,East,90,2.7,2.7,89,0.00,,---,0.00,VWS V14.01,2013-01-09 09:04:00,
2013-01-09 05:05:00,19.8,17.0,29.09,East,90,2.7,2.7,89,0.00,,---,0.00,VWS V14.01,2013-01-09 09:05:00,
2013-01-09 05:06:00,19.8,17.0,29.09,East,90,2.7,2.7,89,0.00,,---,0.00,VWS V14.01,2013-01-09 09:06:00,
2013-01-09 05:07:00,19.8,17.0,29.09,East,90,2.7,2.7,89,0.00,,---,0.00,VWS V14.01,2013-01-09 09:07:00,
2013-01-09 05:08:00,19.8,17.0,29.09,East,90,2.7,2.7,89,0.00,,---,0.00,VWS V14.01,2013-01-09 09:08:00,
2013-01-09 05:09:00,19.8,17.0,29.09,East,90,2.7,2.7,89,0.00,,---,0.00,VWS V14.01,2013-01-09 09:09:00,
2013-01-09 05:10:00,19.8,17.0,29.09,East,90,2.7,2.7,89,0.00,,---,0.00,VWS V14.01,2013-01-09 09:10:00,
2013-01-09 05:11:00,19.6,16.9,29.09,East,90,2.7,2.7,89,0.00,,---,0.00,VWS V14.01,2013-01-09 09:11:00,
2013-01-09 05:12:00,19.6,16.9,29.09,East,90,2.7,2.7,89,0.00,,---,0.00,VWS V14.01,2013-01-09 09:12:00,
2013-01-09 05:13:00,19.6,16.9,29.09,East,90,2.7,2.7,89,0.00,,---,0.00,VWS V14.01,2013-01-09 09:13:00,
2013-01-09 05:14:00,19.6,16.9,29.09,East,90,2.7,2.7,89,0.00,,---,0.00,VWS V14.01,2013-01-09 09:14:00,
2013-01-09 05:15:00,19.6,16.9,29.09,East,90,2.7,2.7,89,0.00,,---,0.00,VWS V14.01,2013-01-09 09:15:00,
2013-01-09 05:16:00,19.4,16.7,29.09,East,90,2.7,2.7,89,0.00,,---,0.00,VWS V14.01,2013-01-09 09:16:00,
2013-01-09 05:17:00,19.4,16.7,29.09,East,90,2.7,2.7,89,0.00,,---,0.00,VWS V14.01,2013-01-09 09:17:00,
2013-01-09 05:18:00,19.4,16.7,29.09,East,90,2.7,2.7,89,0.00,,---,0.00,VWS V14.01,2013-01-09 09:18:00,
2013-01-09 05:19:00,19.6,16.9,29.09,East,90,2.7,2.7,89,0.00,,---,0.00,VWS V14.01,2013-01-09 09:19:00,
2013-01-09 05:20:00,19.6,16.9,29.09,East,90,2.7,2.7,89,0.00,,---,0.00,VWS V14.01,2013-01-09 09:20:00,
2013-01-09 05:21:00,19.6,16.9,29.09,East,90,2.7,2.7,89,0.00,,---,0.00,VWS V14.01,2013-01-09 09:21:00,
2013-01-09 05:22:00,19.6,16.9,29.09,East,90,2.7,2.7,89,0.00,,---,0.00,VWS V14.01,2013-01-09 09:22:00,
2013-01-09 05:23:00,19.8,17.0,29.09,East,90,2.7,2.7,89,0.00,,---,0.00,VWS V14.01,2013-01-09 09:23:00,
2013-01-09 05:24:00,19.8,17.0,29.09,East,90,2.7,2.7,89,0.00,,---,0.00,VWS V14.01,2013-01-09 09:24:00,
2013-01-09 05:25:00,19.8,17.0,29.09,East,90,2.7,2.7,89,0.00,,---,0.00,VWS V14.01,2013-01-09 09:25:00,
2013-01-09 05:26:00,19.8,17.0,29.09,East,90,2.7,2.7,89,0.00,,---,0.00,VWS V14.01,2013-01-09 09:26:00,
2013-01-09 05:27:00,19.6,16.9,29.09,East,90,2.7,2.7,89,0.00,,---,0.00,VWS V14.01,2013-01-09 09:27:00,
2013-01-09 05:28:00,19.6,16.9,29.09,East,90,2.7,2.7,89,0.00,,---,0.00,VWS V14.01,2013-01-09 09:28:00,
2013-01-09 05:29:00,19.6,16.9,29.09,East,90,2.7,2.7,89,0.00,,---,0.00,VWS V14.01,2013-01-09 09:29:00,
2013-01-09 05:30:00,19.6,16.9,29.09,East,90,2.7,2.7,89,0.00,,---,0.00,VWS V14.01,2013-01-09 09:30:00,
2013-01-09 05:31:00,19.6,16.9,29.09,East,90,2.7,2.7,89,0.00,,---,0.00,VWS V14.01,2013-01-09 09:31:00,
2013-01-09 05:32:00,19.4,17.0,29.09,East,90,2.7,2.7,90,0.00,,---,0.00,VWS V14.01,2013-01-09 09:32:00,
2013-01-09 05:33:00,19.4,17.0,29.09,East,90,2.7,2.7,90,0.00,,---,0.00,VWS V14.01,2013-01-09 09:33:00,
2013-01-09 05:34:00,19.2,16.5,29.09,East,90,2.7,2.7,89,0.00,,---,0.00,VWS V14.01,2013-01-09 09:34:00,
2013-01-09 05:35:00,19.2,16.5,29.09,East,90,2.7,2.7,89,0.00,,---,0.00,VWS V14.01,2013-01-09 09:35:00,
2013-01-09 05:36:00,19.2,16.5,29.09,East,90,2.7,2.7,89,0.00,,---,0.00,VWS V14.01,2013-01-09 09:36:00,
2013-01-09 05:37:00,19.0,16.3,29.09,East,90,2.7,2.7,89,0.00,,---,0.00,VWS V14.01,2013-01-09 09:37:00,
2013-01-09 05:38:00,19.2,16.5,29.09,East,90,2.7,2.7,89,0.00,,---,0.00,VWS V14.01,2013-01-09 09:38:00,
2013-01-09 05:39:00,19.2,16.5,29.09,East,90,2.7,2.7,89,0.00,,---,0.00,VWS V14.01,2013-01-09 09:39:00,
2013-01-09 05:40:00,19.2,16.5,29.09,East,90,2.7,2.7,89,0.00,,---,0.00,VWS V14.01,2013-01-09 09:40:00,
2013-01-09 05:41:00,19.2,16.5,29.09,East,90,2.7,2.7,89,0.00,,---,0.00,VWS V14.01,2013-01-09 09:41:00,
2013-01-09 05:42:00,19.4,16.7,29.09,East,90,2.7,2.7,89,0.00,,---,0.00,VWS V14.01,2013-01-09 09:42:00,
2013-01-09 05:43:00,19.4,16.7,29.09,East,90,2.7,2.7,89,0.00,,---,0.00,VWS V14.01,2013-01-09 09:43:00,
2013-01-09 05:44:00,19.4,16.7,29.09,East,90,2.7,2.7,89,0.00,,---,0.00,VWS V14.01,2013-01-09 09:44:00,
2013-01-09 05:45:00,19.4,16.7,29.09,East,90,2.7,2.7,89,0.00,,---,0.00,VWS V14.01,2013-01-09 09:45:00,
2013-01-09 05:46:00,19.2,16.5,29.09,East,90,2.7,2.7,89,0.00,,---,0.00,VWS V14.01,2013-01-09 09:46:00,
2013-01-09 05:48:00,19.2,16.5,29.09,East,90,2.7,2.7,89,0.00,,---,0.00,VWS V14.01,2013-01-09 09:48:00,
2013-01-09 05:49:00,19.2,16.5,29.09,East,90,2.7,2.7,89,0.00,,---,0.00,VWS V14.01,2013-01-09 09:49:00,
2013-01-09 05:50:00,19.2,16.5,29.09,East,90,2.7,2.7,89,0.00,,---,0.00,VWS V14.01,2013-01-09 09:50:00,
2013-01-09 05:51:00,19.2,16.5,29.09,East,90,2.7,2.7,89,0.00,,---,0.00,VWS V14.01,2013-01-09 09:51:00,
2013-01-09 05:52:00,19.2,16.5,29.09,East,90,2.7,2.7,89,0.00,,---,0.00,VWS V14.01,2013-01-09 09:52:00,
2013-01-09 05:53:00,19.2,16.5,29.09,East,90,2.7,2.7,89,0.00,,---,0.00,VWS V14.01,2013-01-09 09:53:00,
2013-01-09 05:54:00,19.2,16.5,29.09,East,90,2.7,2.7,89,0.00,,---,0.00,VWS V14.01,2013-01-09 09:54:00,
2013-01-09 05:55:00,19.4,16.7,29.09,East,90,2.7,2.7,89,0.00,,---,0.00,VWS V14.01,2013-01-09 09:55:00,
2013-01-09 05:56:00,19.4,16.7,29.09,East,90,2.7,2.7,89,0.00,,---,0.00,VWS V14.01,2013-01-09 09:56:00,
2013-01-09 05:57:00,19.4,17.0,29.09,East,90,2.7,2.7,90,0.00,,---,0.00,VWS V14.01,2013-01-09 09:57:00,
2013-01-09 05:58:00,19.4,17.0,29.09,East,90,2.7,2.7,90,0.00,,---,0.00,VWS V14.01,2013-01-09 09:58:00,
2013-01-09 05:59:00,19.4,17.0,29.09,East,90,2.7,2.7,90,0.00,,---,0.00,VWS V14.01,2013-01-09 09:59:00,
2013-01-09 06:00:00,19.4,17.0,29.06,East,90,2.7,2.7,90,0.00,,---,0.00,VWS V14.01,2013-01-09 10:00:00,
2013-01-09 06:01:00,19.4,17.0,29.06,East,90,2.7,2.7,90,0.00,,---,0.00,VWS V14.01,2013-01-09 10:01:00,
2013-01-09 06:02:00,19.4,17.0,29.06,East,90,2.7,2.7,90,0.00,,---,0.00,VWS V14.01,2013-01-09 10:02:00,
2013-01-09 06:03:00,19.4,17.0,29.06,East,90,2.7,2.7,90,0.00,,---,0.00,VWS V14.01,2013-01-09 10:03:00,
2013-01-09 06:04:00,19.4,17.0,29.06,East,90,2.7,2.7,90,0.00,,---,0.00,VWS V14.01,2013-01-09 10:04:00,
2013-01-09 06:05:00,19.4,17.0,29.06,East,90,2.7,2.7,90,0.00,,---,0.00,VWS V14.01,2013-01-09 10:05:00,
2013-01-09 06:06:00,19.4,17.0,29.06,East,90,2.7,2.7,90,0.00,,---,0.00,VWS V14.01,2013-01-09 10:06:00,
2013-01-09 06:07:00,19.4,17.0,29.06,East,90,2.7,2.7,90,0.00,,---,0.00,VWS V14.01,2013-01-09 10:07:00,
2013-01-09 06:08:00,19.4,17.0,29.06,East,90,2.7,2.7,90,0.00,,---,0.00,VWS V14.01,2013-01-09 10:08:00,
2013-01-09 06:09:00,19.4,17.0,29.06,East,90,2.7,2.7,90,0.00,,---,0.00,VWS V14.01,2013-01-09 10:09:00,
2013-01-09 06:10:00,19.4,17.0,29.06,East,90,2.7,2.7,90,0.00,,---,0.00,VWS V14.01,2013-01-09 10:10:00,
2013-01-09 06:12:00,19.2,16.8,29.06,East,90,2.7,2.7,90,0.00,,---,0.00,VWS V14.01,2013-01-09 10:12:00,
2013-01-09 06:13:00,19.2,16.8,29.06,East,90,2.7,2.7,90,0.00,,---,0.00,VWS V14.01,2013-01-09 10:13:00,
2013-01-09 06:14:00,19.2,16.8,29.06,East,90,2.7,2.7,90,0.00,,---,0.00,VWS V14.01,2013-01-09 10:14:00,
2013-01-09 06:15:00,19.2,16.5,29.06,East,90,2.7,2.7,89,0.00,,---,0.00,VWS V14.01,2013-01-09 10:15:00,
2013-01-09 06:16:00,19.2,16.5,29.06,East,90,2.7,2.7,89,0.00,,---,0.00,VWS V14.01,2013-01-09 10:16:00,
2013-01-09 06:17:00,19.2,16.5,29.06,East,90,2.7,2.7,89,0.00,,---,0.00,VWS V14.01,2013-01-09 10:17:00,
2013-01-09 06:18:00,19.0,16.3,29.06,East,90,2.7,2.7,89,0.00,,---,0.00,VWS V14.01,2013-01-09 10:18:00,
2013-01-09 06:19:00,19.0,16.3,29.06,East,90,2.7,2.7,89,0.00,,---,0.00,VWS V14.01,2013-01-09 10:19:00,
2013-01-09 06:20:00,19.2,16.5,29.06,East,90,2.7,2.7,89,0.00,,---,0.00,VWS V14.01,2013-01-09 10:20:00,
2013-01-09 06:21:00,19.2,16.5,29.06,East,90,2.7,2.7,89,0.00,,---,0.00,VWS V14.01,2013-01-09 10:21:00,
2013-01-09 06:22:00,19.2,16.5,29.06,East,90,2.7,2.7,89,0.00,,---,0.00,VWS V14.01,2013-01-09 10:22:00,
2013-01-09 06:23:00,19.2,16.5,29.06,East,90,2.7,2.7,89,0.00,,---,0.00,VWS V14.01,2013-01-09 10:23:00,
2013-01-09 06:24:00,19.2,16.5,29.06,East,90,2.7,2.7,89,0.00,,---,0.00,VWS V14.01,2013-01-09 10:24:00,
2013-01-09 06:25:00,19.2,16.5,29.06,East,90,2.7,2.7,89,0.00,,---,0.00,VWS V14.01,2013-01-09 10:25:00,
2013-01-09 06:26:00,19.2,16.5,29.06,East,90,2.7,2.7,89,0.00,,---,0.00,VWS V14.01,2013-01-09 10:26:00,
2013-01-09 06:27:00,19.2,16.5,29.06,East,90,2.7,2.7,89,0.00,,---,0.00,VWS V14.01,2013-01-09 10:27:00,
2013-01-09 06:28:00,19.2,16.5,29.06,East,90,2.7,2.7,89,0.00,,---,0.00,VWS V14.01,2013-01-09 10:28:00,
2013-01-09 06:29:00,19.2,16.5,29.06,East,90,2.7,2.7,89,0.00,,---,0.00,VWS V14.01,2013-01-09 10:29:00,
2013-01-09 06:31:00,19.2,16.5,29.06,East,90,2.7,2.7,89,0.00,,---,0.00,VWS V14.01,2013-01-09 10:31:00,
2013-01-09 06:32:00,19.2,16.5,29.06,East,90,2.7,2.7,89,0.00,,---,0.00,VWS V14.01,2013-01-09 10:32:00,
2013-01-09 06:33:00,19.2,16.5,29.06,East,90,2.7,2.7,89,0.00,,---,0.00,VWS V14.01,2013-01-09 10:33:00,
2013-01-09 06:34:00,19.2,16.5,29.06,East,90,2.7,2.7,89,0.00,,---,0.00,VWS V14.01,2013-01-09 10:34:00,
2013-01-09 06:35:00,19.2,16.8,29.06,East,90,2.7,2.7,90,0.00,,---,0.00,VWS V14.01,2013-01-09 10:35:00,
2013-01-09 06:36:00,19.2,16.8,29.06,East,90,2.7,2.7,90,0.00,,---,0.00,VWS V14.01,2013-01-09 10:36:00,
2013-01-09 06:37:00,19.2,16.8,29.06,East,90,2.7,2.7,90,0.00,,---,0.00,VWS V14.01,2013-01-09 10:37:00,
2013-01-09 06:38:00,19.2,16.8,29.06,East,90,2.7,2.7,90,0.00,,---,0.00,VWS V14.01,2013-01-09 10:38:00,
2013-01-09 06:39:00,19.2,16.8,29.06,East,90,2.7,2.7,90,0.00,,---,0.00,VWS V14.01,2013-01-09 10:39:00,
2013-01-09 06:40:00,19.2,16.8,29.06,East,90,2.7,2.7,90,0.00,,---,0.00,VWS V14.01,2013-01-09 10:40:00,
2013-01-09 06:41:00,19.2,16.8,29.06,East,90,2.7,2.7,90,0.00,,---,0.00,VWS V14.01,2013-01-09 10:41:00,
2013-01-09 06:42:00,19.2,16.8,29.06,East,90,2.7,2.7,90,0.00,,---,0.00,VWS V14.01,2013-01-09 10:42:00,
2013-01-09 06:43:00,19.2,16.8,29.06,East,90,2.7,2.7,90,0.00,,---,0.00,VWS V14.01,2013-01-09 10:43:00,
2013-01-09 06:44:00,19.2,16.8,29.06,East,90,2.7,2.7,90,0.00,,---,0.00,VWS V14.01,2013-01-09 10:44:00,
2013-01-09 06:45:00,19.2,16.8,29.06,East,90,2.7,2.7,90,0.00,,---,0.00,VWS V14.01,2013-01-09 10:45:00,
2013-01-09 06:46:00,19.2,16.8,29.06,East,90,2.7,2.7,90,0.00,,---,0.00,VWS V14.01,2013-01-09 10:46:00,
2013-01-09 06:47:00,19.2,16.8,29.06,East,90,2.7,2.7,90,0.00,,---,0.00,VWS V14.01,2013-01-09 10:47:00,
2013-01-09 06:48:00,19.2,16.8,29.06,East,90,2.7,2.7,90,0.00,,---,0.00,VWS V14.01,2013-01-09 10:48:00,
2013-01-09 06:49:00,19.2,16.8,29.06,East,90,2.7,2.7,90,0.00,,---,0.00,VWS V14.01,2013-01-09 10:49:00,
2013-01-09 06:50:00,19.2,16.8,29.06,East,90,2.7,2.7,90,0.00,,---,0.00,VWS V14.01,2013-01-09 10:50:00,
2013-01-09 06:51:00,19.2,16.8,29.06,East,90,2.7,2.7,90,0.00,,---,0.00,VWS V14.01,2013-01-09 10:51:00,
2013-01-09 06:52:00,19.2,16.8,29.06,East,90,2.7,2.7,90,0.00,,---,0.00,VWS V14.01,2013-01-09 10:52:00,
2013-01-09 06:53:00,19.2,16.8,29.06,East,90,2.7,2.7,90,0.00,,---,0.00,VWS V14.01,2013-01-09 10:53:00,
2013-01-09 06:54:00,19.2,16.8,29.06,East,90,2.7,2.7,90,0.00,,---,0.00,VWS V14.01,2013-01-09 10:54:00,
2013-01-09 06:55:00,19.0,16.3,29.00,East,90,2.7,2.7,89,0.00,,---,0.00,VWS V14.01,2013-01-09 10:55:00,
2013-01-09 06:56:00,19.2,16.8,29.06,East,90,2.7,2.7,90,0.00,,---,0.00,VWS V14.01,2013-01-09 10:56:00,
2013-01-09 06:57:00,19.2,16.8,29.06,East,90,2.7,2.7,90,0.00,,---,0.00,VWS V14.01,2013-01-09 10:57:00,
2013-01-09 06:58:00,19.2,16.5,29.06,East,90,2.7,2.7,89,0.00,,---,0.00,VWS V14.01,2013-01-09 10:58:00,
2013-01-09 06:59:00,19.2,16.8,29.06,East,90,2.7,2.7,90,0.00,,---,0.00,VWS V14.01,2013-01-09 10:59:00,
2013-01-09 07:00:00,19.2,16.8,29.00,East,90,2.7,2.7,90,0.00,,---,0.00,VWS V14.01,2013-01-09 11:00:00,
2013-01-09 07:01:00,19.2,16.8,29.03,East,90,2.7,2.7,90,0.00,,---,0.00,VWS V14.01,2013-01-09 11:01:00,
2013-01-09 07:02:00,19.2,16.8,29.03,East,90,2.7,2.7,90,0.00,,---,0.00,VWS V14.01,2013-01-09 11:02:00,
2013-01-09 07:03:00,19.2,16.8,29.03,East,90,2.7,2.7,90,0.00,,---,0.00,VWS V14.01,2013-01-09 11:03:00,
2013-01-09 07:04:00,19.2,16.8,29.03,East,90,2.7,2.7,90,0.00,,---,0.00,VWS V14.01,2013-01-09 11:04:00,
2013-01-09 07:05:00,19.2,16.8,29.00,East,90,2.7,2.7,90,0.00,,---,0.00,VWS V14.01,2013-01-09 11:05:00,
2013-01-09 07:06:00,19.2,16.8,29.03,East,90,2.7,2.7,90,0.00,,---,0.00,VWS V14.01,2013-01-09 11:06:00,
2013-01-09 07:07:00,19.2,16.8,29.03,East,90,2.7,2.7,90,0.00,,---,0.00,VWS V14.01,2013-01-09 11:07:00,
2013-01-09 07:08:00,19.2,16.8,29.03,East,90,2.7,2.7,90,0.00,,---,0.00,VWS V14.01,2013-01-09 11:08:00,
2013-01-09 07:09:00,19.2,16.8,29.03,East,90,2.7,2.7,90,0.00,,---,0.00,VWS V14.01,2013-01-09 11:09:00,
2013-01-09 07:10:00,19.0,16.6,29.03,East,90,2.7,2.7,90,0.00,,---,0.00,VWS V14.01,2013-01-09 11:10:00,
2013-01-09 07:11:00,19.2,16.8,29.03,East,90,2.7,2.7,90,0.00,,---,0.00,VWS V14.01,2013-01-09 11:11:00,
2013-01-09 07:13:00,19.2,16.8,29.03,East,90,2.7,2.7,90,0.00,,---,0.00,VWS V14.01,2013-01-09 11:13:00,
2013-01-09 07:14:00,19.2,16.5,29.03,East,90,2.7,2.7,89,0.00,,---,0.00,VWS V14.01,2013-01-09 11:14:00,
2013-01-09 07:15:00,19.0,16.6,29.03,East,90,2.7,2.7,90,0.00,,---,0.00,VWS V14.01,2013-01-09 11:15:00,
2013-01-09 07:16:00,19.2,16.5,29.03,East,90,2.7,2.7,89,0.00,,---,0.00,VWS V14.01,2013-01-09 11:16:00,
2013-01-09 07:17:00,19.2,16.5,29.03,East,90,2.7,2.7,89,0.00,,---,0.00,VWS V14.01,2013-01-09 11:17:00,
2013-01-09 07:18:00,19.2,16.5,29.03,East,90,2.7,2.7,89,0.00,,---,0.00,VWS V14.01,2013-01-09 11:18:00,
2013-01-09 07:19:00,19.2,16.5,29.03,East,90,2.7,2.7,89,0.00,,---,0.00,VWS V14.01,2013-01-09 11:19:00,
2013-01-09 07:20:00,19.2,16.8,29.03,East,90,2.7,2.7,90,0.00,,---,0.00,VWS V14.01,2013-01-09 11:20:00,
2013-01-09 07:21:00,19.4,16.7,29.03,East,90,2.7,2.7,89,0.00,,---,0.00,VWS V14.01,2013-01-09 11:21:00,
2013-01-09 07:22:00,19.4,16.7,29.03,East,90,2.7,2.7,89,0.00,,---,0.00,VWS V14.01,2013-01-09 11:22:00,
2013-01-09 07:23:00,19.4,17.0,29.03,East,90,2.7,2.7,90,0.00,,---,0.00,VWS V14.01,2013-01-09 11:23:00,
2013-01-09 07:24:00,19.4,17.0,29.03,East,90,2.7,2.7,90,0.00,,---,0.00,VWS V14.01,2013-01-09 11:24:00,
2013-01-09 07:25:00,19.0,16.6,29.03,East,90,2.7,2.7,90,0.00,,---,0.00,VWS V14.01,2013-01-09 11:25:00,
2013-01-09 07:26:00,19.2,16.8,29.03,East,90,2.7,2.7,90,0.00,,---,0.00,VWS V14.01,2013-01-09 11:26:00,
2013-01-09 07:27:00,19.4,17.0,29.03,East,90,2.7,2.7,90,0.00,,---,0.00,VWS V14.01,2013-01-09 11:27:00,
2013-01-09 07:28:00,19.4,17.0,29.03,East,90,2.7,2.7,90,0.00,,---,0.00,VWS V14.01,2013-01-09 11:28:00,
2013-01-09 07:29:00,19.4,17.0,29.03,East,90,2.7,2.7,90,0.00,,---,0.00,VWS V14.01,2013-01-09 11:29:00,
2013-01-09 07:30:00,19.2,16.8,29.03,East,90,2.7,2.7,90,0.00,,---,0.00,VWS V14.01,2013-01-09 11:30:00,
2013-01-09 07:31:00,19.2,16.8,29.00,East,90,2.7,2.7,90,0.00,,---,0.00,VWS V14.01,2013-01-09 11:31:00,
2013-01-09 07:33:00,19.2,16.8,29.00,East,90,2.7,2.7,90,0.00,,---,0.00,VWS V14.01,2013-01-09 11:33:00,
2013-01-09 07:34:00,19.2,16.8,29.00,East,90,2.7,2.7,90,0.00,,---,0.00,VWS V14.01,2013-01-09 11:34:00,
2013-01-09 07:35:00,19.2,16.8,29.00,East,90,2.7,2.7,90,0.00,,---,0.00,VWS V14.01,2013-01-09 11:35:00,
2013-01-09 07:36:00,19.2,16.8,29.03,East,90,2.7,2.7,90,0.00,,---,0.00,VWS V14.01,2013-01-09 11:36:00,
2013-01-09 07:37:00,19.2,16.8,29.00,East,90,2.7,2.7,90,0.00,,---,0.00,VWS V14.01,2013-01-09 11:37:00,
2013-01-09 07:38:00,19.2,16.8,29.00,East,90,2.7,2.7,90,0.00,,---,0.00,VWS V14.01,2013-01-09 11:38:00,
2013-01-09 07:39:00,19.2,16.8,29.00,East,90,2.7,2.7,90,0.00,,---,0.00,VWS V14.01,2013-01-09 11:39:00,
2013-01-09 07:40:00,19.2,16.8,29.00,East,90,2.7,2.7,90,0.00,,---,0.00,VWS V14.01,2013-01-09 11:40:00,
2013-01-09 07:41:00,19.2,16.8,29.03,East,90,2.7,2.7,90,0.00,,---,0.00,VWS V14.01,2013-01-09 11:41:00,
2013-01-09 07:42:00,19.2,16.8,29.00,East,90,2.7,2.7,90,0.00,,---,0.00,VWS V14.01,2013-01-09 11:42:00,
2013-01-09 07:43:00,19.2,16.8,29.00,East,90,2.7,2.7,90,0.00,,---,0.00,VWS V14.01,2013-01-09 11:43:00,
2013-01-09 07:44:00,19.2,16.8,29.00,East,90,2.7,2.7,90,0.00,,---,0.00,VWS V14.01,2013-01-09 11:44:00,
2013-01-09 07:45:00,19.4,17.0,29.00,East,90,2.7,2.7,90,0.00,,---,0.00,VWS V14.01,2013-01-09 11:45:00,
2013-01-09 07:46:00,19.2,16.8,29.03,East,90,2.7,2.7,90,0.00,,---,0.00,VWS V14.01,2013-01-09 11:46:00,
2013-01-09 07:47:00,19.4,17.0,29.00,East,90,2.7,2.7,90,0.00,,---,0.00,VWS V14.01,2013-01-09 11:47:00,
2013-01-09 07:48:00,19.4,17.0,29.00,East,90,2.7,2.7,90,0.00,,---,0.00,VWS V14.01,2013-01-09 11:48:00,
2013-01-09 07:49:00,19.4,17.0,29.00,East,90,2.7,2.7,90,0.00,,---,0.00,VWS V14.01,2013-01-09 11:49:00,
2013-01-09 07:50:00,19.4,17.0,29.00,East,90,2.7,2.7,90,0.00,,---,0.00,VWS V14.01,2013-01-09 11:50:00,
2013-01-09 07:51:00,19.2,16.8,29.03,East,90,2.7,2.7,90,0.00,,---,0.00,VWS V14.01,2013-01-09 11:51:00,
2013-01-09 07:53:00,19.2,16.8,29.00,East,90,2.7,2.7,90,0.00,,---,0.00,VWS V14.01,2013-01-09 11:53:00,
2013-01-09 07:54:00,19.2,16.8,29.00,East,90,2.7,2.7,90,0.00,,---,0.00,VWS V14.01,2013-01-09 11:54:00,
2013-01-09 07:55:00,19.2,16.8,29.00,East,90,2.7,2.7,90,0.00,,---,0.00,VWS V14.01,2013-01-09 11:55:00,
2013-01-09 07:56:00,19.6,17.1,29.00,East,90,2.7,2.7,90,0.00,,---,0.00,VWS V14.01,2013-01-09 11:56:00,
2013-01-09 07:59:00,19.0,16.3,29.00,East,90,2.7,2.7,89,0.00,,---,0.00,VWS V14.01,2013-01-09 11:59:00,
2013-01-09 08:00:00,19.0,16.3,29.00,East,90,2.7,2.7,89,0.00,,---,0.00,VWS V14.01,2013-01-09 12:00:00,
2013-01-09 08:01:00,19.6,17.1,29.00,East,90,2.7,2.7,90,0.00,,---,0.00,VWS V14.01,2013-01-09 12:01:00,
2013-01-09 08:02:00,19.0,16.3,29.00,East,90,2.7,2.7,89,0.00,,---,0.00,VWS V14.01,2013-01-09 12:02:00,
2013-01-09 08:03:00,19.0,16.3,29.00,East,90,2.7,2.7,89,0.00,,---,0.00,VWS V14.01,2013-01-09 12:03:00,
2013-01-09 08:05:00,19.0,16.3,29.00,East,90,2.7,2.7,89,0.00,,---,0.00,VWS V14.01,2013-01-09 12:05:00,
2013-01-09 08:06:00,19.8,17.3,29.00,East,90,2.7,2.7,90,0.00,,---,0.00,VWS V14.01,2013-01-09 12:06:00,
2013-01-09 08:07:00,19.2,16.8,29.00,East,90,2.7,2.7,90,0.00,,---,0.00,VWS V14.01,2013-01-09 12:07:00,
2013-01-09 08:08:00,19.2,16.8,29.00,East,90,2.7,2.7,90,0.00,,---,0.00,VWS V14.01,2013-01-09 12:08:00,
2013-01-09 08:09:00,19.2,16.8,29.00,East,90,2.7,2.7,90,0.00,,---,0.00,VWS V14.01,2013-01-09 12:09:00,
2013-01-09 08:10:00,19.2,16.8,29.00,East,90,2.7,2.7,90,0.00,,---,0.00,VWS V14.01,2013-01-09 12:10:00,
2013-01-09 08:11:00,20.1,17.9,29.03,East,90,2.7,2.7,91,0.00,,---,0.00,VWS V14.01,2013-01-09 12:11:00,
2013-01-09 08:12:00,19.2,16.8,29.00,East,90,2.7,2.7,90,0.00,,---,0.00,VWS V14.01,2013-01-09 12:12:00,
2013-01-09 08:13:00,19.2,16.8,29.00,East,90,2.7,2.7,90,0.00,,---,0.00,VWS V14.01,2013-01-09 12:13:00,
2013-01-09 08:14:00,19.0,16.6,29.00,East,90,2.7,2.7,90,0.00,,---,0.00,VWS V14.01,2013-01-09 12:14:00,
2013-01-09 08:15:00,19.0,16.6,29.00,East,90,2.7,2.7,90,0.00,,---,0.00,VWS V14.01,2013-01-09 12:15:00,
2013-01-09 08:16:00,20.3,18.1,29.03,East,90,2.7,2.7,91,0.00,,---,0.00,VWS V14.01,2013-01-09 12:16:00,
2013-01-09 08:17:00,19.2,16.8,29.03,East,90,2.7,2.7,90,0.00,,---,0.00,VWS V14.01,2013-01-09 12:17:00,
2013-01-09 08:18:00,19.0,16.6,29.03,East,90,2.7,2.7,90,0.00,,---,0.00,VWS V14.01,2013-01-09 12:18:00,
2013-01-09 08:19:00,19.0,16.6,29.03,East,90,2.7,2.7,90,0.00,,---,0.00,VWS V14.01,2013-01-09 12:19:00,
2013-01-09 08:20:00,19.0,16.6,29.03,East,90,2.7,2.7,90,0.00,,---,0.00,VWS V14.01,2013-01-09 12:20:00,
2013-01-09 08:21:00,20.1,17.9,29.03,East,90,2.7,2.7,91,0.00,,---,0.00,VWS V14.01,2013-01-09 12:21:00,
2013-01-09 08:22:00,19.0,16.6,29.03,East,90,2.7,2.7,90,0.00,,---,0.00,VWS V14.01,2013-01-09 12:22:00,
2013-01-09 08:23:00,19.2,16.8,29.03,East,90,2.7,2.7,90,0.00,,---,0.00,VWS V14.01,2013-01-09 12:23:00,
2013-01-09 08:24:00,19.2,16.8,29.03,East,90,2.7,2.7,90,0.00,,---,0.00,VWS V14.01,2013-01-09 12:24:00,
2013-01-09 08:25:00,19.2,16.8,29.03,East,90,2.7,2.7,90,0.00,,---,0.00,VWS V14.01,2013-01-09 12:25:00,
2013-01-09 08:26:00,20.3,18.1,29.03,East,90,2.7,2.7,91,0.00,,---,0.00,VWS V14.01,2013-01-09 12:26:00,
2013-01-09 08:27:00,19.2,16.8,29.03,East,90,2.7,2.7,90,0.00,,---,0.00,VWS V14.01,2013-01-09 12:27:00,
2013-01-09 08:28:00,19.2,16.8,29.03,East,90,2.7,2.7,90,0.00,,---,0.00,VWS V14.01,2013-01-09 12:28:00,
2013-01-09 08:29:00,19.2,16.8,29.03,East,90,2.7,2.7,90,0.00,,---,0.00,VWS V14.01,2013-01-09 12:29:00,
2013-01-09 08:30:00,19.2,16.8,29.03,East,90,2.7,2.7,90,0.00,,---,0.00,VWS V14.01,2013-01-09 12:30:00,
2013-01-09 08:31:00,20.5,18.3,29.03,East,90,2.7,2.7,91,0.00,,---,0.00,VWS V14.01,2013-01-09 12:31:00,
2013-01-09 08:32:00,19.0,16.6,29.03,East,90,2.7,2.7,90,0.00,,---,0.00,VWS V14.01,2013-01-09 12:32:00,
2013-01-09 08:33:00,19.0,16.6,29.03,East,90,2.7,2.7,90,0.00,,---,0.00,VWS V14.01,2013-01-09 12:33:00,
2013-01-09 08:34:00,19.2,16.8,29.03,East,90,2.7,2.7,90,0.00,,---,0.00,VWS V14.01,2013-01-09 12:34:00,
2013-01-09 08:35:00,19.2,16.8,29.03,East,90,2.7,2.7,90,0.00,,---,0.00,VWS V14.01,2013-01-09 12:35:00,
2013-01-09 08:36:00,20.7,18.5,29.03,East,90,2.7,2.7,91,0.00,,---,0.00,VWS V14.01,2013-01-09 12:36:00,
2013-01-09 08:37:00,19.2,16.8,29.03,East,90,2.7,2.7,90,0.00,,---,0.00,VWS V14.01,2013-01-09 12:37:00,
2013-01-09 08:38:00,19.2,16.8,29.03,East,90,2.7,2.7,90,0.00,,---,0.00,VWS V14.01,2013-01-09 12:38:00,
2013-01-09 08:39:00,19.2,16.8,29.03,East,90,2.7,2.7,90,0.00,,---,0.00,VWS V14.01,2013-01-09 12:39:00,
2013-01-09 08:40:00,19.2,16.8,29.03,East,90,2.7,2.7,90,0.00,,---,0.00,VWS V14.01,2013-01-09 12:40:00,
2013-01-09 08:41:00,20.8,18.6,29.03,East,90,2.7,2.7,91,0.00,,---,0.00,VWS V14.01,2013-01-09 12:41:00,
2013-01-09 08:42:00,19.2,16.8,29.03,East,90,2.7,2.7,90,0.00,,---,0.00,VWS V14.01,2013-01-09 12:42:00,
2013-01-09 08:43:00,19.2,16.8,29.03,East,90,2.7,2.7,90,0.00,,---,0.00,VWS V14.01,2013-01-09 12:43:00,
2013-01-09 08:44:00,19.2,16.8,29.03,East,90,2.7,2.7,90,0.00,,---,0.00,VWS V14.01,2013-01-09 12:44:00,
2013-01-09 08:45:00,19.2,16.8,29.03,East,90,2.7,2.7,90,0.00,,---,0.00,VWS V14.01,2013-01-09 12:45:00,
2013-01-09 08:46:00,21.0,19.1,29.03,East,90,2.7,2.7,92,0.00,,---,0.00,VWS V14.01,2013-01-09 12:46:00,
2013-01-09 08:47:00,19.2,16.8,29.03,East,90,2.7,2.7,90,0.00,,---,0.00,VWS V14.01,2013-01-09 12:47:00,
2013-01-09 08:48:00,19.2,16.8,29.03,East,90,2.7,2.7,90,0.00,,---,0.00,VWS V14.01,2013-01-09 12:48:00,
2013-01-09 08:49:00,19.2,16.8,29.03,East,90,2.7,2.7,90,0.00,,---,0.00,VWS V14.01,2013-01-09 12:49:00,
2013-01-09 08:50:00,19.2,16.8,29.03,East,90,2.7,2.7,90,0.00,,---,0.00,VWS V14.01,2013-01-09 12:50:00,
2013-01-09 08:51:00,21.2,19.2,29.03,East,90,2.7,2.7,92,0.00,,---,0.00,VWS V14.01,2013-01-09 12:51:00,
2013-01-09 08:52:00,19.2,16.8,29.03,East,90,2.7,2.7,90,0.00,,---,0.00,VWS V14.01,2013-01-09 12:52:00,
2013-01-09 08:53:00,19.2,16.8,29.03,East,90,2.7,2.7,90,0.00,,---,0.00,VWS V14.01,2013-01-09 12:53:00,
2013-01-09 08:54:00,19.2,16.8,29.03,East,90,2.7,2.7,90,0.00,,---,0.00,VWS V14.01,2013-01-09 12:54:00,
2013-01-09 08:55:00,19.2,16.8,29.03,East,90,2.7,2.7,90,0.00,,---,0.00,VWS V14.01,2013-01-09 12:55:00,
2013-01-09 08:56:00,21.4,19.4,29.00,East,90,2.7,2.7,92,0.00,,---,0.00,VWS V14.01,2013-01-09 12:56:00,
2013-01-09 08:57:00,19.2,16.8,29.03,East,90,2.7,2.7,90,0.00,,---,0.00,VWS V14.01,2013-01-09 12:57:00,
2013-01-09 08:58:00,19.4,17.0,29.03,East,90,2.7,2.7,90,0.00,,---,0.00,VWS V14.01,2013-01-09 12:58:00,
2013-01-09 08:59:00,19.4,17.0,29.03,East,90,2.7,2.7,90,0.00,,---,0.00,VWS V14.01,2013-01-09 12:59:00,
2013-01-09 09:00:00,19.4,17.0,29.03,East,90,2.7,2.7,90,0.00,,---,0.00,VWS V14.01,2013-01-09 13:00:00,
2013-01-09 09:01:00,21.9,20.0,29.00,East,90,2.7,2.7,92,0.00,,---,0.00,VWS V14.01,2013-01-09 13:01:00,
2013-01-09 09:02:00,19.6,17.1,29.00,East,90,2.7,2.7,90,0.00,,---,0.00,VWS V14.01,2013-01-09 13:02:00,
2013-01-09 09:03:00,19.6,17.1,29.00,East,90,2.7,2.7,90,0.00,,---,0.00,VWS V14.01,2013-01-09 13:03:00,
2013-01-09 09:04:00,19.6,17.1,29.00,East,90,2.7,2.7,90,0.00,,---,0.00,VWS V14.01,2013-01-09 13:04:00,
2013-01-09 09:05:00,19.6,17.1,29.00,East,90,2.7,2.7,90,0.00,,---,0.00,VWS V14.01,2013-01-09 13:05:00,
2013-01-09 09:06:00,22.1,20.1,29.00,East,90,2.7,2.7,92,0.00,,---,0.00,VWS V14.01,2013-01-09 13:06:00,
2013-01-09 09:07:00,19.6,17.1,29.00,East,90,2.7,2.7,90,0.00,,---,0.00,VWS V14.01,2013-01-09 13:07:00,
2013-01-09 09:08:00,19.6,17.1,29.00,East,90,2.7,2.7,90,0.00,,---,0.00,VWS V14.01,2013-01-09 13:08:00,
2013-01-09 09:09:00,19.6,17.1,29.00,East,90,2.7,2.7,90,0.00,,---,0.00,VWS V14.01,2013-01-09 13:09:00,
2013-01-09 09:10:00,19.8,17.3,29.00,East,90,2.7,2.7,90,0.00,,---,0.00,VWS V14.01,2013-01-09 13:10:00,
2013-01-09 09:11:00,22.3,20.3,29.03,East,90,2.7,2.7,92,0.00,,---,0.00,VWS V14.01,2013-01-09 13:11:00,
2013-01-09 09:12:00,19.8,17.3,29.00,East,90,2.7,2.7,90,0.00,,---,0.00,VWS V14.01,2013-01-09 13:12:00,
2013-01-09 09:13:00,19.9,17.5,29.00,East,90,2.7,2.7,90,0.00,,---,0.00,VWS V14.01,2013-01-09 13:13:00,
2013-01-09 09:14:00,20.1,17.9,29.00,East,90,2.7,2.7,91,0.00,,---,0.00,VWS V14.01,2013-01-09 13:14:00,
2013-01-09 09:15:00,20.1,17.9,29.00,East,90,2.7,2.7,91,0.00,,---,0.00,VWS V14.01,2013-01-09 13:15:00,
2013-01-09 09:16:00,22.5,20.5,29.03,East,90,2.7,2.7,92,0.00,,---,0.00,VWS V14.01,2013-01-09 13:16:00,
2013-01-09 09:17:00,20.3,18.1,29.03,East,90,2.7,2.7,91,0.00,,---,0.00,VWS V14.01,2013-01-09 13:17:00,
2013-01-09 09:18:00,20.3,18.1,29.03,East,90,2.7,2.7,91,0.00,,---,0.00,VWS V14.01,2013-01-09 13:18:00,
2013-01-09 09:19:00,20.3,18.1,29.03,East,90,2.7,2.7,91,0.00,,---,0.00,VWS V14.01,2013-01-09 13:19:00,
2013-01-09 09:20:00,20.3,18.1,29.03,East,90,2.7,2.7,91,0.00,,---,0.00,VWS V14.01,2013-01-09 13:20:00,
2013-01-09 09:21:00,22.8,21.1,29.03,East,90,2.7,2.7,93,0.00,,---,0.00,VWS V14.01,2013-01-09 13:21:00,
2013-01-09 09:22:00,20.3,18.1,29.03,East,90,2.7,2.7,91,0.00,,---,0.00,VWS V14.01,2013-01-09 13:22:00,
2013-01-09 09:23:00,20.3,18.1,29.03,East,90,2.7,2.7,91,0.00,,---,0.00,VWS V14.01,2013-01-09 13:23:00,
2013-01-09 09:24:00,20.3,18.1,29.03,East,90,2.7,2.7,91,0.00,,---,0.00,VWS V14.01,2013-01-09 13:24:00,
2013-01-09 09:25:00,20.1,17.9,29.03,East,90,2.7,2.7,91,0.00,,---,0.00,VWS V14.01,2013-01-09 13:25:00,
2013-01-09 09:26:00,23.2,21.5,29.03,East,90,2.7,2.7,93,0.00,,---,0.00,VWS V14.01,2013-01-09 13:26:00,
2013-01-09 09:27:00,20.1,17.9,29.03,East,90,2.7,2.7,91,0.00,,---,0.00,VWS V14.01,2013-01-09 13:27:00,
2013-01-09 09:28:00,20.1,17.9,29.03,East,90,2.7,2.7,91,0.00,,---,0.00,VWS V14.01,2013-01-09 13:28:00,
2013-01-09 09:29:00,20.3,18.1,29.03,East,90,2.7,2.7,91,0.00,,---,0.00,VWS V14.01,2013-01-09 13:29:00,
2013-01-09 09:30:00,20.3,18.1,29.03,East,90,2.7,2.7,91,0.00,,---,0.00,VWS V14.01,2013-01-09 13:30:00,
2013-01-09 09:31:00,23.7,22.0,29.03,East,90,2.7,2.7,93,0.00,,---,0.00,VWS V14.01,2013-01-09 13:31:00,
2013-01-09 09:32:00,20.3,18.1,29.03,East,90,2.7,2.7,91,0.00,,---,0.00,VWS V14.01,2013-01-09 13:32:00,
2013-01-09 09:33:00,20.3,18.1,29.03,East,90,2.7,2.7,91,0.00,,---,0.00,VWS V14.01,2013-01-09 13:33:00,
2013-01-09 09:34:00,20.5,18.3,29.03,East,90,2.7,2.7,91,0.00,,---,0.00,VWS V14.01,2013-01-09 13:34:00,
2013-01-09 09:35:00,20.5,18.3,29.03,East,90,2.7,2.7,91,0.00,,---,0.00,VWS V14.01,2013-01-09 13:35:00,
2013-01-09 09:36:00,24.3,22.8,29.03,East,90,2.7,2.7,94,0.00,,---,0.00,VWS V14.01,2013-01-09 13:36:00,
2013-01-09 09:37:00,20.5,18.3,29.03,East,90,2.7,2.7,91,0.00,,---,0.00,VWS V14.01,2013-01-09 13:37:00,
2013-01-09 09:38:00,20.5,18.3,29.03,East,90,2.7,2.7,91,0.00,,---,0.00,VWS V14.01,2013-01-09 13:38:00,
2013-01-09 09:39:00,20.7,18.5,29.03,East,90,2.7,2.7,91,0.00,,---,0.00,VWS V14.01,2013-01-09 13:39:00,
2013-01-09 09:40:00,20.7,18.5,29.03,East,90,2.7,2.7,91,0.00,,---,0.00,VWS V14.01,2013-01-09 13:40:00,
2013-01-09 09:41:00,24.6,23.1,29.00,East,90,2.7,2.7,94,0.00,,---,0.00,VWS V14.01,2013-01-09 13:41:00,
2013-01-09 09:42:00,20.7,18.5,29.03,East,90,2.7,2.7,91,0.00,,---,0.00,VWS V14.01,2013-01-09 13:42:00,
2013-01-09 09:43:00,20.7,18.5,29.03,East,90,2.7,2.7,91,0.00,,---,0.00,VWS V14.01,2013-01-09 13:43:00,
2013-01-09 09:44:00,20.8,18.6,29.03,East,90,2.7,2.7,91,0.00,,---,0.00,VWS V14.01,2013-01-09 13:44:00,
2013-01-09 09:45:00,20.8,18.6,29.03,East,90,2.7,2.7,91,0.00,,---,0.00,VWS V14.01,2013-01-09 13:45:00,
2013-01-09 09:46:00,25.0,23.5,29.00,East,90,2.7,2.7,94,0.00,,---,0.00,VWS V14.01,2013-01-09 13:46:00,
2013-01-09 09:47:00,20.8,18.6,29.03,East,90,2.7,2.7,91,0.00,,---,0.00,VWS V14.01,2013-01-09 13:47:00,
2013-01-09 09:48:00,20.8,18.6,29.03,East,90,2.7,2.7,91,0.00,,---,0.00,VWS V14.01,2013-01-09 13:48:00,
2013-01-09 09:49:00,21.0,19.1,29.03,East,90,2.7,2.7,92,0.00,,---,0.00,VWS V14.01,2013-01-09 13:49:00,
2013-01-09 09:50:00,21.0,19.1,29.03,East,90,2.7,2.7,92,0.00,,---,0.00,VWS V14.01,2013-01-09 13:50:00,
2013-01-09 09:51:00,25.3,23.9,29.00,East,90,2.7,2.7,94,0.00,,---,0.00,VWS V14.01,2013-01-09 13:51:00,
2013-01-09 09:52:00,21.0,19.1,29.03,East,90,2.7,2.7,92,0.00,,---,0.00,VWS V14.01,2013-01-09 13:52:00,
2013-01-09 09:53:00,21.0,19.1,29.03,East,90,2.7,2.7,92,0.00,,---,0.00,VWS V14.01,2013-01-09 13:53:00,
2013-01-09 09:54:00,21.0,19.1,29.03,East,90,2.7,2.7,92,0.00,,---,0.00,VWS V14.01,2013-01-09 13:54:00,
2013-01-09 09:55:00,21.0,19.1,29.03,East,90,2.7,2.7,92,0.00,,---,0.00,VWS V14.01,2013-01-09 13:55:00,
2013-01-09 09:56:00,25.7,24.2,29.00,East,90,2.7,2.7,94,0.00,,---,0.00,VWS V14.01,2013-01-09 13:56:00,
2013-01-09 09:57:00,21.2,19.2,29.03,East,90,2.7,2.7,92,0.00,,---,0.00,VWS V14.01,2013-01-09 13:57:00,
2013-01-09 09:58:00,21.2,19.2,29.03,East,90,2.7,2.7,92,0.00,,---,0.00,VWS V14.01,2013-01-09 13:58:00,
2013-01-09 09:59:00,21.2,19.2,29.03,East,90,2.7,2.7,92,0.00,,---,0.00,VWS V14.01,2013-01-09 13:59:00,
2013-01-09 10:00:00,21.2,19.2,29.03,East,90,2.7,2.7,92,0.00,,---,0.00,VWS V14.01,2013-01-09 14:00:00,
2013-01-09 10:01:00,25.9,24.6,29.00,East,90,2.7,2.7,95,0.00,,---,0.00,VWS V14.01,2013-01-09 14:01:00,
2013-01-09 10:02:00,21.4,19.4,29.00,East,90,2.7,2.7,92,0.00,,---,0.00,VWS V14.01,2013-01-09 14:02:00,
2013-01-09 10:03:00,21.6,19.6,29.00,East,90,2.7,2.7,92,0.00,,---,0.00,VWS V14.01,2013-01-09 14:03:00,
2013-01-09 10:04:00,21.7,19.8,29.00,East,90,2.7,2.7,92,0.00,,---,0.00,VWS V14.01,2013-01-09 14:04:00,
2013-01-09 10:05:00,21.9,20.0,29.00,East,90,2.7,2.7,92,0.00,,---,0.00,VWS V14.01,2013-01-09 14:05:00,
2013-01-09 10:06:00,26.4,25.2,29.00,East,90,2.7,2.7,95,0.00,,---,0.00,VWS V14.01,2013-01-09 14:06:00,
2013-01-09 10:07:00,21.9,20.0,29.00,East,90,2.7,2.7,92,0.00,,---,0.00,VWS V14.01,2013-01-09 14:07:00,
2013-01-09 10:08:00,21.9,20.0,29.00,East,90,2.7,2.7,92,0.00,,---,0.00,VWS V14.01,2013-01-09 14:08:00,
2013-01-09 10:09:00,21.9,20.0,29.00,East,90,2.7,2.7,92,0.00,,---,0.00,VWS V14.01,2013-01-09 14:09:00,
2013-01-09 10:10:00,21.9,20.0,29.00,East,90,2.7,2.7,92,0.00,,---,0.00,VWS V14.01,2013-01-09 14:10:00,
2013-01-09 10:11:00,26.8,25.3,29.00,East,90,2.7,2.7,94,0.00,,---,0.00,VWS V14.01,2013-01-09 14:11:00,
2013-01-09 10:12:00,22.1,20.1,29.00,East,90,2.7,2.7,92,0.00,,---,0.00,VWS V14.01,2013-01-09 14:12:00,
2013-01-09 10:13:00,22.1,20.1,29.00,East,90,2.7,2.7,92,0.00,,---,0.00,VWS V14.01,2013-01-09 14:13:00,
2013-01-09 10:14:00,22.3,20.3,29.00,East,90,2.7,2.7,92,0.00,,---,0.00,VWS V14.01,2013-01-09 14:14:00,
2013-01-09 10:15:00,22.3,20.3,29.00,East,90,2.7,2.7,92,0.00,,---,0.00,VWS V14.01,2013-01-09 14:15:00,
2013-01-09 10:16:00,27.0,25.5,29.00,East,90,2.7,2.7,94,0.00,,---,0.00,VWS V14.01,2013-01-09 14:16:00,
2013-01-09 10:17:00,22.5,20.5,29.03,East,90,2.7,2.7,92,0.00,,---,0.00,VWS V14.01,2013-01-09 14:17:00,
2013-01-09 10:18:00,22.5,20.5,29.03,East,90,2.7,2.7,92,0.00,,---,0.00,VWS V14.01,2013-01-09 14:18:00,
2013-01-09 10:19:00,22.5,20.5,29.03,East,90,2.7,2.7,92,0.00,,---,0.00,VWS V14.01,2013-01-09 14:19:00,
2013-01-09 10:20:00,22.5,20.5,29.03,East,90,2.7,2.7,92,0.00,,---,0.00,VWS V14.01,2013-01-09 14:20:00,
2013-01-09 10:21:00,27.0,25.5,29.00,East,90,2.7,2.7,94,0.00,,---,0.00,VWS V14.01,2013-01-09 14:21:00,
2013-01-09 10:22:00,22.6,20.7,29.03,East,90,2.7,2.7,92,0.00,,---,0.00,VWS V14.01,2013-01-09 14:22:00,
2013-01-09 10:23:00,22.6,20.9,29.03,East,90,2.7,2.7,93,0.00,,---,0.00,VWS V14.01,2013-01-09 14:23:00,
2013-01-09 10:24:00,22.6,20.9,29.03,East,90,2.7,2.7,93,0.00,,---,0.00,VWS V14.01,2013-01-09 14:24:00,
2013-01-09 10:25:00,22.8,21.1,29.03,East,90,2.7,2.7,93,0.00,,---,0.00,VWS V14.01,2013-01-09 14:25:00,
2013-01-09 10:26:00,27.3,25.8,29.03,East,90,2.7,2.7,94,0.00,,---,0.00,VWS V14.01,2013-01-09 14:26:00,
2013-01-09 10:27:00,23.0,21.3,29.03,East,90,2.7,2.7,93,0.00,,---,0.00,VWS V14.01,2013-01-09 14:27:00,
2013-01-09 10:28:00,23.0,21.3,29.03,East,90,2.7,2.7,93,0.00,,---,0.00,VWS V14.01,2013-01-09 14:28:00,
2013-01-09 10:29:00,23.0,21.3,29.03,East,90,2.7,2.7,93,0.00,,---,0.00,VWS V14.01,2013-01-09 14:29:00,
2013-01-09 10:30:00,23.2,21.5,29.03,East,90,2.7,2.7,93,0.00,,---,0.00,VWS V14.01,2013-01-09 14:30:00,
2013-01-09 10:31:00,27.5,26.3,29.03,East,90,2.7,2.7,95,0.00,,---,0.00,VWS V14.01,2013-01-09 14:31:00,
2013-01-09 10:32:00,23.2,21.5,29.03,East,90,2.7,2.7,93,0.00,,---,0.00,VWS V14.01,2013-01-09 14:32:00,
2013-01-09 10:33:00,23.4,21.6,29.03,East,90,2.7,2.7,93,0.00,,---,0.00,VWS V14.01,2013-01-09 14:33:00,
2013-01-09 10:34:00,23.5,21.8,29.03,East,90,2.7,2.7,93,0.00,,---,0.00,VWS V14.01,2013-01-09 14:34:00,
2013-01-09 10:35:00,23.5,21.8,29.03,East,90,2.7,2.7,93,0.00,,---,0.00,VWS V14.01,2013-01-09 14:35:00,
2013-01-09 10:36:00,27.5,26.3,29.03,East,90,2.7,2.7,95,0.00,,---,0.00,VWS V14.01,2013-01-09 14:36:00,
2013-01-09 10:37:00,23.7,22.0,29.03,East,90,2.7,2.7,93,0.00,,---,0.00,VWS V14.01,2013-01-09 14:37:00,
2013-01-09 10:38:00,23.9,22.2,29.03,East,90,2.7,2.7,93,0.00,,---,0.00,VWS V14.01,2013-01-09 14:38:00,
2013-01-09 10:39:00,24.1,22.4,29.03,East,90,2.7,2.7,93,0.00,,---,0.00,VWS V14.01,2013-01-09 14:39:00,
2013-01-09 10:40:00,24.1,22.6,29.03,East,90,2.7,2.7,94,0.00,,---,0.00,VWS V14.01,2013-01-09 14:40:00,
2013-01-09 10:41:00,27.5,26.3,29.03,East,90,2.7,2.7,95,0.00,,---,0.00,VWS V14.01,2013-01-09 14:41:00,
2013-01-09 10:42:00,24.3,22.8,29.03,East,90,2.7,2.7,94,0.00,,---,0.00,VWS V14.01,2013-01-09 14:42:00,
2013-01-09 10:43:00,24.4,23.0,29.03,East,90,2.7,2.7,94,0.00,,---,0.00,VWS V14.01,2013-01-09 14:43:00,
2013-01-09 10:44:00,24.4,23.0,29.03,East,90,2.7,2.7,94,0.00,,---,0.00,VWS V14.01,2013-01-09 14:44:00,
2013-01-09 10:45:00,24.4,23.0,29.03,East,90,2.7,2.7,94,0.00,,---,0.00,VWS V14.01,2013-01-09 14:45:00,
2013-01-09 10:46:00,27.5,26.3,29.03,East,90,2.7,2.7,95,0.00,,---,0.00,VWS V14.01,2013-01-09 14:46:00,
2013-01-09 10:47:00,24.6,23.1,29.00,East,90,2.7,2.7,94,0.00,,---,0.00,VWS V14.01,2013-01-09 14:47:00,
2013-01-09 10:48:00,24.8,23.3,29.00,East,90,2.7,2.7,94,0.00,,---,0.00,VWS V14.01,2013-01-09 14:48:00,
2013-01-09 10:49:00,24.8,23.3,29.00,East,90,2.7,2.7,94,0.00,,---,0.00,VWS V14.01,2013-01-09 14:49:00,
2013-01-09 10:50:00,24.8,23.3,29.00,East,90,2.7,2.7,94,0.00,,---,0.00,VWS V14.01,2013-01-09 14:50:00,
2013-01-09 10:51:00,27.5,26.3,29.03,East,90,2.7,2.7,95,0.00,,---,0.00,VWS V14.01,2013-01-09 14:51:00,
2013-01-09 10:52:00,25.0,23.5,29.00,East,90,2.7,2.7,94,0.00,,---,0.00,VWS V14.01,2013-01-09 14:52:00,
2013-01-09 10:53:00,25.0,23.5,29.00,East,90,2.7,2.7,94,0.00,,---,0.00,VWS V14.01,2013-01-09 14:53:00,
2013-01-09 10:54:00,25.0,23.5,29.00,East,90,2.7,2.7,94,0.00,,---,0.00,VWS V14.01,2013-01-09 14:54:00,
2013-01-09 10:55:00,25.2,23.7,29.00,East,90,2.7,2.7,94,0.00,,---,0.00,VWS V14.01,2013-01-09 14:55:00,
2013-01-09 10:56:00,27.7,26.7,29.00,East,90,2.7,2.7,96,0.00,,---,0.00,VWS V14.01,2013-01-09 14:56:00,
2013-01-09 10:57:00,25.5,24.0,29.00,East,90,2.7,2.7,94,0.00,,---,0.00,VWS V14.01,2013-01-09 14:57:00,
2013-01-09 10:58:00,25.5,24.0,29.00,East,90,2.7,2.7,94,0.00,,---,0.00,VWS V14.01,2013-01-09 14:58:00,
2013-01-09 10:59:00,25.7,24.2,29.00,East,90,2.7,2.7,94,0.00,,---,0.00,VWS V14.01,2013-01-09 14:59:00,
2013-01-09 11:00:00,25.7,24.2,29.00,East,90,2.7,2.7,94,0.00,,---,0.00,VWS V14.01,2013-01-09 15:00:00,
2013-01-09 11:01:00,28.2,27.2,29.00,East,90,2.7,2.7,96,0.00,,---,0.00,VWS V14.01,2013-01-09 15:01:00,
2013-01-09 11:02:00,25.7,24.2,29.00,East,90,2.7,2.7,94,0.00,,---,0.00,VWS V14.01,2013-01-09 15:02:00,
2013-01-09 11:03:00,25.7,24.2,29.00,East,90,2.7,2.7,94,0.00,,---,0.00,VWS V14.01,2013-01-09 15:03:00,
2013-01-09 11:04:00,25.9,24.6,29.00,East,90,2.7,2.7,95,0.00,,---,0.00,VWS V14.01,2013-01-09 15:04:00,
2013-01-09 11:05:00,25.9,24.6,29.00,East,90,2.7,2.7,95,0.00,,---,0.00,VWS V14.01,2013-01-09 15:05:00,
2013-01-09 11:06:00,28.6,27.6,29.00,East,90,2.7,2.7,96,0.00,,---,0.00,VWS V14.01,2013-01-09 15:06:00,
2013-01-09 11:07:00,26.1,24.8,29.00,East,90,2.7,2.7,95,0.00,,---,0.00,VWS V14.01,2013-01-09 15:07:00,
2013-01-09 11:08:00,26.1,24.8,29.00,East,90,2.7,2.7,95,0.00,,---,0.00,VWS V14.01,2013-01-09 15:08:00,
2013-01-09 11:09:00,26.2,25.0,29.00,East,90,2.7,2.7,95,0.00,,---,0.00,VWS V14.01,2013-01-09 15:09:00,
2013-01-09 11:10:00,26.4,25.2,29.00,East,90,2.7,2.7,95,0.00,,---,0.00,VWS V14.01,2013-01-09 15:10:00,
2013-01-09 11:11:00,28.9,28.2,28.97,East,90,2.7,2.7,97,0.00,,---,0.00,VWS V14.01,2013-01-09 15:11:00,
2013-01-09 11:12:00,26.4,25.2,29.00,East,90,2.7,2.7,95,0.00,,---,0.00,VWS V14.01,2013-01-09 15:12:00,
2013-01-09 11:13:00,26.4,25.2,29.00,East,90,2.7,2.7,95,0.00,,---,0.00,VWS V14.01,2013-01-09 15:13:00,
2013-01-09 11:14:00,26.4,25.2,29.00,East,90,2.7,2.7,95,0.00,,---,0.00,VWS V14.01,2013-01-09 15:14:00,
2013-01-09 11:15:00,26.6,25.4,29.00,East,90,2.7,2.7,95,0.00,,---,0.00,VWS V14.01,2013-01-09 15:15:00,
2013-01-09 11:16:00,29.5,28.7,28.97,East,90,2.7,2.7,97,0.00,,---,0.00,VWS V14.01,2013-01-09 15:16:00,
2013-01-09 11:17:00,27.0,25.7,29.00,East,90,2.7,2.7,95,0.00,,---,0.00,VWS V14.01,2013-01-09 15:17:00,
2013-01-09 11:18:00,27.0,25.7,29.00,East,90,2.7,2.7,95,0.00,,---,0.00,VWS V14.01,2013-01-09 15:18:00,
2013-01-09 11:19:00,27.0,25.5,29.00,East,90,2.7,2.7,94,0.00,,---,0.00,VWS V14.01,2013-01-09 15:19:00,
2013-01-09 11:20:00,27.0,25.5,29.00,East,90,2.7,2.7,94,0.00,,---,0.00,VWS V14.01,2013-01-09 15:20:00,
2013-01-09 11:21:00,29.8,29.1,28.97,East,90,2.7,2.7,97,0.00,,---,0.00,VWS V14.01,2013-01-09 15:21:00,
2013-01-09 11:22:00,27.0,25.5,29.00,East,90,2.7,2.7,94,0.00,,---,0.00,VWS V14.01,2013-01-09 15:22:00,
2013-01-09 11:23:00,27.0,25.5,29.00,East,90,2.7,2.7,94,0.00,,---,0.00,VWS V14.01,2013-01-09 15:23:00,
2013-01-09 11:24:00,27.0,25.5,29.00,East,90,2.7,2.7,94,0.00,,---,0.00,VWS V14.01,2013-01-09 15:24:00,
2013-01-09 11:25:00,27.0,25.5,29.00,East,90,2.7,2.7,94,0.00,,---,0.00,VWS V14.01,2013-01-09 15:25:00,
2013-01-09 11:26:00,30.4,29.9,28.97,East,90,2.7,2.7,98,0.00,,---,0.00,VWS V14.01,2013-01-09 15:26:00,
2013-01-09 11:27:00,27.3,25.8,29.00,East,90,2.7,2.7,94,0.00,,---,0.00,VWS V14.01,2013-01-09 15:27:00,
2013-01-09 11:28:00,27.3,25.8,29.00,East,90,2.7,2.7,94,0.00,,---,0.00,VWS V14.01,2013-01-09 15:28:00,
2013-01-09 11:29:00,27.3,25.8,29.00,East,90,2.7,2.7,94,0.00,,---,0.00,VWS V14.01,2013-01-09 15:29:00,
2013-01-09 11:30:00,27.3,25.8,29.00,East,90,2.7,2.7,94,0.00,,---,0.00,VWS V14.01,2013-01-09 15:30:00,
2013-01-09 11:31:00,31.3,30.8,28.97,East,90,2.7,2.7,98,0.00,,---,0.00,VWS V14.01,2013-01-09 15:31:00,
2013-01-09 11:32:00,27.3,25.8,29.03,East,90,2.7,2.7,94,0.00,,---,0.00,VWS V14.01,2013-01-09 15:32:00,
2013-01-09 11:33:00,27.5,26.3,29.03,East,90,2.7,2.7,95,0.00,,---,0.00,VWS V14.01,2013-01-09 15:33:00,
2013-01-09 11:34:00,27.5,26.3,29.03,East,90,2.7,2.7,95,0.00,,---,0.00,VWS V14.01,2013-01-09 15:34:00,
2013-01-09 11:35:00,27.5,26.3,29.03,East,90,2.7,2.7,95,0.00,,---,0.00,VWS V14.01,2013-01-09 15:35:00,
2013-01-09 11:36:00,32.2,31.7,28.97,East,90,2.7,2.7,98,0.00,,---,0.00,VWS V14.01,2013-01-09 15:36:00,
2013-01-09 11:37:00,27.5,26.3,29.03,East,90,2.7,2.7,95,0.00,,---,0.00,VWS V14.01,2013-01-09 15:37:00,
2013-01-09 11:38:00,27.5,26.3,29.03,East,90,2.7,2.7,95,0.00,,---,0.00,VWS V14.01,2013-01-09 15:38:00,
2013-01-09 11:39:00,27.5,26.3,29.03,East,90,2.7,2.7,95,0.00,,---,0.00,VWS V14.01,2013-01-09 15:39:00,
2013-01-09 11:40:00,27.5,26.3,29.03,East,90,2.7,2.7,95,0.00,,---,0.00,VWS V14.01,2013-01-09 15:40:00,
2013-01-09 11:41:00,32.2,31.7,28.97,East,90,2.7,2.7,98,0.00,,---,0.00,VWS V14.01,2013-01-09 15:41:00,
2013-01-09 11:42:00,27.5,26.3,29.03,East,90,2.7,2.7,95,0.00,,---,0.00,VWS V14.01,2013-01-09 15:42:00,
2013-01-09 11:43:00,27.5,26.3,29.03,East,90,2.7,2.7,95,0.00,,---,0.00,VWS V14.01,2013-01-09 15:43:00,
2013-01-09 11:44:00,27.5,26.3,29.03,East,90,2.7,2.7,95,0.00,,---,0.00,VWS V14.01,2013-01-09 15:44:00,
2013-01-09 11:45:00,27.5,26.3,29.03,East,90,2.7,2.7,95,0.00,,---,0.00,VWS V14.01,2013-01-09 15:45:00,
2013-01-09 11:46:00,32.9,32.4,28.97,East,90,2.7,2.7,98,0.00,,---,0.00,VWS V14.01,2013-01-09 15:46:00,
2013-01-09 11:47:00,27.5,26.3,29.03,East,90,2.7,2.7,95,0.00,,---,0.00,VWS V14.01,2013-01-09 15:47:00,
2013-01-09 11:48:00,27.5,26.3,29.03,East,90,2.7,2.7,95,0.00,,---,0.00,VWS V14.01,2013-01-09 15:48:00,
2013-01-09 11:49:00,27.5,26.3,29.03,East,90,2.7,2.7,95,0.00,,---,0.00,VWS V14.01,2013-01-09 15:49:00,
2013-01-09 11:50:00,27.5,26.3,29.03,East,90,2.7,2.7,95,0.00,,---,0.00,VWS V14.01,2013-01-09 15:50:00,
2013-01-09 11:51:00,33.3,32.8,28.97,East,90,2.7,2.7,98,0.00,,---,0.00,VWS V14.01,2013-01-09 15:51:00,
2013-01-09 11:52:00,27.5,26.3,29.03,East,90,2.7,2.7,95,0.00,,---,0.00,VWS V14.01,2013-01-09 15:52:00,
2013-01-09 11:53:00,27.5,26.3,29.03,East,90,2.7,2.7,95,0.00,,---,0.00,VWS V14.01,2013-01-09 15:53:00,
2013-01-09 11:54:00,27.5,26.3,29.03,East,90,2.7,2.7,95,0.00,,---,0.00,VWS V14.01,2013-01-09 15:54:00,
2013-01-09 11:55:00,27.5,26.3,29.03,East,90,2.7,2.7,95,0.00,,---,0.00,VWS V14.01,2013-01-09 15:55:00,
2013-01-09 11:56:00,33.6,33.1,28.97,East,90,2.7,2.7,98,0.00,,---,0.00,VWS V14.01,2013-01-09 15:56:00,
2013-01-09 11:57:00,27.5,26.3,29.03,East,90,2.7,2.7,95,0.00,,---,0.00,VWS V14.01,2013-01-09 15:57:00,
2013-01-09 11:58:00,27.5,26.3,29.03,East,90,2.7,2.7,95,0.00,,---,0.00,VWS V14.01,2013-01-09 15:58:00,
2013-01-09 11:59:00,27.7,26.7,29.03,East,90,2.7,2.7,96,0.00,,---,0.00,VWS V14.01,2013-01-09 15:59:00,
2013-01-09 12:00:00,27.7,26.7,29.03,East,90,2.7,2.7,96,0.00,,---,0.00,VWS V14.01,2013-01-09 16:00:00,
2013-01-09 12:01:00,34.0,33.5,28.97,East,90,2.7,2.7,98,0.00,,---,0.00,VWS V14.01,2013-01-09 16:01:00,
2013-01-09 12:02:00,27.9,26.9,29.00,East,90,2.7,2.7,96,0.00,,---,0.00,VWS V14.01,2013-01-09 16:02:00,
2013-01-09 12:03:00,27.9,26.9,29.00,East,90,2.7,2.7,96,0.00,,---,0.00,VWS V14.01,2013-01-09 16:03:00,
2013-01-09 12:04:00,28.0,27.0,29.00,East,90,2.7,2.7,96,0.00,,---,0.00,VWS V14.01,2013-01-09 16:04:00,
2013-01-09 12:05:00,28.2,27.2,29.00,East,90,2.7,2.7,96,0.00,,---,0.00,VWS V14.01,2013-01-09 16:05:00,
2013-01-09 12:06:00,34.5,34.0,28.97,East,90,2.7,2.7,98,0.00,,---,0.00,VWS V14.01,2013-01-09 16:06:00,
2013-01-09 12:07:00,28.4,27.4,29.00,East,90,2.7,2.7,96,0.00,,---,0.00,VWS V14.01,2013-01-09 16:07:00,
2013-01-09 12:08:00,28.4,27.4,29.00,East,90,2.7,2.7,96,0.00,,---,0.00,VWS V14.01,2013-01-09 16:08:00,
2013-01-09 12:09:00,28.4,27.4,29.00,East,90,2.7,2.7,96,0.00,,---,0.00,VWS V14.01,2013-01-09 16:09:00,
2013-01-09 12:10:00,28.4,27.4,29.00,East,90,2.7,2.7,96,0.00,,---,0.00,VWS V14.01,2013-01-09 16:10:00,
2013-01-09 12:11:00,35.2,34.7,28.97,East,90,2.7,2.7,98,0.00,,---,0.00,VWS V14.01,2013-01-09 16:11:00,
2013-01-09 12:12:00,28.6,27.6,29.00,East,90,2.7,2.7,96,0.00,,---,0.00,VWS V14.01,2013-01-09 16:12:00,
2013-01-09 12:13:00,28.8,27.8,29.00,East,90,2.7,2.7,96,0.00,,---,0.00,VWS V14.01,2013-01-09 16:13:00,
2013-01-09 12:14:00,28.8,28.0,29.00,East,90,2.7,2.7,97,0.00,,---,0.00,VWS V14.01,2013-01-09 16:14:00,
2013-01-09 12:15:00,28.9,28.2,29.00,East,90,2.7,2.7,97,0.00,,---,0.00,VWS V14.01,2013-01-09 16:15:00,
2013-01-09 12:16:00,36.0,35.5,28.97,East,90,2.7,2.7,98,0.00,,---,0.00,VWS V14.01,2013-01-09 16:16:00,
2013-01-09 12:17:00,29.1,28.4,28.97,East,90,2.7,2.7,97,0.00,,---,0.00,VWS V14.01,2013-01-09 16:17:00,
2013-01-09 12:18:00,29.1,28.4,28.97,East,90,2.7,2.7,97,0.00,,---,0.00,VWS V14.01,2013-01-09 16:18:00,
2013-01-09 12:19:00,29.3,28.6,28.97,East,90,2.7,2.7,97,0.00,,---,0.00,VWS V14.01,2013-01-09 16:19:00,
2013-01-09 12:20:00,29.5,28.7,28.97,East,90,2.7,2.7,97,0.00,,---,0.00,VWS V14.01,2013-01-09 16:20:00,
2013-01-09 12:21:00,36.9,36.3,28.97,East,90,2.7,2.7,98,0.00,,---,0.00,VWS V14.01,2013-01-09 16:21:00,
2013-01-09 12:22:00,29.5,28.7,28.97,East,90,2.7,2.7,97,0.00,,---,0.00,VWS V14.01,2013-01-09 16:22:00,
2013-01-09 12:23:00,29.5,28.7,28.97,East,90,2.7,2.7,97,0.00,,---,0.00,VWS V14.01,2013-01-09 16:23:00,
2013-01-09 12:24:00,29.7,28.9,28.97,East,90,2.7,2.7,97,0.00,,---,0.00,VWS V14.01,2013-01-09 16:24:00,
2013-01-09 12:25:00,29.7,28.9,28.97,East,90,2.7,2.7,97,0.00,,---,0.00,VWS V14.01,2013-01-09 16:25:00,
2013-01-09 12:26:00,37.6,37.1,28.97,East,90,2.7,2.7,98,0.00,,---,0.00,VWS V14.01,2013-01-09 16:26:00,
2013-01-09 12:27:00,30.0,29.5,28.97,East,90,2.7,2.7,98,0.00,,---,0.00,VWS V14.01,2013-01-09 16:27:00,
2013-01-09 12:28:00,30.0,29.5,28.97,East,90,2.7,2.7,98,0.00,,---,0.00,VWS V14.01,2013-01-09 16:28:00,
2013-01-09 12:29:00,30.2,29.7,28.97,East,90,2.7,2.7,98,0.00,,---,0.00,VWS V14.01,2013-01-09 16:29:00,
2013-01-09 12:30:00,30.4,29.6,28.97,East,90,2.7,2.7,97,0.00,,---,0.00,VWS V14.01,2013-01-09 16:30:00,
2013-01-09 12:31:00,38.3,37.5,28.97,East,90,2.7,2.7,97,0.00,,---,0.00,VWS V14.01,2013-01-09 16:31:00,
2013-01-09 12:32:00,30.6,30.1,28.97,East,90,2.7,2.7,98,0.00,,---,0.00,VWS V14.01,2013-01-09 16:32:00,
2013-01-09 12:33:00,30.7,30.2,28.97,East,90,2.7,2.7,98,0.00,,---,0.00,VWS V14.01,2013-01-09 16:33:00,
2013-01-09 12:34:00,30.9,30.4,28.97,East,90,2.7,2.7,98,0.00,,---,0.00,VWS V14.01,2013-01-09 16:34:00,
2013-01-09 12:35:00,31.3,30.8,28.97,East,90,2.7,2.7,98,0.00,,---,0.00,VWS V14.01,2013-01-09 16:35:00,
2013-01-09 12:36:00,39.2,37.6,28.97,East,90,2.7,2.7,94,0.00,,---,0.00,VWS V14.01,2013-01-09 16:36:00,
2013-01-09 12:37:00,31.5,31.0,28.97,East,90,2.7,2.7,98,0.00,,---,0.00,VWS V14.01,2013-01-09 16:37:00,
2013-01-09 12:38:00,31.6,31.1,28.97,East,90,2.7,2.7,98,0.00,,---,0.00,VWS V14.01,2013-01-09 16:38:00,
2013-01-09 12:39:00,31.8,31.3,28.97,East,90,2.7,2.7,98,0.00,,---,0.00,VWS V14.01,2013-01-09 16:39:00,
2013-01-09 12:40:00,32.0,31.5,28.97,East,90,2.7,2.7,98,0.00,,---,0.00,VWS V14.01,2013-01-09 16:40:00,
2013-01-09 12:41:00,40.5,37.2,28.97,East,90,2.7,2.7,88,0.00,,---,0.00,VWS V14.01,2013-01-09 16:41:00,
2013-01-09 12:42:00,32.2,31.7,28.97,East,90,2.7,2.7,98,0.00,,---,0.00,VWS V14.01,2013-01-09 16:42:00,
2013-01-09 12:43:00,32.2,31.7,28.97,East,90,2.7,2.7,98,0.00,,---,0.00,VWS V14.01,2013-01-09 16:43:00,
2013-01-09 12:44:00,32.2,31.7,28.97,East,90,2.7,2.7,98,0.00,,---,0.00,VWS V14.01,2013-01-09 16:44:00,
2013-01-09 12:45:00,32.2,31.7,28.97,East,90,2.7,2.7,98,0.00,,---,0.00,VWS V14.01,2013-01-09 16:45:00,
2013-01-09 12:46:00,41.0,35.9,28.97,East,90,2.7,2.7,82,0.00,,---,0.00,VWS V14.01,2013-01-09 16:46:00,
2013-01-09 12:47:00,32.4,31.9,28.97,East,90,2.7,2.7,98,0.00,,---,0.00,VWS V14.01,2013-01-09 16:47:00,
2013-01-09 12:48:00,32.5,32.0,28.97,East,90,2.7,2.7,98,0.00,,---,0.00,VWS V14.01,2013-01-09 16:48:00,
2013-01-09 12:49:00,32.7,32.2,28.97,East,90,2.7,2.7,98,0.00,,---,0.00,VWS V14.01,2013-01-09 16:49:00,
2013-01-09 12:50:00,32.9,32.4,28.97,East,90,2.7,2.7,98,0.00,,---,0.00,VWS V14.01,2013-01-09 16:50:00,
2013-01-09 12:51:00,41.5,35.5,28.97,East,90,2.7,2.7,79,0.00,,---,0.00,VWS V14.01,2013-01-09 16:51:00,
2013-01-09 12:52:00,33.1,32.6,28.97,East,90,2.7,2.7,98,0.00,,---,0.00,VWS V14.01,2013-01-09 16:52:00,
2013-01-09 12:53:00,33.3,32.8,28.97,East,90,2.7,2.7,98,0.00,,---,0.00,VWS V14.01,2013-01-09 16:53:00,
2013-01-09 12:54:00,33.3,32.8,28.97,East,90,2.7,2.7,98,0.00,,---,0.00,VWS V14.01,2013-01-09 16:54:00,
2013-01-09 12:55:00,33.3,32.8,28.97,East,90,2.7,2.7,98,0.00,,---,0.00,VWS V14.01,2013-01-09 16:55:00,
2013-01-09 12:56:00,41.7,34.7,28.97,East,90,2.7,2.7,76,0.00,,---,0.00,VWS V14.01,2013-01-09 16:56:00,
2013-01-09 12:57:00,33.3,32.8,28.97,East,90,2.7,2.7,98,0.00,,---,0.00,VWS V14.01,2013-01-09 16:57:00,
2013-01-09 12:58:00,33.4,32.9,28.97,East,90,2.7,2.7,98,0.00,,---,0.00,VWS V14.01,2013-01-09 16:58:00,
2013-01-09 12:59:00,33.4,32.9,28.97,East,90,2.7,2.7,98,0.00,,---,0.00,VWS V14.01,2013-01-09 16:59:00,
2013-01-09 13:00:00,33.6,33.1,28.97,East,90,2.7,2.7,98,0.00,,---,0.00,VWS V14.01,2013-01-09 17:00:00,
2013-01-09 13:01:00,42.1,34.7,28.97,East,90,2.7,2.7,75,0.00,,---,0.00,VWS V14.01,2013-01-09 17:01:00,
2013-01-09 13:02:00,33.6,33.1,28.97,East,90,2.7,2.7,98,0.00,,---,0.00,VWS V14.01,2013-01-09 17:02:00,
2013-01-09 13:03:00,33.6,33.1,28.97,East,90,2.7,2.7,98,0.00,,---,0.00,VWS V14.01,2013-01-09 17:03:00,
2013-01-09 13:04:00,33.6,33.1,28.97,East,90,2.7,2.7,98,0.00,,---,0.00,VWS V14.01,2013-01-09 17:04:00,
2013-01-09 13:05:00,34.0,33.5,28.97,East,90,2.7,2.7,98,0.00,,---,0.00,VWS V14.01,2013-01-09 17:05:00,
2013-01-09 13:06:00,42.1,34.7,28.97,East,90,2.7,2.7,75,0.00,,---,0.00,VWS V14.01,2013-01-09 17:06:00,
2013-01-09 13:07:00,34.2,33.7,28.97,East,90,2.7,2.7,98,0.00,,---,0.00,VWS V14.01,2013-01-09 17:07:00,
2013-01-09 13:08:00,34.3,33.8,28.97,East,90,2.7,2.7,98,0.00,,---,0.00,VWS V14.01,2013-01-09 17:08:00,
2013-01-09 13:09:00,34.3,33.8,28.97,East,90,2.7,2.7,98,0.00,,---,0.00,VWS V14.01,2013-01-09 17:09:00,
2013-01-09 13:10:00,34.5,34.0,28.97,East,90,2.7,2.7,98,0.00,,---,0.00,VWS V14.01,2013-01-09 17:10:00,
2013-01-09 13:11:00,42.4,35.1,28.94,East,90,2.7,2.7,75,0.00,,---,0.00,VWS V14.01,2013-01-09 17:11:00,
2013-01-09 13:12:00,34.7,34.2,28.97,East,90,2.7,2.7,98,0.00,,---,0.00,VWS V14.01,2013-01-09 17:12:00,
2013-01-09 13:13:00,34.7,34.2,28.97,East,90,2.7,2.7,98,0.00,,---,0.00,VWS V14.01,2013-01-09 17:13:00,
2013-01-09 13:14:00,35.1,34.5,28.97,East,90,2.7,2.7,98,0.00,,---,0.00,VWS V14.01,2013-01-09 17:14:00,
2013-01-09 13:15:00,35.1,34.5,28.97,East,90,2.7,2.7,98,0.00,,---,0.00,VWS V14.01,2013-01-09 17:15:00,
2013-01-09 13:16:00,42.4,34.8,28.94,East,90,2.7,2.7,74,0.00,,---,0.00,VWS V14.01,2013-01-09 17:16:00,
2013-01-09 13:17:00,35.2,34.7,28.97,East,90,2.7,2.7,98,0.00,,---,0.00,VWS V14.01,2013-01-09 17:17:00,
2013-01-09 13:18:00,35.2,34.7,28.97,East,90,2.7,2.7,98,0.00,,---,0.00,VWS V14.01,2013-01-09 17:18:00,
2013-01-09 13:19:00,35.6,35.1,28.97,East,90,2.7,2.7,98,0.00,,---,0.00,VWS V14.01,2013-01-09 17:19:00,
2013-01-09 13:20:00,35.8,35.3,28.97,East,90,2.7,2.7,98,0.00,,---,0.00,VWS V14.01,2013-01-09 17:20:00,
2013-01-09 13:21:00,43.0,35.3,28.94,East,90,2.7,2.7,74,0.00,,---,0.00,VWS V14.01,2013-01-09 17:21:00,
2013-01-09 13:22:00,36.1,35.6,28.97,East,90,2.7,2.7,98,0.00,,---,0.00,VWS V14.01,2013-01-09 17:22:00,
2013-01-09 13:23:00,36.5,36.0,28.97,East,90,2.7,2.7,98,0.00,,---,0.00,VWS V14.01,2013-01-09 17:23:00,
2013-01-09 13:24:00,36.5,36.0,28.97,East,90,2.7,2.7,98,0.00,,---,0.00,VWS V14.01,2013-01-09 17:24:00,
2013-01-09 13:25:00,36.7,36.2,28.97,East,90,2.7,2.7,98,0.00,,---,0.00,VWS V14.01,2013-01-09 17:25:00,
2013-01-09 13:26:00,43.5,35.5,28.91,East,90,2.7,2.7,73,0.00,,---,0.00,VWS V14.01,2013-01-09 17:26:00,
2013-01-09 13:27:00,36.9,36.3,28.97,East,90,2.7,2.7,98,0.00,,---,0.00,VWS V14.01,2013-01-09 17:27:00,
2013-01-09 13:28:00,37.2,36.7,28.97,East,90,2.7,2.7,98,0.00,,---,0.00,VWS V14.01,2013-01-09 17:28:00,
2013-01-09 13:29:00,37.4,36.9,28.97,East,90,2.7,2.7,98,0.00,,---,0.00,VWS V14.01,2013-01-09 17:29:00,
2013-01-09 13:30:00,37.6,37.1,28.97,East,90,2.7,2.7,98,0.00,,---,0.00,VWS V14.01,2013-01-09 17:30:00,
2013-01-09 13:31:00,43.5,35.1,28.91,East,90,2.7,2.7,72,0.00,,---,0.00,VWS V14.01,2013-01-09 17:31:00,
2013-01-09 13:32:00,37.8,37.2,28.97,East,90,2.7,2.7,98,0.00,,---,0.00,VWS V14.01,2013-01-09 17:32:00,
2013-01-09 13:33:00,37.9,37.4,28.97,East,90,2.7,2.7,98,0.00,,---,0.00,VWS V14.01,2013-01-09 17:33:00,
2013-01-09 13:34:00,37.9,37.4,28.97,East,90,2.7,2.7,98,0.00,,---,0.00,VWS V14.01,2013-01-09 17:34:00,
2013-01-09 13:35:00,38.1,37.6,28.97,East,90,2.7,2.7,98,0.00,,---,0.00,VWS V14.01,2013-01-09 17:35:00,
2013-01-09 13:36:00,42.8,34.4,28.91,East,90,2.7,2.7,72,0.00,,---,0.00,VWS V14.01,2013-01-09 17:36:00,
2013-01-09 13:37:00,38.3,37.5,28.97,East,90,2.7,2.7,97,0.00,,---,0.00,VWS V14.01,2013-01-09 17:37:00,
2013-01-09 13:38:00,38.7,37.6,28.97,East,90,2.7,2.7,96,0.00,,---,0.00,VWS V14.01,2013-01-09 17:38:00,
2013-01-09 13:39:00,38.8,37.8,28.97,East,90,2.7,2.7,96,0.00,,---,0.00,VWS V14.01,2013-01-09 17:39:00,
2013-01-09 13:41:00,43.0,34.9,28.88,East,90,2.7,2.7,73,0.00,,---,0.00,VWS V14.01,2013-01-09 17:41:00,
2013-01-09 13:42:00,39.4,37.8,28.97,East,90,2.7,2.7,94,0.00,,---,0.00,VWS V14.01,2013-01-09 17:42:00,
2013-01-09 13:43:00,39.7,37.3,28.97,East,90,2.7,2.7,91,0.00,,---,0.00,VWS V14.01,2013-01-09 17:43:00,
2013-01-09 13:44:00,39.7,37.3,28.97,East,90,2.7,2.7,91,0.00,,---,0.00,VWS V14.01,2013-01-09 17:44:00,
2013-01-09 13:45:00,40.3,37.3,28.97,East,90,2.7,2.7,89,0.00,,---,0.00,VWS V14.01,2013-01-09 17:45:00,
2013-01-09 13:46:00,45.1,35.6,28.88,East,90,2.7,2.7,69,0.00,,---,0.00,VWS V14.01,2013-01-09 17:46:00,
2013-01-09 13:47:00,40.3,36.7,28.97,East,90,2.7,2.7,87,0.00,,---,0.00,VWS V14.01,2013-01-09 17:47:00,
2013-01-09 13:48:00,40.5,36.3,28.97,East,90,2.7,2.7,85,0.00,,---,0.00,VWS V14.01,2013-01-09 17:48:00,
2013-01-09 13:49:00,40.6,36.2,28.97,East,90,2.7,2.7,84,0.00,,---,0.00,VWS V14.01,2013-01-09 17:49:00,
2013-01-09 13:50:00,40.8,36.4,28.97,East,90,2.7,2.7,84,0.00,,---,0.00,VWS V14.01,2013-01-09 17:50:00,
2013-01-09 13:51:00,45.1,34.8,28.88,East,90,2.7,2.7,67,0.00,,---,0.00,VWS V14.01,2013-01-09 17:51:00,
2013-01-09 13:52:00,41.2,36.1,28.97,East,90,2.7,2.7,82,0.00,,---,0.00,VWS V14.01,2013-01-09 17:52:00,
2013-01-09 13:53:00,41.5,36.5,28.97,East,90,2.7,2.7,82,0.00,,---,0.00,VWS V14.01,2013-01-09 17:53:00,
2013-01-09 13:54:00,41.5,36.5,28.97,East,90,2.7,2.7,82,0.00,,---,0.00,VWS V14.01,2013-01-09 17:54:00,
2013-01-09 13:55:00,41.4,35.7,28.97,East,90,2.7,2.7,80,0.00,,---,0.00,VWS V14.01,2013-01-09 17:55:00,
2013-01-09 13:56:00,45.7,35.0,28.91,East,90,2.7,2.7,66,0.00,,---,0.00,VWS V14.01,2013-01-09 17:56:00,
2013-01-09 13:57:00,41.5,35.2,28.97,East,90,2.7,2.7,78,0.00,,---,0.00,VWS V14.01,2013-01-09 17:57:00,
2013-01-09 13:58:00,41.5,34.9,28.97,East,90,2.7,2.7,77,0.00,,---,0.00,VWS V14.01,2013-01-09 17:58:00,
2013-01-09 13:59:00,41.5,34.9,28.97,East,90,2.7,2.7,77,0.00,,---,0.00,VWS V14.01,2013-01-09 17:59:00,
2013-01-09 14:00:00,41.7,34.7,28.97,East,90,2.7,2.7,76,0.00,,---,0.00,VWS V14.01,2013-01-09 18:00:00,
2013-01-09 14:01:00,45.0,34.7,28.91,East,90,2.7,2.7,67,0.00,,---,0.00,VWS V14.01,2013-01-09 18:01:00,
2013-01-09 14:02:00,41.9,34.9,28.97,East,90,2.7,2.7,76,0.00,,---,0.00,VWS V14.01,2013-01-09 18:02:00,
2013-01-09 14:03:00,41.7,34.7,28.97,East,90,2.7,2.7,76,0.00,,---,0.00,VWS V14.01,2013-01-09 18:03:00,
2013-01-09 14:04:00,41.7,34.4,28.97,East,90,2.7,2.7,75,0.00,,---,0.00,VWS V14.01,2013-01-09 18:04:00,
2013-01-09 14:05:00,41.7,34.4,28.97,East,90,2.7,2.7,75,0.00,,---,0.00,VWS V14.01,2013-01-09 18:05:00,
2013-01-09 14:06:00,46.6,35.1,28.91,East,90,2.7,2.7,64,0.00,,---,0.00,VWS V14.01,2013-01-09 18:06:00,
2013-01-09 14:07:00,42.1,34.7,28.97,East,90,2.7,2.7,75,0.00,,---,0.00,VWS V14.01,2013-01-09 18:07:00,
2013-01-09 14:08:00,41.9,34.6,28.97,East,90,2.7,2.7,75,0.00,,---,0.00,VWS V14.01,2013-01-09 18:08:00,
2013-01-09 14:09:00,41.9,34.6,28.97,East,90,2.7,2.7,75,0.00,,---,0.00,VWS V14.01,2013-01-09 18:09:00,
2013-01-09 14:10:00,41.9,34.6,28.97,East,90,2.7,2.7,75,0.00,,---,0.00,VWS V14.01,2013-01-09 18:10:00,
2013-01-09 14:11:00,46.6,34.7,28.94,East,90,2.7,2.7,63,0.00,,---,0.00,VWS V14.01,2013-01-09 18:11:00,
2013-01-09 14:12:00,42.1,34.7,28.97,East,90,2.7,2.7,75,0.00,,---,0.00,VWS V14.01,2013-01-09 18:12:00,
2013-01-09 14:13:00,42.3,34.9,28.97,East,90,2.7,2.7,75,0.00,,---,0.00,VWS V14.01,2013-01-09 18:13:00,
2013-01-09 14:14:00,42.6,35.6,28.97,East,90,2.7,2.7,76,0.00,,---,0.00,VWS V14.01,2013-01-09 18:14:00,
2013-01-09 14:15:00,42.4,35.1,28.97,East,90,2.7,2.7,75,0.00,,---,0.00,VWS V14.01,2013-01-09 18:15:00,
2013-01-09 14:16:00,46.6,34.3,28.94,East,90,2.7,2.7,62,0.00,,---,0.00,VWS V14.01,2013-01-09 18:16:00,
2013-01-09 14:17:00,42.4,34.8,28.94,East,90,2.7,2.7,74,0.00,,---,0.00,VWS V14.01,2013-01-09 18:17:00,
2013-01-09 14:18:00,42.4,34.8,28.94,East,90,2.7,2.7,74,0.00,,---,0.00,VWS V14.01,2013-01-09 18:18:00,
2013-01-09 14:19:00,42.4,34.8,28.94,East,90,2.7,2.7,74,0.00,,---,0.00,VWS V14.01,2013-01-09 18:19:00,
2013-01-09 14:20:00,42.4,34.8,28.94,East,90,2.7,2.7,74,0.00,,---,0.00,VWS V14.01,2013-01-09 18:20:00,
2013-01-09 14:21:00,47.3,35.0,28.94,East,90,2.7,2.7,62,0.00,,---,0.00,VWS V14.01,2013-01-09 18:21:00,
2013-01-09 14:22:00,42.4,34.8,28.94,East,90,2.7,2.7,74,0.00,,---,0.00,VWS V14.01,2013-01-09 18:22:00,
2013-01-09 14:23:00,42.6,34.9,28.94,East,90,2.7,2.7,74,0.00,,---,0.00,VWS V14.01,2013-01-09 18:23:00,
2013-01-09 14:24:00,42.8,35.1,28.94,East,90,2.7,2.7,74,0.00,,---,0.00,VWS V14.01,2013-01-09 18:24:00,
2013-01-09 14:25:00,42.8,35.1,28.94,East,90,2.7,2.7,74,0.00,,---,0.00,VWS V14.01,2013-01-09 18:25:00,
2013-01-09 14:26:00,47.8,34.6,28.88,East,90,2.7,2.7,60,0.00,,---,0.00,VWS V14.01,2013-01-09 18:26:00,
2013-01-09 14:27:00,43.0,34.9,28.94,East,90,2.7,2.7,73,0.00,,---,0.00,VWS V14.01,2013-01-09 18:27:00,
2013-01-09 14:28:00,43.2,35.1,28.94,East,90,2.7,2.7,73,0.00,,---,0.00,VWS V14.01,2013-01-09 18:28:00,
2013-01-09 14:29:00,43.3,35.3,28.94,East,90,2.7,2.7,73,0.00,,---,0.00,VWS V14.01,2013-01-09 18:29:00,
2013-01-09 14:30:00,43.3,35.3,28.94,East,90,2.7,2.7,73,0.00,,---,0.00,VWS V14.01,2013-01-09 18:30:00,
2013-01-09 14:31:00,47.8,34.6,28.88,East,90,2.7,2.7,60,0.00,,---,0.00,VWS V14.01,2013-01-09 18:31:00,
2013-01-09 14:32:00,43.5,35.5,28.91,East,90,2.7,2.7,73,0.00,,---,0.00,VWS V14.01,2013-01-09 18:32:00,
2013-01-09 14:33:00,43.7,36.0,28.91,East,90,2.7,2.7,74,0.00,,---,0.00,VWS V14.01,2013-01-09 18:33:00,
2013-01-09 14:34:00,43.5,35.5,28.91,East,90,2.7,2.7,73,0.00,,---,0.00,VWS V14.01,2013-01-09 18:34:00,
2013-01-09 14:35:00,43.5,35.5,28.91,East,90,2.7,2.7,73,0.00,,---,0.00,VWS V14.01,2013-01-09 18:35:00,
2013-01-09 14:36:00,48.2,34.1,28.88,East,90,2.7,2.7,58,0.00,,---,0.00,VWS V14.01,2013-01-09 18:36:00,
2013-01-09 14:37:00,43.2,34.8,28.91,East,90,2.7,2.7,72,0.00,,---,0.00,VWS V14.01,2013-01-09 18:37:00,
2013-01-09 14:38:00,43.2,34.8,28.91,East,90,2.7,2.7,72,0.00,,---,0.00,VWS V14.01,2013-01-09 18:38:00,
2013-01-09 14:39:00,43.2,34.8,28.91,East,90,2.7,2.7,72,0.00,,---,0.00,VWS V14.01,2013-01-09 18:39:00,
2013-01-09 14:40:00,43.2,34.8,28.91,East,90,2.7,2.7,72,0.00,,---,0.00,VWS V14.01,2013-01-09 18:40:00,
2013-01-09 14:41:00,48.4,33.9,28.91,East,90,2.7,2.7,57,0.00,,---,0.00,VWS V14.01,2013-01-09 18:41:00,
2013-01-09 14:42:00,42.8,34.4,28.91,East,90,2.7,2.7,72,0.00,,---,0.00,VWS V14.01,2013-01-09 18:42:00,
2013-01-09 14:43:00,42.8,34.4,28.91,East,90,2.7,2.7,72,0.00,,---,0.00,VWS V14.01,2013-01-09 18:43:00,
2013-01-09 14:44:00,48.7,33.8,28.91,East,90,2.7,2.7,56,0.00,,---,0.00,VWS V14.01,2013-01-09 18:44:00,
2013-01-09 14:45:00,42.8,34.8,28.91,East,90,2.7,2.7,73,0.00,,---,0.00,VWS V14.01,2013-01-09 18:45:00,
2013-01-09 14:46:00,43.0,34.9,28.88,East,90,2.7,2.7,73,0.00,,---,0.00,VWS V14.01,2013-01-09 18:46:00,
2013-01-09 14:47:00,43.3,34.9,28.88,East,90,2.7,2.7,72,0.00,,---,0.00,VWS V14.01,2013-01-09 18:47:00,
2013-01-09 14:48:00,48.7,33.8,28.91,East,90,2.7,2.7,56,0.00,,---,0.00,VWS V14.01,2013-01-09 18:48:00,
2013-01-09 14:49:00,44.8,36.3,28.88,East,90,2.7,2.7,72,0.00,,---,0.00,VWS V14.01,2013-01-09 18:49:00,
2013-01-09 14:50:00,45.0,35.8,28.88,East,90,2.7,2.7,70,0.00,,---,0.00,VWS V14.01,2013-01-09 18:50:00,
2013-01-09 14:51:00,45.3,35.8,28.88,East,90,2.7,2.7,69,0.00,,---,0.00,VWS V14.01,2013-01-09 18:51:00,
2013-01-09 14:52:00,45.1,35.2,28.88,East,90,2.7,2.7,68,0.00,,---,0.00,VWS V14.01,2013-01-09 18:52:00,
2013-01-09 14:53:00,48.9,33.5,28.91,East,90,2.7,2.7,55,0.00,,---,0.00,VWS V14.01,2013-01-09 18:53:00,
2013-01-09 14:54:00,45.7,35.7,28.88,East,90,2.7,2.7,68,0.00,,---,0.00,VWS V14.01,2013-01-09 18:54:00,
2013-01-09 14:55:00,45.3,35.0,28.88,East,90,2.7,2.7,67,0.00,,---,0.00,VWS V14.01,2013-01-09 18:55:00,
2013-01-09 14:56:00,45.1,34.8,28.88,East,90,2.7,2.7,67,0.00,,---,0.00,VWS V14.01,2013-01-09 18:56:00,
2013-01-09 14:57:00,45.0,34.7,28.88,East,90,2.7,2.7,67,0.00,,---,0.00,VWS V14.01,2013-01-09 18:57:00,
2013-01-09 14:58:00,49.1,33.2,28.88,East,90,2.7,2.7,54,0.00,,---,0.00,VWS V14.01,2013-01-09 18:58:00,
2013-01-09 14:59:00,45.5,35.2,28.88,East,90,2.7,2.7,67,0.00,,---,0.00,VWS V14.01,2013-01-09 18:59:00,
2013-01-09 15:00:00,45.9,35.5,28.88,East,90,2.7,2.7,67,0.00,,---,0.00,VWS V14.01,2013-01-09 19:00:00,
2013-01-09 15:01:00,45.7,35.0,28.91,East,90,2.7,2.7,66,0.00,,---,0.00,VWS V14.01,2013-01-09 19:01:00,
2013-01-09 15:02:00,45.1,34.5,28.91,East,90,2.7,2.7,66,0.00,,---,0.00,VWS V14.01,2013-01-09 19:02:00,
2013-01-09 15:03:00,48.9,32.6,28.88,East,90,2.7,2.7,53,0.00,,---,0.00,VWS V14.01,2013-01-09 19:03:00,
2013-01-09 15:04:00,45.1,34.5,28.91,East,90,2.7,2.7,66,0.00,,---,0.00,VWS V14.01,2013-01-09 19:04:00,
2013-01-09 15:05:00,45.0,34.7,28.91,East,90,2.7,2.7,67,0.00,,---,0.00,VWS V14.01,2013-01-09 19:05:00,
2013-01-09 15:06:00,45.3,35.0,28.91,East,90,2.7,2.7,67,0.00,,---,0.00,VWS V14.01,2013-01-09 19:06:00,
2013-01-09 15:07:00,46.0,35.7,28.91,East,90,2.7,2.7,67,0.00,,---,0.00,VWS V14.01,2013-01-09 19:07:00,
2013-01-09 15:08:00,49.3,32.9,28.88,East,90,2.7,2.7,53,0.00,,---,0.00,VWS V14.01,2013-01-09 19:08:00,
2013-01-09 15:09:00,46.4,35.7,28.91,East,90,2.7,2.7,66,0.00,,---,0.00,VWS V14.01,2013-01-09 19:09:00,
2013-01-09 15:10:00,46.4,35.7,28.91,East,90,2.7,2.7,66,0.00,,---,0.00,VWS V14.01,2013-01-09 19:10:00,
2013-01-09 15:11:00,46.6,35.1,28.91,East,90,2.7,2.7,64,0.00,,---,0.00,VWS V14.01,2013-01-09 19:11:00,
2013-01-09 15:12:00,46.2,34.7,28.91,East,90,2.7,2.7,64,0.00,,---,0.00,VWS V14.01,2013-01-09 19:12:00,
2013-01-09 15:13:00,49.3,32.9,28.91,East,90,2.7,2.7,53,0.00,,---,0.00,VWS V14.01,2013-01-09 19:13:00,
2013-01-09 15:14:00,46.2,34.7,28.91,East,90,2.7,2.7,64,0.00,,---,0.00,VWS V14.01,2013-01-09 19:14:00,
2013-01-09 15:15:00,46.2,34.7,28.91,East,90,2.7,2.7,64,0.00,,---,0.00,VWS V14.01,2013-01-09 19:15:00,
2013-01-09 15:16:00,46.6,34.7,28.94,East,90,2.7,2.7,63,0.00,,---,0.00,VWS V14.01,2013-01-09 19:16:00,
2013-01-09 15:17:00,46.9,35.0,28.94,East,90,2.7,2.7,63,0.00,,---,0.00,VWS V14.01,2013-01-09 19:17:00,
2013-01-09 15:18:00,49.5,32.6,28.91,East,90,2.7,2.7,52,0.00,,---,0.00,VWS V14.01,2013-01-09 19:18:00,
2013-01-09 15:19:00,46.9,34.6,28.94,East,90,2.7,2.7,62,0.00,,---,0.00,VWS V14.01,2013-01-09 19:19:00,
2013-01-09 15:20:00,46.4,34.1,28.94,East,90,2.7,2.7,62,0.00,,---,0.00,VWS V14.01,2013-01-09 19:20:00,
2013-01-09 15:21:00,46.6,34.3,28.94,East,90,2.7,2.7,62,0.00,,---,0.00,VWS V14.01,2013-01-09 19:21:00,
2013-01-09 15:22:00,46.2,34.3,28.94,East,90,2.7,2.7,63,0.00,,---,0.00,VWS V14.01,2013-01-09 19:22:00,
2013-01-09 15:23:00,49.8,32.9,28.91,East,90,2.7,2.7,52,0.00,,---,0.00,VWS V14.01,2013-01-09 19:23:00,
2013-01-09 15:24:00,46.9,34.6,28.94,East,90,2.7,2.7,62,0.00,,---,0.00,VWS V14.01,2013-01-09 19:24:00,
2013-01-09 15:25:00,47.1,34.8,28.94,East,90,2.7,2.7,62,0.00,,---,0.00,VWS V14.01,2013-01-09 19:25:00,
2013-01-09 15:26:00,47.3,35.0,28.94,East,90,2.7,2.7,62,0.00,,---,0.00,VWS V14.01,2013-01-09 19:26:00,
2013-01-09 15:27:00,47.3,35.0,28.94,East,90,2.7,2.7,62,0.00,,---,0.00,VWS V14.01,2013-01-09 19:27:00,
2013-01-09 15:28:00,49.5,32.1,28.91,East,90,2.7,2.7,51,0.00,,---,0.00,VWS V14.01,2013-01-09 19:28:00,
2013-01-09 15:29:00,47.7,34.9,28.94,East,90,2.7,2.7,61,0.00,,---,0.00,VWS V14.01,2013-01-09 19:29:00,
2013-01-09 15:30:00,47.8,34.6,28.94,East,90,2.7,2.7,60,0.00,,---,0.00,VWS V14.01,2013-01-09 19:30:00,
2013-01-09 15:31:00,47.8,34.6,28.88,East,90,2.7,2.7,60,0.00,,---,0.00,VWS V14.01,2013-01-09 19:31:00,
2013-01-09 15:32:00,47.8,34.6,28.88,East,90,2.7,2.7,60,0.00,,---,0.00,VWS V14.01,2013-01-09 19:32:00,
2013-01-09 15:33:00,49.3,31.9,28.91,East,90,2.7,2.7,51,0.00,,---,0.00,VWS V14.01,2013-01-09 19:33:00,
2013-01-09 15:34:00,47.7,34.5,28.88,East,90,2.7,2.7,60,0.00,,---,0.00,VWS V14.01,2013-01-09 19:34:00,
2013-01-09 15:35:00,47.7,34.5,28.88,East,90,2.7,2.7,60,0.00,,---,0.00,VWS V14.01,2013-01-09 19:35:00,
2013-01-09 15:36:00,47.8,34.6,28.88,East,90,2.7,2.7,60,0.00,,---,0.00,VWS V14.01,2013-01-09 19:36:00,
2013-01-09 15:37:00,48.0,34.8,28.88,East,90,2.7,2.7,60,0.00,,---,0.00,VWS V14.01,2013-01-09 19:37:00,
2013-01-09 15:38:00,49.6,32.3,28.91,East,90,2.7,2.7,51,0.00,,---,0.00,VWS V14.01,2013-01-09 19:38:00,
2013-01-09 15:39:00,47.8,34.2,28.88,East,90,2.7,2.7,59,0.00,,---,0.00,VWS V14.01,2013-01-09 19:39:00,
2013-01-09 15:40:00,48.0,34.4,28.88,East,90,2.7,2.7,59,0.00,,---,0.00,VWS V14.01,2013-01-09 19:40:00,
2013-01-09 15:41:00,48.2,34.1,28.88,East,90,2.7,2.7,58,0.00,,---,0.00,VWS V14.01,2013-01-09 19:41:00,
2013-01-09 15:42:00,48.4,34.7,28.88,East,90,2.7,2.7,59,0.00,,---,0.00,VWS V14.01,2013-01-09 19:42:00,
2013-01-09 15:43:00,49.8,32.4,28.91,East,90,2.7,2.7,51,0.00,,---,0.00,VWS V14.01,2013-01-09 19:43:00,
2013-01-09 15:44:00,48.4,33.9,28.88,East,90,2.7,2.7,57,0.00,,---,0.00,VWS V14.01,2013-01-09 19:44:00,
2013-01-09 15:45:00,48.4,33.9,28.88,East,90,2.7,2.7,57,0.00,,---,0.00,VWS V14.01,2013-01-09 19:45:00,
2013-01-09 15:46:00,48.4,33.9,28.91,East,90,2.7,2.7,57,0.00,,---,0.00,VWS V14.01,2013-01-09 19:46:00,
2013-01-09 15:47:00,48.4,33.9,28.91,East,90,2.7,2.7,57,0.00,,---,0.00,VWS V14.01,2013-01-09 19:47:00,
2013-01-09 15:48:00,50.0,32.1,28.91,East,90,2.7,2.7,50,0.00,,---,0.00,VWS V14.01,2013-01-09 19:48:00,
2013-01-09 15:49:00,48.7,33.8,28.91,East,90,2.7,2.7,56,0.00,,---,0.00,VWS V14.01,2013-01-09 19:49:00,
2013-01-09 15:50:00,48.7,33.8,28.91,East,90,2.7,2.7,56,0.00,,---,0.00,VWS V14.01,2013-01-09 19:50:00,
2013-01-09 15:51:00,48.6,33.6,28.91,East,90,2.7,2.7,56,0.00,,---,0.00,VWS V14.01,2013-01-09 19:51:00,
2013-01-09 15:52:00,48.6,33.6,28.91,East,90,2.7,2.7,56,0.00,,---,0.00,VWS V14.01,2013-01-09 19:52:00,
2013-01-09 15:53:00,50.0,32.1,28.91,East,90,2.7,2.7,50,0.00,,---,0.00,VWS V14.01,2013-01-09 19:53:00,
2013-01-09 15:54:00,48.7,33.8,28.91,East,90,2.7,2.7,56,0.00,,---,0.00,VWS V14.01,2013-01-09 19:54:00,
2013-01-09 15:55:00,48.7,33.8,28.91,East,90,2.7,2.7,56,0.00,,---,0.00,VWS V14.01,2013-01-09 19:55:00,
2013-01-09 15:56:00,48.9,33.9,28.91,East,90,2.7,2.7,56,0.00,,---,0.00,VWS V14.01,2013-01-09 19:56:00,
2013-01-09 15:57:00,48.9,33.5,28.91,East,90,2.7,2.7,55,0.00,,---,0.00,VWS V14.01,2013-01-09 19:57:00,
2013-01-09 15:58:00,50.2,32.3,28.91,East,90,2.7,2.7,50,0.00,,---,0.00,VWS V14.01,2013-01-09 19:58:00,
2013-01-09 15:59:00,48.7,33.3,28.91,East,90,2.7,2.7,55,0.00,,---,0.00,VWS V14.01,2013-01-09 19:59:00,
2013-01-09 16:00:00,48.9,33.5,28.91,East,90,2.7,2.7,55,0.00,,---,0.00,VWS V14.01,2013-01-09 20:00:00,
2013-01-09 16:01:00,48.9,33.5,28.88,East,90,2.7,2.7,55,0.00,,---,0.00,VWS V14.01,2013-01-09 20:01:00,
2013-01-09 16:02:00,48.9,33.5,28.88,East,90,2.7,2.7,55,0.00,,---,0.00,VWS V14.01,2013-01-09 20:02:00,
2013-01-09 16:03:00,50.2,32.3,28.91,East,90,2.7,2.7,50,0.00,,---,0.00,VWS V14.01,2013-01-09 20:03:00,
2013-01-09 16:04:00,49.1,33.2,28.88,East,90,2.7,2.7,54,0.00,,---,0.00,VWS V14.01,2013-01-09 20:04:00,
2013-01-09 16:05:00,49.1,33.2,28.88,East,90,2.7,2.7,54,0.00,,---,0.00,VWS V14.01,2013-01-09 20:05:00,
2013-01-09 16:06:00,49.3,33.4,28.88,East,90,2.7,2.7,54,0.00,,---,0.00,VWS V14.01,2013-01-09 20:06:00,
2013-01-09 16:07:00,48.7,32.4,28.88,East,90,2.7,2.7,53,0.00,,---,0.00,VWS V14.01,2013-01-09 20:07:00,
2013-01-09 16:08:00,50.0,31.6,28.91,East,90,2.7,2.7,49,0.00,,---,0.00,VWS V14.01,2013-01-09 20:08:00,
2013-01-09 16:09:00,48.9,32.6,28.88,East,90,2.7,2.7,53,0.00,,---,0.00,VWS V14.01,2013-01-09 20:09:00,
2013-01-09 16:10:00,48.7,32.4,28.88,East,90,2.7,2.7,53,0.00,,---,0.00,VWS V14.01,2013-01-09 20:10:00,
2013-01-09 16:11:00,48.7,32.4,28.88,East,90,2.7,2.7,53,0.00,,---,0.00,VWS V14.01,2013-01-09 20:11:00,
2013-01-09 16:12:00,48.7,32.4,28.88,East,90,2.7,2.7,53,0.00,,---,0.00,VWS V14.01,2013-01-09 20:12:00,
2013-01-09 16:13:00,49.5,31.1,28.94,East,90,2.7,2.7,49,0.00,,---,0.00,VWS V14.01,2013-01-09 20:13:00,
2013-01-09 16:14:00,49.3,32.9,28.88,East,90,2.7,2.7,53,0.00,,---,0.00,VWS V14.01,2013-01-09 20:14:00,
2013-01-09 16:15:00,49.5,33.1,28.88,East,90,2.7,2.7,53,0.00,,---,0.00,VWS V14.01,2013-01-09 20:15:00,
2013-01-09 16:16:00,49.6,33.2,28.91,East,90,2.7,2.7,53,0.00,,---,0.00,VWS V14.01,2013-01-09 20:16:00,
2013-01-09 16:17:00,49.3,32.9,28.91,East,90,2.7,2.7,53,0.00,,---,0.00,VWS V14.01,2013-01-09 20:17:00,
2013-01-09 16:18:00,49.6,31.3,28.94,East,90,2.7,2.7,49,0.00,,---,0.00,VWS V14.01,2013-01-09 20:18:00,
2013-01-09 16:19:00,49.5,33.1,28.91,East,90,2.7,2.7,53,0.00,,---,0.00,VWS V14.01,2013-01-09 20:19:00,
2013-01-09 16:20:00,49.6,32.8,28.91,East,90,2.7,2.7,52,0.00,,---,0.00,VWS V14.01,2013-01-09 20:20:00,
2013-01-09 16:21:00,49.8,32.9,28.91,East,90,2.7,2.7,52,0.00,,---,0.00,VWS V14.01,2013-01-09 20:21:00,
2013-01-09 16:22:00,49.5,32.6,28.91,East,90,2.7,2.7,52,0.00,,---,0.00,VWS V14.01,2013-01-09 20:22:00,
2013-01-09 16:23:00,49.6,31.3,28.94,East,90,2.7,2.7,49,0.00,,---,0.00,VWS V14.01,2013-01-09 20:23:00,
2013-01-09 16:24:00,49.3,32.4,28.91,East,90,2.7,2.7,52,0.00,,---,0.00,VWS V14.01,2013-01-09 20:24:00,
2013-01-09 16:25:00,49.3,32.4,28.91,East,90,2.7,2.7,52,0.00,,---,0.00,VWS V14.01,2013-01-09 20:25:00,
2013-01-09 16:26:00,49.6,32.8,28.91,East,90,2.7,2.7,52,0.00,,---,0.00,VWS V14.01,2013-01-09 20:26:00,
2013-01-09 16:27:00,49.6,32.8,28.91,East,90,2.7,2.7,52,0.00,,---,0.00,VWS V14.01,2013-01-09 20:27:00,
2013-01-09 16:28:00,49.8,31.4,28.94,East,90,2.7,2.7,49,0.00,,---,0.00,VWS V14.01,2013-01-09 20:28:00,
2013-01-09 16:29:00,49.8,32.9,28.91,East,90,2.7,2.7,52,0.00,,---,0.00,VWS V14.01,2013-01-09 20:29:00,
2013-01-09 16:30:00,49.6,32.3,28.91,East,90,2.7,2.7,51,0.00,,---,0.00,VWS V14.01,2013-01-09 20:30:00,
2013-01-09 16:31:00,49.8,32.9,28.91,East,90,2.7,2.7,52,0.00,,---,0.00,VWS V14.01,2013-01-09 20:31:00,
2013-01-09 16:32:00,49.6,32.3,28.91,East,90,2.7,2.7,51,0.00,,---,0.00,VWS V14.01,2013-01-09 20:32:00,
2013-01-09 16:33:00,50.0,30.6,28.94,East,90,2.7,2.7,47,0.00,,---,0.00,VWS V14.01,2013-01-09 20:33:00,
2013-01-09 16:34:00,49.8,32.4,28.91,East,90,2.7,2.7,51,0.00,,---,0.00,VWS V14.01,2013-01-09 20:34:00,
2013-01-09 16:35:00,49.8,32.4,28.91,East,90,2.7,2.7,51,0.00,,---,0.00,VWS V14.01,2013-01-09 20:35:00,
2013-01-09 16:36:00,49.3,31.9,28.91,East,90,2.7,2.7,51,0.00,,---,0.00,VWS V14.01,2013-01-09 20:36:00,
2013-01-09 16:37:00,49.5,32.1,28.91,East,90,2.7,2.7,51,0.00,,---,0.00,VWS V14.01,2013-01-09 20:37:00,
2013-01-09 16:38:00,49.3,30.4,28.94,East,90,2.7,2.7,48,0.00,,---,0.00,VWS V14.01,2013-01-09 20:38:00,
2013-01-09 16:39:00,49.5,32.1,28.91,East,90,2.7,2.7,51,0.00,,---,0.00,VWS V14.01,2013-01-09 20:39:00,
2013-01-09 16:40:00,49.3,31.9,28.91,East,90,2.7,2.7,51,0.00,,---,0.00,VWS V14.01,2013-01-09 20:40:00,
2013-01-09 16:41:00,49.5,32.1,28.91,East,90,2.7,2.7,51,0.00,,---,0.00,VWS V14.01,2013-01-09 20:41:00,
2013-01-09 16:42:00,49.5,32.1,28.91,East,90,2.7,2.7,51,0.00,,---,0.00,VWS V14.01,2013-01-09 20:42:00,
2013-01-09 16:43:00,49.3,30.4,28.94,East,90,2.7,2.7,48,0.00,,---,0.00,VWS V14.01,2013-01-09 20:43:00,
2013-01-09 16:44:00,49.6,32.3,28.91,East,90,2.7,2.7,51,0.00,,---,0.00,VWS V14.01,2013-01-09 20:44:00,
2013-01-09 16:45:00,49.8,32.4,28.91,East,90,2.7,2.7,51,0.00,,---,0.00,VWS V14.01,2013-01-09 20:45:00,
2013-01-09 16:46:00,49.8,32.4,28.91,East,90,2.7,2.7,51,0.00,,---,0.00,VWS V14.01,2013-01-09 20:46:00,
2013-01-09 16:47:00,49.8,32.4,28.91,East,90,2.7,2.7,51,0.00,,---,0.00,VWS V14.01,2013-01-09 20:47:00,
2013-01-09 16:48:00,49.3,30.4,28.94,East,90,2.7,2.7,48,0.00,,---,0.00,VWS V14.01,2013-01-09 20:48:00,
2013-01-09 16:49:00,49.8,32.4,28.91,East,90,2.7,2.7,51,0.00,,---,0.00,VWS V14.01,2013-01-09 20:49:00,
2013-01-09 16:50:00,50.2,32.3,28.91,East,90,2.7,2.7,50,0.00,,---,0.00,VWS V14.01,2013-01-09 20:50:00,
2013-01-09 16:51:00,50.4,32.4,28.91,East,90,2.7,2.7,50,0.00,,---,0.00,VWS V14.01,2013-01-09 20:51:00,
2013-01-09 16:52:00,50.2,32.3,28.91,East,90,2.7,2.7,50,0.00,,---,0.00,VWS V14.01,2013-01-09 20:52:00,
2013-01-09 16:53:00,49.8,30.9,28.94,East,90,2.7,2.7,48,0.00,,---,0.00,VWS V14.01,2013-01-09 20:53:00,
2013-01-09 16:54:00,49.8,31.9,28.91,East,90,2.7,2.7,50,0.00,,---,0.00,VWS V14.01,2013-01-09 20:54:00,
2013-01-09 16:55:00,49.6,31.8,28.91,East,90,2.7,2.7,50,0.00,,---,0.00,VWS V14.01,2013-01-09 20:55:00,
2013-01-09 16:56:00,49.8,32.4,28.91,East,90,2.7,2.7,51,0.00,,---,0.00,VWS V14.01,2013-01-09 20:56:00,
2013-01-09 16:57:00,50.0,32.1,28.91,East,90,2.7,2.7,50,0.00,,---,0.00,VWS V14.01,2013-01-09 20:57:00,
2013-01-09 16:58:00,49.8,30.4,28.94,East,90,2.7,2.7,47,0.00,,---,0.00,VWS V14.01,2013-01-09 20:58:00,
2013-01-09 16:59:00,50.0,32.1,28.91,East,90,2.7,2.7,50,0.00,,---,0.00,VWS V14.01,2013-01-09 20:59:00,
2013-01-09 17:00:00,50.0,32.1,28.91,East,90,2.7,2.7,50,0.00,,---,0.00,VWS V14.01,2013-01-09 21:00:00,
2013-01-09 17:01:00,50.2,32.3,28.91,East,90,2.7,2.7,50,0.00,,---,0.00,VWS V14.01,2013-01-09 21:01:00,
2013-01-09 17:02:00,50.2,32.3,28.91,East,90,2.7,2.7,50,0.00,,---,0.00,VWS V14.01,2013-01-09 21:02:00,
2013-01-09 17:03:00,49.1,29.8,28.94,East,90,2.7,2.7,47,0.00,,---,0.00,VWS V14.01,2013-01-09 21:03:00,
2013-01-09 17:04:00,50.0,32.1,28.91,East,90,2.7,2.7,50,0.00,,---,0.00,VWS V14.01,2013-01-09 21:04:00,
2013-01-09 17:05:00,50.2,32.3,28.91,East,90,2.7,2.7,50,0.00,,---,0.00,VWS V14.01,2013-01-09 21:05:00,
2013-01-09 17:06:00,50.2,32.3,28.91,East,90,2.7,2.7,50,0.00,,---,0.00,VWS V14.01,2013-01-09 21:06:00,
2013-01-09 17:07:00,50.2,32.3,28.91,East,90,2.7,2.7,50,0.00,,---,0.00,VWS V14.01,2013-01-09 21:07:00,
2013-01-09 17:08:00,48.9,29.6,28.94,East,90,2.7,2.7,47,0.00,,---,0.00,VWS V14.01,2013-01-09 21:08:00,
2013-01-09 17:09:00,50.0,32.1,28.91,East,90,2.7,2.7,50,0.00,,---,0.00,VWS V14.01,2013-01-09 21:09:00,
2013-01-09 17:10:00,49.8,31.9,28.91,East,90,2.7,2.7,50,0.00,,---,0.00,VWS V14.01,2013-01-09 21:10:00,
2013-01-09 17:11:00,49.8,31.9,28.91,East,90,2.7,2.7,50,0.00,,---,0.00,VWS V14.01,2013-01-09 21:11:00,
2013-01-09 17:12:00,49.8,31.9,28.91,East,90,2.7,2.7,50,0.00,,---,0.00,VWS V14.01,2013-01-09 21:12:00,
2013-01-09 17:13:00,48.9,30.1,28.97,East,90,2.7,2.7,48,0.00,,---,0.00,VWS V14.01,2013-01-09 21:13:00,
2013-01-09 17:14:00,50.0,31.6,28.91,East,90,2.7,2.7,49,0.00,,---,0.00,VWS V14.01,2013-01-09 21:14:00,
2013-01-09 17:15:00,49.8,31.4,28.91,East,90,2.7,2.7,49,0.00,,---,0.00,VWS V14.01,2013-01-09 21:15:00,
2013-01-09 17:16:00,49.8,31.4,28.94,East,90,2.7,2.7,49,0.00,,---,0.00,VWS V14.01,2013-01-09 21:16:00,
2013-01-09 17:17:00,49.6,31.3,28.94,East,90,2.7,2.7,49,0.00,,---,0.00,VWS V14.01,2013-01-09 21:17:00,
2013-01-09 17:18:00,48.6,29.8,28.97,East,90,2.7,2.7,48,0.00,,---,0.00,VWS V14.01,2013-01-09 21:18:00,
2013-01-09 17:19:00,48.9,30.6,28.94,East,90,2.7,2.7,49,0.00,,---,0.00,VWS V14.01,2013-01-09 21:19:00,
2013-01-09 17:20:00,48.7,30.5,28.94,East,90,2.7,2.7,49,0.00,,---,0.00,VWS V14.01,2013-01-09 21:20:00,
2013-01-09 17:21:00,49.1,30.8,28.94,East,90,2.7,2.7,49,0.00,,---,0.00,VWS V14.01,2013-01-09 21:21:00,
2013-01-09 17:22:00,49.5,31.1,28.94,East,90,2.7,2.7,49,0.00,,---,0.00,VWS V14.01,2013-01-09 21:22:00,
2013-01-09 17:23:00,47.8,29.1,28.97,East,90,2.7,2.7,48,0.00,,---,0.00,VWS V14.01,2013-01-09 21:23:00,
2013-01-09 17:24:00,49.8,31.4,28.94,East,90,2.7,2.7,49,0.00,,---,0.00,VWS V14.01,2013-01-09 21:24:00,
2013-01-09 17:25:00,50.2,31.8,28.94,East,90,2.7,2.7,49,0.00,,---,0.00,VWS V14.01,2013-01-09 21:25:00,
2013-01-09 17:26:00,50.2,31.8,28.94,East,90,2.7,2.7,49,0.00,,---,0.00,VWS V14.01,2013-01-09 21:26:00,
2013-01-09 17:27:00,50.2,31.8,28.94,East,90,2.7,2.7,49,0.00,,---,0.00,VWS V14.01,2013-01-09 21:27:00,
2013-01-09 17:28:00,46.8,28.1,28.97,East,90,2.7,2.7,48,0.00,,---,0.00,VWS V14.01,2013-01-09 21:28:00,
2013-01-09 17:29:00,49.6,31.3,28.94,East,90,2.7,2.7,49,0.00,,---,0.00,VWS V14.01,2013-01-09 21:29:00,
2013-01-09 17:30:00,49.5,31.1,28.94,East,90,2.7,2.7,49,0.00,,---,0.00,VWS V14.01,2013-01-09 21:30:00,
2013-01-09 17:31:00,49.6,31.3,28.94,East,90,2.7,2.7,49,0.00,,---,0.00,VWS V14.01,2013-01-09 21:31:00,
2013-01-09 17:32:00,49.8,31.4,28.94,East,90,2.7,2.7,49,0.00,,---,0.00,VWS V14.01,2013-01-09 21:32:00,
2013-01-09 17:33:00,45.7,27.6,28.97,East,90,2.7,2.7,49,0.00,,---,0.00,VWS V14.01,2013-01-09 21:33:00,
2013-01-09 17:34:00,49.8,30.9,28.94,East,90,2.7,2.7,48,0.00,,---,0.00,VWS V14.01,2013-01-09 21:34:00,
2013-01-09 17:35:00,49.8,30.9,28.94,East,90,2.7,2.7,48,0.00,,---,0.00,VWS V14.01,2013-01-09 21:35:00,
2013-01-09 17:36:00,49.8,30.9,28.94,East,90,2.7,2.7,48,0.00,,---,0.00,VWS V14.01,2013-01-09 21:36:00,
2013-01-09 17:37:00,50.0,31.1,28.94,East,90,2.7,2.7,48,0.00,,---,0.00,VWS V14.01,2013-01-09 21:37:00,
2013-01-09 17:38:00,45.3,27.8,28.97,East,90,2.7,2.7,50,0.00,,---,0.00,VWS V14.01,2013-01-09 21:38:00,
2013-01-09 17:39:00,49.6,30.8,28.94,East,90,2.7,2.7,48,0.00,,---,0.00,VWS V14.01,2013-01-09 21:39:00,
2013-01-09 17:40:00,48.9,30.1,28.94,East,90,2.7,2.7,48,0.00,,---,0.00,VWS V14.01,2013-01-09 21:40:00,
2013-01-09 17:41:00,48.9,30.1,28.94,East,90,2.7,2.7,48,0.00,,---,0.00,VWS V14.01,2013-01-09 21:41:00,
2013-01-09 17:42:00,48.9,30.1,28.94,East,90,2.7,2.7,48,0.00,,---,0.00,VWS V14.01,2013-01-09 21:42:00,
2013-01-09 17:43:00,44.8,27.8,28.97,East,90,2.7,2.7,51,0.00,,---,0.00,VWS V14.01,2013-01-09 21:43:00,
2013-01-09 17:44:00,49.3,30.4,28.94,East,90,2.7,2.7,48,0.00,,---,0.00,VWS V14.01,2013-01-09 21:44:00,
2013-01-09 17:45:00,49.8,30.9,28.94,East,90,2.7,2.7,48,0.00,,---,0.00,VWS V14.01,2013-01-09 21:45:00,
2013-01-09 17:46:00,49.6,30.8,28.94,East,90,2.7,2.7,48,0.00,,---,0.00,VWS V14.01,2013-01-09 21:46:00,
2013-01-09 17:47:00,49.3,30.4,28.94,East,90,2.7,2.7,48,0.00,,---,0.00,VWS V14.01,2013-01-09 21:47:00,
2013-01-09 17:48:00,44.6,27.6,28.97,East,90,2.7,2.7,51,0.00,,---,0.00,VWS V14.01,2013-01-09 21:48:00,
2013-01-09 17:49:00,48.7,29.4,28.94,East,90,2.7,2.7,47,0.00,,---,0.00,VWS V14.01,2013-01-09 21:49:00,
2013-01-09 17:50:00,48.7,29.4,28.94,East,90,2.7,2.7,47,0.00,,---,0.00,VWS V14.01,2013-01-09 21:50:00,
2013-01-09 17:51:00,48.9,30.1,28.94,East,90,2.7,2.7,48,0.00,,---,0.00,VWS V14.01,2013-01-09 21:51:00,
2013-01-09 17:52:00,48.9,29.6,28.94,East,90,2.7,2.7,47,0.00,,---,0.00,VWS V14.01,2013-01-09 21:52:00,
2013-01-09 17:53:00,44.6,28.1,28.97,East,90,2.7,2.7,52,0.00,,---,0.00,VWS V14.01,2013-01-09 21:53:00,
2013-01-09 17:54:00,49.5,30.6,28.94,East,90,2.7,2.7,48,0.00,,---,0.00,VWS V14.01,2013-01-09 21:54:00,
2013-01-09 17:55:00,49.6,30.8,28.94,East,90,2.7,2.7,48,0.00,,---,0.00,VWS V14.01,2013-01-09 21:55:00,
2013-01-09 17:56:00,49.5,30.6,28.94,East,90,2.7,2.7,48,0.00,,---,0.00,VWS V14.01,2013-01-09 21:56:00,
2013-01-09 17:57:00,49.6,30.8,28.94,East,90,2.7,2.7,48,0.00,,---,0.00,VWS V14.01,2013-01-09 21:57:00,
2013-01-09 17:58:00,44.6,28.1,28.97,East,90,2.7,2.7,52,0.00,,---,0.00,VWS V14.01,2013-01-09 21:58:00,
2013-01-09 17:59:00,49.8,30.9,28.94,East,90,2.7,2.7,48,0.00,,---,0.00,VWS V14.01,2013-01-09 21:59:00,
2013-01-09 18:00:00,50.0,30.6,28.94,East,90,2.7,2.7,47,0.00,,---,0.00,VWS V14.01,2013-01-09 22:00:00,
2013-01-09 18:01:00,49.6,30.2,28.94,East,90,2.7,2.7,47,0.00,,---,0.00,VWS V14.01,2013-01-09 22:01:00,
2013-01-09 18:02:00,49.8,30.9,28.94,East,90,2.7,2.7,48,0.00,,---,0.00,VWS V14.01,2013-01-09 22:02:00,
2013-01-09 18:03:00,44.4,28.4,28.97,East,90,2.7,2.7,53,0.00,,---,0.00,VWS V14.01,2013-01-09 22:03:00,
2013-01-09 18:04:00,49.8,30.4,28.94,East,90,2.7,2.7,47,0.00,,---,0.00,VWS V14.01,2013-01-09 22:04:00,
2013-01-09 18:05:00,49.8,30.4,28.94,East,90,2.7,2.7,47,0.00,,---,0.00,VWS V14.01,2013-01-09 22:05:00,
2013-01-09 18:06:00,49.6,30.2,28.94,East,90,2.7,2.7,47,0.00,,---,0.00,VWS V14.01,2013-01-09 22:06:00,
2013-01-09 18:07:00,49.6,30.2,28.94,East,90,2.7,2.7,47,0.00,,---,0.00,VWS V14.01,2013-01-09 22:07:00,
2013-01-09 18:08:00,44.2,28.7,28.97,East,90,2.7,2.7,54,0.00,,---,0.00,VWS V14.01,2013-01-09 22:08:00,
2013-01-09 18:09:00,49.1,29.8,28.94,East,90,2.7,2.7,47,0.00,,---,0.00,VWS V14.01,2013-01-09 22:09:00,
2013-01-09 18:10:00,49.1,29.8,28.94,East,90,2.7,2.7,47,0.00,,---,0.00,VWS V14.01,2013-01-09 22:10:00,
2013-01-09 18:11:00,48.9,29.6,28.94,East,90,2.7,2.7,47,0.00,,---,0.00,VWS V14.01,2013-01-09 22:11:00,
2013-01-09 18:12:00,48.9,29.6,28.94,East,90,2.7,2.7,47,0.00,,---,0.00,VWS V14.01,2013-01-09 22:12:00,
2013-01-09 18:13:00,44.1,28.5,28.97,East,90,2.7,2.7,54,0.00,,---,0.00,VWS V14.01,2013-01-09 22:13:00,
2013-01-09 18:14:00,48.9,29.6,28.94,East,90,2.7,2.7,47,0.00,,---,0.00,VWS V14.01,2013-01-09 22:14:00,
2013-01-09 18:15:00,48.9,29.6,28.94,East,90,2.7,2.7,47,0.00,,---,0.00,VWS V14.01,2013-01-09 22:15:00,
2013-01-09 18:16:00,48.9,29.6,28.97,East,90,2.7,2.7,47,0.00,,---,0.00,VWS V14.01,2013-01-09 22:16:00,
2013-01-09 18:17:00,48.9,29.6,28.97,East,90,2.7,2.7,47,0.00,,---,0.00,VWS V14.01,2013-01-09 22:17:00,
2013-01-09 18:18:00,44.1,28.5,28.97,East,90,2.7,2.7,54,0.00,,---,0.00,VWS V14.01,2013-01-09 22:18:00,
2013-01-09 18:19:00,49.3,30.4,28.97,East,90,2.7,2.7,48,0.00,,---,0.00,VWS V14.01,2013-01-09 22:19:00,
2013-01-09 18:20:00,48.9,29.6,28.97,East,90,2.7,2.7,47,0.00,,---,0.00,VWS V14.01,2013-01-09 22:20:00,
2013-01-09 18:21:00,48.7,29.4,28.97,East,90,2.7,2.7,47,0.00,,---,0.00,VWS V14.01,2013-01-09 22:21:00,
2013-01-09 18:22:00,48.6,29.3,28.97,East,90,2.7,2.7,47,0.00,,---,0.00,VWS V14.01,2013-01-09 22:22:00,
2013-01-09 18:23:00,44.1,28.5,28.97,East,90,2.7,2.7,54,0.00,,---,0.00,VWS V14.01,2013-01-09 22:23:00,
2013-01-09 18:24:00,48.4,29.6,28.97,East,90,2.7,2.7,48,0.00,,---,0.00,VWS V14.01,2013-01-09 22:24:00,
2013-01-09 18:25:00,48.0,29.3,28.97,East,90,2.7,2.7,48,0.00,,---,0.00,VWS V14.01,2013-01-09 22:25:00,
2013-01-09 18:26:00,48.0,29.3,28.97,East,90,2.7,2.7,48,0.00,,---,0.00,VWS V14.01,2013-01-09 22:26:00,
2013-01-09 18:27:00,48.0,29.3,28.97,East,90,2.7,2.7,48,0.00,,---,0.00,VWS V14.01,2013-01-09 22:27:00,
2013-01-09 18:28:00,43.7,28.2,29.00,East,90,2.7,2.7,54,0.00,,---,0.00,VWS V14.01,2013-01-09 22:28:00,
2013-01-09 18:29:00,47.8,29.1,28.97,East,90,2.7,2.7,48,0.00,,---,0.00,VWS V14.01,2013-01-09 22:29:00,
2013-01-09 18:30:00,47.7,29.0,28.97,East,90,2.7,2.7,48,0.00,,---,0.00,VWS V14.01,2013-01-09 22:30:00,
2013-01-09 18:31:00,47.1,28.5,28.97,East,90,2.7,2.7,48,0.00,,---,0.00,VWS V14.01,2013-01-09 22:31:00,
2013-01-09 18:32:00,46.8,28.1,28.97,East,90,2.7,2.7,48,0.00,,---,0.00,VWS V14.01,2013-01-09 22:32:00,
2013-01-09 18:33:00,43.7,28.2,29.00,East,90,2.7,2.7,54,0.00,,---,0.00,VWS V14.01,2013-01-09 22:33:00,
2013-01-09 18:34:00,46.8,28.6,28.97,East,90,2.7,2.7,49,0.00,,---,0.00,VWS V14.01,2013-01-09 22:34:00,
2013-01-09 18:35:00,46.4,28.3,28.97,East,90,2.7,2.7,49,0.00,,---,0.00,VWS V14.01,2013-01-09 22:35:00,
2013-01-09 18:36:00,46.2,28.1,28.97,East,90,2.7,2.7,49,0.00,,---,0.00,VWS V14.01,2013-01-09 22:36:00,
2013-01-09 18:37:00,46.0,28.0,28.97,East,90,2.7,2.7,49,0.00,,---,0.00,VWS V14.01,2013-01-09 22:37:00,
2013-01-09 18:38:00,43.7,27.7,29.00,East,90,2.7,2.7,53,0.00,,---,0.00,VWS V14.01,2013-01-09 22:38:00,
2013-01-09 18:39:00,45.5,28.0,28.97,East,90,2.7,2.7,50,0.00,,---,0.00,VWS V14.01,2013-01-09 22:39:00,
2013-01-09 18:40:00,45.5,28.0,28.97,East,90,2.7,2.7,50,0.00,,---,0.00,VWS V14.01,2013-01-09 22:40:00,
2013-01-09 18:41:00,45.7,28.1,28.97,East,90,2.7,2.7,50,0.00,,---,0.00,VWS V14.01,2013-01-09 22:41:00,
2013-01-09 18:42:00,45.5,28.0,28.97,East,90,2.7,2.7,50,0.00,,---,0.00,VWS V14.01,2013-01-09 22:42:00,
2013-01-09 18:43:00,43.5,27.5,29.00,East,90,2.7,2.7,53,0.00,,---,0.00,VWS V14.01,2013-01-09 22:43:00,
2013-01-09 18:44:00,45.3,27.8,28.97,East,90,2.7,2.7,50,0.00,,---,0.00,VWS V14.01,2013-01-09 22:44:00,
2013-01-09 18:45:00,45.3,27.8,28.97,East,90,2.7,2.7,50,0.00,,---,0.00,VWS V14.01,2013-01-09 22:45:00,
2013-01-09 18:46:00,45.1,27.6,28.97,East,90,2.7,2.7,50,0.00,,---,0.00,VWS V14.01,2013-01-09 22:46:00,
2013-01-09 18:47:00,45.1,28.1,28.97,East,90,2.7,2.7,51,0.00,,---,0.00,VWS V14.01,2013-01-09 22:47:00,
2013-01-09 18:48:00,43.2,27.2,29.00,East,90,2.7,2.7,53,0.00,,---,0.00,VWS V14.01,2013-01-09 22:48:00,
2013-01-09 18:49:00,44.8,27.8,28.97,East,90,2.7,2.7,51,0.00,,---,0.00,VWS V14.01,2013-01-09 22:49:00,
2013-01-09 18:50:00,44.8,27.8,28.97,East,90,2.7,2.7,51,0.00,,---,0.00,VWS V14.01,2013-01-09 22:50:00,
2013-01-09 18:51:00,45.0,27.9,28.97,East,90,2.7,2.7,51,0.00,,---,0.00,VWS V14.01,2013-01-09 22:51:00,
2013-01-09 18:52:00,45.0,27.9,28.97,East,90,2.7,2.7,51,0.00,,---,0.00,VWS V14.01,2013-01-09 22:52:00,
2013-01-09 18:53:00,43.3,26.4,29.00,East,90,2.7,2.7,51,0.00,,---,0.00,VWS V14.01,2013-01-09 22:53:00,
2013-01-09 18:54:00,44.8,28.2,28.97,East,90,2.7,2.7,52,0.00,,---,0.00,VWS V14.01,2013-01-09 22:54:00,
2013-01-09 18:55:00,44.8,28.2,28.97,East,90,2.7,2.7,52,0.00,,---,0.00,VWS V14.01,2013-01-09 22:55:00,
2013-01-09 18:56:00,44.6,28.1,28.97,East,90,2.7,2.7,52,0.00,,---,0.00,VWS V14.01,2013-01-09 22:56:00,
2013-01-09 18:57:00,44.4,27.9,28.97,East,90,2.7,2.7,52,0.00,,---,0.00,VWS V14.01,2013-01-09 22:57:00,
2013-01-09 18:58:00,43.0,26.6,29.00,East,90,2.7,2.7,52,0.00,,---,0.00,VWS V14.01,2013-01-09 22:58:00,
2013-01-09 18:59:00,44.6,28.1,28.97,East,90,2.7,2.7,52,0.00,,---,0.00,VWS V14.01,2013-01-09 22:59:00,
2013-01-09 19:00:00,44.6,28.1,28.97,East,90,2.7,2.7,52,0.00,,---,0.00,VWS V14.01,2013-01-09 23:00:00,
2013-01-09 19:01:00,44.6,28.1,28.97,East,90,2.7,2.7,52,0.00,,---,0.00,VWS V14.01,2013-01-09 23:01:00,
2013-01-09 19:02:00,44.6,28.1,28.97,East,90,2.7,2.7,52,0.00,,---,0.00,VWS V14.01,2013-01-09 23:02:00,
2013-01-09 19:03:00,43.2,26.3,29.00,East,90,2.7,2.7,51,0.00,,---,0.00,VWS V14.01,2013-01-09 23:03:00,
2013-01-09 19:04:00,44.6,28.1,28.97,East,90,2.7,2.7,52,0.00,,---,0.00,VWS V14.01,2013-01-09 23:04:00,
2013-01-09 19:05:00,44.6,28.5,28.97,East,90,2.7,2.7,53,0.00,,---,0.00,VWS V14.01,2013-01-09 23:05:00,
2013-01-09 19:06:00,44.6,28.5,28.97,East,90,2.7,2.7,53,0.00,,---,0.00,VWS V14.01,2013-01-09 23:06:00,
2013-01-09 19:07:00,44.6,28.5,28.97,East,90,2.7,2.7,53,0.00,,---,0.00,VWS V14.01,2013-01-09 23:07:00,
2013-01-09 19:08:00,43.0,26.1,29.00,East,90,2.7,2.7,51,0.00,,---,0.00,VWS V14.01,2013-01-09 23:08:00,
2013-01-09 19:09:00,44.4,28.8,28.97,East,90,2.7,2.7,54,0.00,,---,0.00,VWS V14.01,2013-01-09 23:09:00,
2013-01-09 19:10:00,44.2,28.7,28.97,East,90,2.7,2.7,54,0.00,,---,0.00,VWS V14.01,2013-01-09 23:10:00,
2013-01-09 19:11:00,44.2,28.7,28.97,East,90,2.7,2.7,54,0.00,,---,0.00,VWS V14.01,2013-01-09 23:11:00,
2013-01-09 19:12:00,44.2,28.7,28.97,East,90,2.7,2.7,54,0.00,,---,0.00,VWS V14.01,2013-01-09 23:12:00,
2013-01-09 19:13:00,43.0,25.6,29.03,East,90,2.7,2.7,50,0.00,,---,0.00,VWS V14.01,2013-01-09 23:13:00,
2013-01-09 19:14:00,44.2,28.7,28.97,East,90,2.7,2.7,54,0.00,,---,0.00,VWS V14.01,2013-01-09 23:14:00,
2013-01-09 19:15:00,44.2,28.7,28.97,East,90,2.7,2.7,54,0.00,,---,0.00,VWS V14.01,2013-01-09 23:15:00,
2013-01-09 19:16:00,44.1,28.5,28.97,East,90,2.7,2.7,54,0.00,,---,0.00,VWS V14.01,2013-01-09 23:16:00,
2013-01-09 19:17:00,44.1,28.5,28.97,East,90,2.7,2.7,54,0.00,,---,0.00,VWS V14.01,2013-01-09 23:17:00,
2013-01-09 19:18:00,42.8,25.5,29.03,East,90,2.7,2.7,50,0.00,,---,0.00,VWS V14.01,2013-01-09 23:18:00,
2013-01-09 19:19:00,44.2,28.7,28.97,East,90,2.7,2.7,54,0.00,,---,0.00,VWS V14.01,2013-01-09 23:19:00,
2013-01-09 19:20:00,44.1,28.5,28.97,East,90,2.7,2.7,54,0.00,,---,0.00,VWS V14.01,2013-01-09 23:20:00,
2013-01-09 19:21:00,44.1,28.5,28.97,East,90,2.7,2.7,54,0.00,,---,0.00,VWS V14.01,2013-01-09 23:21:00,
2013-01-09 19:22:00,44.1,28.5,28.97,East,90,2.7,2.7,54,0.00,,---,0.00,VWS V14.01,2013-01-09 23:22:00,
2013-01-09 19:23:00,42.4,25.6,29.03,East,90,2.7,2.7,51,0.00,,---,0.00,VWS V14.01,2013-01-09 23:23:00,
2013-01-09 19:24:00,44.1,28.5,28.97,East,90,2.7,2.7,54,0.00,,---,0.00,VWS V14.01,2013-01-09 23:24:00,
2013-01-09 19:25:00,44.1,28.5,28.97,East,90,2.7,2.7,54,0.00,,---,0.00,VWS V14.01,2013-01-09 23:25:00,
2013-01-09 19:26:00,44.2,28.7,28.97,East,90,2.7,2.7,54,0.00,,---,0.00,VWS V14.01,2013-01-09 23:26:00,
2013-01-09 19:27:00,44.2,28.7,28.97,East,90,2.7,2.7,54,0.00,,---,0.00,VWS V14.01,2013-01-09 23:27:00,
2013-01-09 19:28:00,41.9,25.1,29.03,East,90,2.7,2.7,51,0.00,,---,0.00,VWS V14.01,2013-01-09 23:28:00,
2013-01-09 19:29:00,44.1,28.5,28.97,East,90,2.7,2.7,54,0.00,,---,0.00,VWS V14.01,2013-01-09 23:29:00,
2013-01-09 19:30:00,43.9,28.3,28.97,East,90,2.7,2.7,54,0.00,,---,0.00,VWS V14.01,2013-01-09 23:30:00,
2013-01-09 19:31:00,43.7,28.2,29.00,East,90,2.7,2.7,54,0.00,,---,0.00,VWS V14.01,2013-01-09 23:31:00,
2013-01-09 19:32:00,43.7,28.2,29.00,East,90,2.7,2.7,54,0.00,,---,0.00,VWS V14.01,2013-01-09 23:32:00,
2013-01-09 19:33:00,42.1,25.3,29.03,East,90,2.7,2.7,51,0.00,,---,0.00,VWS V14.01,2013-01-09 23:33:00,
2013-01-09 19:34:00,43.7,28.2,29.00,East,90,2.7,2.7,54,0.00,,---,0.00,VWS V14.01,2013-01-09 23:34:00,
2013-01-09 19:35:00,43.7,28.2,29.00,East,90,2.7,2.7,54,0.00,,---,0.00,VWS V14.01,2013-01-09 23:35:00,
2013-01-09 19:36:00,43.7,28.2,29.00,East,90,2.7,2.7,54,0.00,,---,0.00,VWS V14.01,2013-01-09 23:36:00,
2013-01-09 19:37:00,43.7,28.2,29.00,East,90,2.7,2.7,54,0.00,,---,0.00,VWS V14.01,2013-01-09 23:37:00,
2013-01-09 19:38:00,42.1,25.3,29.03,East,90,2.7,2.7,51,0.00,,---,0.00,VWS V14.01,2013-01-09 23:38:00,
2013-01-09 19:39:00,43.7,28.2,29.00,East,90,2.7,2.7,54,0.00,,---,0.00,VWS V14.01,2013-01-09 23:39:00,
2013-01-09 19:40:00,43.7,27.7,29.00,East,90,2.7,2.7,53,0.00,,---,0.00,VWS V14.01,2013-01-09 23:40:00,
2013-01-09 19:41:00,43.7,28.2,29.00,East,90,2.7,2.7,54,0.00,,---,0.00,VWS V14.01,2013-01-09 23:41:00,
2013-01-09 19:42:00,43.7,28.2,29.00,East,90,2.7,2.7,54,0.00,,---,0.00,VWS V14.01,2013-01-09 23:42:00,
2013-01-09 19:43:00,42.4,25.1,29.03,East,90,2.7,2.7,50,0.00,,---,0.00,VWS V14.01,2013-01-09 23:43:00,
2013-01-09 19:44:00,43.7,27.7,29.00,East,90,2.7,2.7,53,0.00,,---,0.00,VWS V14.01,2013-01-09 23:44:00,
2013-01-09 19:45:00,43.7,27.7,29.00,East,90,2.7,2.7,53,0.00,,---,0.00,VWS V14.01,2013-01-09 23:45:00,
2013-01-09 19:46:00,43.7,27.7,29.00,East,90,2.7,2.7,53,0.00,,---,0.00,VWS V14.01,2013-01-09 23:46:00,
2013-01-09 19:47:00,43.5,27.5,29.00,East,90,2.7,2.7,53,0.00,,---,0.00,VWS V14.01,2013-01-09 23:47:00,
2013-01-09 19:48:00,42.1,24.8,29.03,East,90,2.7,2.7,50,0.00,,---,0.00,VWS V14.01,2013-01-09 23:48:00,
2013-01-09 19:49:00,43.3,27.4,29.00,East,90,2.7,2.7,53,0.00,,---,0.00,VWS V14.01,2013-01-09 23:49:00,
2013-01-09 19:50:00,43.3,27.4,29.00,East,90,2.7,2.7,53,0.00,,---,0.00,VWS V14.01,2013-01-09 23:50:00,
2013-01-09 19:51:00,43.3,27.4,29.00,East,90,2.7,2.7,53,0.00,,---,0.00,VWS V14.01,2013-01-09 23:51:00,
2013-01-09 19:52:00,43.2,27.2,29.00,East,90,2.7,2.7,53,0.00,,---,0.00,VWS V14.01,2013-01-09 23:52:00,
2013-01-09 19:53:00,41.9,24.6,29.03,East,90,2.7,2.7,50,0.00,,---,0.00,VWS V14.01,2013-01-09 23:53:00,
2013-01-09 19:54:00,43.2,27.2,29.00,East,90,2.7,2.7,53,0.00,,---,0.00,VWS V14.01,2013-01-09 23:54:00,
2013-01-09 19:55:00,43.3,26.9,29.00,East,90,2.7,2.7,52,0.00,,---,0.00,VWS V14.01,2013-01-09 23:55:00,
2013-01-09 19:56:00,43.3,26.9,29.00,East,90,2.7,2.7,52,0.00,,---,0.00,VWS V14.01,2013-01-09 23:56:00,
2013-01-09 19:57:00,43.3,26.9,29.00,East,90,2.7,2.7,52,0.00,,---,0.00,VWS V14.01,2013-01-09 23:57:00,
2013-01-09 19:58:00,41.5,24.3,29.03,East,90,2.7,2.7,50,0.00,,---,0.00,VWS V14.01,2013-01-09 23:58:00,
2013-01-09 19:59:00,43.3,26.4,29.00,East,90,2.7,2.7,51,0.00,,---,0.00,VWS V14.01,2013-01-09 23:59:00,
2013-01-09 20:00:00,43.3,26.9,29.00,East,90,2.7,2.7,52,0.00,,---,0.00,VWS V14.01,2013-01-10 00:00:00,
2013-01-09 20:01:00,43.3,26.4,29.00,East,90,2.7,2.7,51,0.00,,---,0.00,VWS V14.01,2013-01-10 00:01:00,
2013-01-09 20:02:00,43.2,26.7,29.00,East,90,2.7,2.7,52,0.00,,---,0.00,VWS V14.01,2013-01-10 00:02:00,
2013-01-09 20:03:00,41.4,24.1,29.03,East,90,2.7,2.7,50,0.00,,---,0.00,VWS V14.01,2013-01-10 00:03:00,
2013-01-09 20:04:00,43.0,26.1,29.00,East,90,2.7,2.7,51,0.00,,---,0.00,VWS V14.01,2013-01-10 00:04:00,
2013-01-09 20:05:00,43.2,26.3,29.00,East,90,2.7,2.7,51,0.00,,---,0.00,VWS V14.01,2013-01-10 00:05:00,
2013-01-09 20:06:00,43.2,26.3,29.00,East,90,2.7,2.7,51,0.00,,---,0.00,VWS V14.01,2013-01-10 00:06:00,
2013-01-09 20:07:00,43.2,26.3,29.00,East,90,2.7,2.7,51,0.00,,---,0.00,VWS V14.01,2013-01-10 00:07:00,
2013-01-09 20:08:00,41.5,24.3,29.03,East,90,2.7,2.7,50,0.00,,---,0.00,VWS V14.01,2013-01-10 00:08:00,
2013-01-09 20:09:00,43.2,26.3,29.00,East,90,2.7,2.7,51,0.00,,---,0.00,VWS V14.01,2013-01-10 00:09:00,
2013-01-09 20:10:00,43.0,26.1,29.00,East,90,2.7,2.7,51,0.00,,---,0.00,VWS V14.01,2013-01-10 00:10:00,
2013-01-09 20:11:00,43.0,26.1,29.00,East,90,2.7,2.7,51,0.00,,---,0.00,VWS V14.01,2013-01-10 00:11:00,
2013-01-09 20:12:00,43.0,26.1,29.00,East,90,2.7,2.7,51,0.00,,---,0.00,VWS V14.01,2013-01-10 00:12:00,
2013-01-09 20:13:00,41.4,24.1,29.03,East,90,2.7,2.7,50,0.00,,---,0.00,VWS V14.01,2013-01-10 00:13:00,
2013-01-09 20:14:00,43.0,26.1,29.00,East,90,2.7,2.7,51,0.00,,---,0.00,VWS V14.01,2013-01-10 00:14:00,
2013-01-09 20:15:00,43.0,26.1,29.00,East,90,2.7,2.7,51,0.00,,---,0.00,VWS V14.01,2013-01-10 00:15:00,
2013-01-09 20:16:00,43.0,26.1,29.03,East,90,2.7,2.7,51,0.00,,---,0.00,VWS V14.01,2013-01-10 00:16:00,
2013-01-09 20:17:00,43.0,26.1,29.03,East,90,2.7,2.7,51,0.00,,---,0.00,VWS V14.01,2013-01-10 00:17:00,
2013-01-09 20:18:00,41.5,24.3,29.03,East,90,2.7,2.7,50,0.00,,---,0.00,VWS V14.01,2013-01-10 00:18:00,
2013-01-09 20:19:00,43.0,25.6,29.03,East,90,2.7,2.7,50,0.00,,---,0.00,VWS V14.01,2013-01-10 00:19:00,
2013-01-09 20:20:00,43.0,25.6,29.03,East,90,2.7,2.7,50,0.00,,---,0.00,VWS V14.01,2013-01-10 00:20:00,
2013-01-09 20:21:00,42.8,25.9,29.03,East,90,2.7,2.7,51,0.00,,---,0.00,VWS V14.01,2013-01-10 00:21:00,
2013-01-09 20:22:00,42.8,25.9,29.03,East,90,2.7,2.7,51,0.00,,---,0.00,VWS V14.01,2013-01-10 00:22:00,
2013-01-09 20:23:00,41.5,24.3,29.03,East,90,2.7,2.7,50,0.00,,---,0.00,VWS V14.01,2013-01-10 00:23:00,
2013-01-09 20:24:00,42.8,25.9,29.03,East,90,2.7,2.7,51,0.00,,---,0.00,VWS V14.01,2013-01-10 00:24:00,
2013-01-09 20:25:00,42.6,25.8,29.03,East,90,2.7,2.7,51,0.00,,---,0.00,VWS V14.01,2013-01-10 00:25:00,
2013-01-09 20:26:00,42.6,25.8,29.03,East,90,2.7,2.7,51,0.00,,---,0.00,VWS V14.01,2013-01-10 00:26:00,
2013-01-09 20:27:00,42.4,25.6,29.03,East,90,2.7,2.7,51,0.00,,---,0.00,VWS V14.01,2013-01-10 00:27:00,
2013-01-09 20:28:00,41.0,23.8,29.09,East,90,2.7,2.7,50,0.00,,---,0.00,VWS V14.01,2013-01-10 00:28:00,
2013-01-09 20:29:00,42.3,25.4,29.03,East,90,2.7,2.7,51,0.00,,---,0.00,VWS V14.01,2013-01-10 00:29:00,
2013-01-09 20:30:00,42.3,25.4,29.03,East,90,2.7,2.7,51,0.00,,---,0.00,VWS V14.01,2013-01-10 00:30:00,
2013-01-09 20:31:00,42.1,25.3,29.03,East,90,2.7,2.7,51,0.00,,---,0.00,VWS V14.01,2013-01-10 00:31:00,
2013-01-09 20:32:00,41.9,25.1,29.03,East,90,2.7,2.7,51,0.00,,---,0.00,VWS V14.01,2013-01-10 00:32:00,
2013-01-09 20:33:00,40.6,23.5,29.09,East,90,2.7,2.7,50,0.00,,---,0.00,VWS V14.01,2013-01-10 00:33:00,
2013-01-09 20:34:00,41.9,25.1,29.03,East,90,2.7,2.7,51,0.00,,---,0.00,VWS V14.01,2013-01-10 00:34:00,
2013-01-09 20:35:00,41.9,25.1,29.03,East,90,2.7,2.7,51,0.00,,---,0.00,VWS V14.01,2013-01-10 00:35:00,
2013-01-09 20:36:00,41.9,25.1,29.03,East,90,2.7,2.7,51,0.00,,---,0.00,VWS V14.01,2013-01-10 00:36:00,
2013-01-09 20:37:00,41.9,25.1,29.03,East,90,2.7,2.7,51,0.00,,---,0.00,VWS V14.01,2013-01-10 00:37:00,
2013-01-09 20:38:00,41.0,23.8,29.09,East,90,2.7,2.7,50,0.00,,---,0.00,VWS V14.01,2013-01-10 00:38:00,
2013-01-09 20:39:00,42.1,25.3,29.03,East,90,2.7,2.7,51,0.00,,---,0.00,VWS V14.01,2013-01-10 00:39:00,
2013-01-09 20:40:00,42.1,25.3,29.03,East,90,2.7,2.7,51,0.00,,---,0.00,VWS V14.01,2013-01-10 00:40:00,
2013-01-09 20:41:00,41.9,25.1,29.03,East,90,2.7,2.7,51,0.00,,---,0.00,VWS V14.01,2013-01-10 00:41:00,
2013-01-09 20:42:00,41.9,25.1,29.03,East,90,2.7,2.7,51,0.00,,---,0.00,VWS V14.01,2013-01-10 00:42:00,
2013-01-09 20:43:00,41.0,23.8,29.09,East,90,2.7,2.7,50,0.00,,---,0.00,VWS V14.01,2013-01-10 00:43:00,
2013-01-09 20:44:00,42.3,25.0,29.03,East,90,2.7,2.7,50,0.00,,---,0.00,VWS V14.01,2013-01-10 00:44:00,
2013-01-09 20:45:00,42.4,25.1,29.03,East,90,2.7,2.7,50,0.00,,---,0.00,VWS V14.01,2013-01-10 00:45:00,
2013-01-09 20:46:00,42.4,25.1,29.03,East,90,2.7,2.7,50,0.00,,---,0.00,VWS V14.01,2013-01-10 00:46:00,
2013-01-09 20:47:00,42.4,25.1,29.03,East,90,2.7,2.7,50,0.00,,---,0.00,VWS V14.01,2013-01-10 00:47:00,
2013-01-09 20:48:00,40.8,23.6,29.09,East,90,2.7,2.7,50,0.00,,---,0.00,VWS V14.01,2013-01-10 00:48:00,
2013-01-09 20:49:00,42.4,25.1,29.03,East,90,2.7,2.7,50,0.00,,---,0.00,VWS V14.01,2013-01-10 00:49:00,
2013-01-09 20:50:00,42.3,25.0,29.03,East,90,2.7,2.7,50,0.00,,---,0.00,VWS V14.01,2013-01-10 00:50:00,
2013-01-09 20:51:00,42.3,25.0,29.03,East,90,2.7,2.7,50,0.00,,---,0.00,VWS V14.01,2013-01-10 00:51:00,
2013-01-09 20:52:00,42.1,24.8,29.03,East,90,2.7,2.7,50,0.00,,---,0.00,VWS V14.01,2013-01-10 00:52:00,
2013-01-09 20:53:00,40.6,23.5,29.09,East,90,2.7,2.7,50,0.00,,---,0.00,VWS V14.01,2013-01-10 00:53:00,
2013-01-09 20:54:00,42.1,24.8,29.03,East,90,2.7,2.7,50,0.00,,---,0.00,VWS V14.01,2013-01-10 00:54:00,
2013-01-09 20:55:00,42.1,24.8,29.03,East,90,2.7,2.7,50,0.00,,---,0.00,VWS V14.01,2013-01-10 00:55:00,
2013-01-09 20:56:00,41.9,24.6,29.03,East,90,2.7,2.7,50,0.00,,---,0.00,VWS V14.01,2013-01-10 00:56:00,
2013-01-09 20:57:00,41.7,24.5,29.03,East,90,2.7,2.7,50,0.00,,---,0.00,VWS V14.01,2013-01-10 00:57:00,
2013-01-09 20:58:00,40.6,23.0,29.09,East,90,2.7,2.7,49,0.00,,---,0.00,VWS V14.01,2013-01-10 00:58:00,
2013-01-09 20:59:00,41.7,24.5,29.03,East,90,2.7,2.7,50,0.00,,---,0.00,VWS V14.01,2013-01-10 00:59:00,
2013-01-09 21:00:00,41.7,24.5,29.03,East,90,2.7,2.7,50,0.00,,---,0.00,VWS V14.01,2013-01-10 01:00:00,
2013-01-09 21:01:00,41.9,24.6,29.03,East,90,2.7,2.7,50,0.00,,---,0.00,VWS V14.01,2013-01-10 01:01:00,
2013-01-09 21:02:00,41.9,24.6,29.03,East,90,2.7,2.7,50,0.00,,---,0.00,VWS V14.01,2013-01-10 01:02:00,
2013-01-09 21:03:00,40.3,23.1,29.09,East,90,2.7,2.7,50,0.00,,---,0.00,VWS V14.01,2013-01-10 01:03:00,
2013-01-09 21:04:00,41.4,24.1,29.03,East,90,2.7,2.7,50,0.00,,---,0.00,VWS V14.01,2013-01-10 01:04:00,
2013-01-09 21:05:00,41.4,24.1,29.03,East,90,2.7,2.7,50,0.00,,---,0.00,VWS V14.01,2013-01-10 01:05:00,
2013-01-09 21:06:00,41.4,24.1,29.03,East,90,2.7,2.7,50,0.00,,---,0.00,VWS V14.01,2013-01-10 01:06:00,
2013-01-09 21:07:00,41.4,24.1,29.03,East,90,2.7,2.7,50,0.00,,---,0.00,VWS V14.01,2013-01-10 01:07:00,
2013-01-09 21:08:00,40.5,22.8,29.09,East,90,2.7,2.7,49,0.00,,---,0.00,VWS V14.01,2013-01-10 01:08:00,
2013-01-09 21:09:00,41.4,24.1,29.03,East,90,2.7,2.7,50,0.00,,---,0.00,VWS V14.01,2013-01-10 01:09:00,
2013-01-09 21:10:00,41.4,24.1,29.03,East,90,2.7,2.7,50,0.00,,---,0.00,VWS V14.01,2013-01-10 01:10:00,
2013-01-09 21:11:00,41.4,24.1,29.03,East,90,2.7,2.7,50,0.00,,---,0.00,VWS V14.01,2013-01-10 01:11:00,
2013-01-09 21:12:00,41.4,24.1,29.03,East,90,2.7,2.7,50,0.00,,---,0.00,VWS V14.01,2013-01-10 01:12:00,
2013-01-09 21:13:00,40.5,22.8,29.09,East,90,2.7,2.7,49,0.00,,---,0.00,VWS V14.01,2013-01-10 01:13:00,
2013-01-09 21:14:00,41.7,24.5,29.03,East,90,2.7,2.7,50,0.00,,---,0.00,VWS V14.01,2013-01-10 01:14:00,
2013-01-09 21:15:00,41.5,24.3,29.03,East,90,2.7,2.7,50,0.00,,---,0.00,VWS V14.01,2013-01-10 01:15:00,
2013-01-09 21:16:00,41.5,24.3,29.03,East,90,2.7,2.7,50,0.00,,---,0.00,VWS V14.01,2013-01-10 01:16:00,
2013-01-09 21:17:00,41.4,24.1,29.03,East,90,2.7,2.7,50,0.00,,---,0.00,VWS V14.01,2013-01-10 01:17:00,
2013-01-09 21:18:00,40.5,22.8,29.09,East,90,2.7,2.7,49,0.00,,---,0.00,VWS V14.01,2013-01-10 01:18:00,
2013-01-09 21:19:00,41.5,23.8,29.03,East,90,2.7,2.7,49,0.00,,---,0.00,VWS V14.01,2013-01-10 01:19:00,
2013-01-09 21:20:00,41.7,24.0,29.03,East,90,2.7,2.7,49,0.00,,---,0.00,VWS V14.01,2013-01-10 01:20:00,
2013-01-09 21:21:00,41.7,24.5,29.03,East,90,2.7,2.7,50,0.00,,---,0.00,VWS V14.01,2013-01-10 01:21:00,
2013-01-09 21:22:00,41.7,24.5,29.03,East,90,2.7,2.7,50,0.00,,---,0.00,VWS V14.01,2013-01-10 01:22:00,
2013-01-09 21:23:00,40.6,23.0,29.09,East,90,2.7,2.7,49,0.00,,---,0.00,VWS V14.01,2013-01-10 01:23:00,
2013-01-09 21:24:00,41.5,24.3,29.03,East,90,2.7,2.7,50,0.00,,---,0.00,VWS V14.01,2013-01-10 01:24:00,
2013-01-09 21:25:00,41.4,24.1,29.03,East,90,2.7,2.7,50,0.00,,---,0.00,VWS V14.01,2013-01-10 01:25:00,
2013-01-09 21:26:00,41.4,24.1,29.03,East,90,2.7,2.7,50,0.00,,---,0.00,VWS V14.01,2013-01-10 01:26:00,
2013-01-09 21:27:00,41.5,24.3,29.03,East,90,2.7,2.7,50,0.00,,---,0.00,VWS V14.01,2013-01-10 01:27:00,
2013-01-09 21:28:00,40.3,22.7,29.12,East,90,2.7,2.7,49,0.00,,---,0.00,VWS V14.01,2013-01-10 01:28:00,
2013-01-09 21:29:00,41.5,24.3,29.03,East,90,2.7,2.7,50,0.00,,---,0.00,VWS V14.01,2013-01-10 01:29:00,
2013-01-09 21:30:00,41.2,24.0,29.03,East,90,2.7,2.7,50,0.00,,---,0.00,VWS V14.01,2013-01-10 01:30:00,
2013-01-09 21:31:00,41.2,24.0,29.09,East,90,2.7,2.7,50,0.00,,---,0.00,VWS V14.01,2013-01-10 01:31:00,
2013-01-09 21:32:00,41.0,23.8,29.09,East,90,2.7,2.7,50,0.00,,---,0.00,VWS V14.01,2013-01-10 01:32:00,
2013-01-09 21:33:00,40.3,22.7,29.12,East,90,2.7,2.7,49,0.00,,---,0.00,VWS V14.01,2013-01-10 01:33:00,
2013-01-09 21:34:00,41.0,23.8,29.09,East,90,2.7,2.7,50,0.00,,---,0.00,VWS V14.01,2013-01-10 01:34:00,
2013-01-09 21:35:00,41.0,23.8,29.09,East,90,2.7,2.7,50,0.00,,---,0.00,VWS V14.01,2013-01-10 01:35:00,
2013-01-09 21:36:00,41.0,23.8,29.09,East,90,2.7,2.7,50,0.00,,---,0.00,VWS V14.01,2013-01-10 01:36:00,
2013-01-09 21:37:00,40.8,24.1,29.09,East,90,2.7,2.7,51,0.00,,---,0.00,VWS V14.01,2013-01-10 01:37:00,
2013-01-09 21:38:00,40.3,22.7,29.12,East,90,2.7,2.7,49,0.00,,---,0.00,VWS V14.01,2013-01-10 01:38:00,
2013-01-09 21:39:00,40.6,23.5,29.09,East,90,2.7,2.7,50,0.00,,---,0.00,VWS V14.01,2013-01-10 01:39:00,
2013-01-09 21:40:00,40.6,23.5,29.09,East,90,2.7,2.7,50,0.00,,---,0.00,VWS V14.01,2013-01-10 01:40:00,
2013-01-09 21:41:00,40.8,23.6,29.09,East,90,2.7,2.7,50,0.00,,---,0.00,VWS V14.01,2013-01-10 01:41:00,
2013-01-09 21:42:00,41.0,23.8,29.09,East,90,2.7,2.7,50,0.00,,---,0.00,VWS V14.01,2013-01-10 01:42:00,
2013-01-09 21:43:00,40.5,22.8,29.12,East,90,2.7,2.7,49,0.00,,---,0.00,VWS V14.01,2013-01-10 01:43:00,
2013-01-09 21:44:00,40.8,24.1,29.09,East,90,2.7,2.7,51,0.00,,---,0.00,VWS V14.01,2013-01-10 01:44:00,
2013-01-09 21:45:00,41.0,23.8,29.09,East,90,2.7,2.7,50,0.00,,---,0.00,VWS V14.01,2013-01-10 01:45:00,
2013-01-09 21:46:00,41.0,23.8,29.09,East,90,2.7,2.7,50,0.00,,---,0.00,VWS V14.01,2013-01-10 01:46:00,
2013-01-09 21:47:00,41.0,23.3,29.09,East,90,2.7,2.7,49,0.00,,---,0.00,VWS V14.01,2013-01-10 01:47:00,
2013-01-09 21:48:00,39.9,22.3,29.12,East,90,2.7,2.7,49,0.00,,---,0.00,VWS V14.01,2013-01-10 01:48:00,
2013-01-09 21:49:00,41.0,23.3,29.09,East,90,2.7,2.7,49,0.00,,---,0.00,VWS V14.01,2013-01-10 01:49:00,
2013-01-09 21:50:00,41.0,23.8,29.09,East,90,2.7,2.7,50,0.00,,---,0.00,VWS V14.01,2013-01-10 01:50:00,
2013-01-09 21:51:00,40.8,23.6,29.09,East,90,2.7,2.7,50,0.00,,---,0.00,VWS V14.01,2013-01-10 01:51:00,
2013-01-09 21:52:00,40.8,23.6,29.09,East,90,2.7,2.7,50,0.00,,---,0.00,VWS V14.01,2013-01-10 01:52:00,
2013-01-09 21:53:00,39.7,22.2,29.12,East,90,2.7,2.7,49,0.00,,---,0.00,VWS V14.01,2013-01-10 01:53:00,
2013-01-09 21:54:00,40.8,23.6,29.09,East,90,2.7,2.7,50,0.00,,---,0.00,VWS V14.01,2013-01-10 01:54:00,
2013-01-09 21:55:00,40.8,23.6,29.09,East,90,2.7,2.7,50,0.00,,---,0.00,VWS V14.01,2013-01-10 01:55:00,
2013-01-09 21:56:00,40.8,23.6,29.09,East,90,2.7,2.7,50,0.00,,---,0.00,VWS V14.01,2013-01-10 01:56:00,
2013-01-09 21:57:00,40.6,23.5,29.09,East,90,2.7,2.7,50,0.00,,---,0.00,VWS V14.01,2013-01-10 01:57:00,
2013-01-09 21:58:00,39.6,22.0,29.12,East,90,2.7,2.7,49,0.00,,---,0.00,VWS V14.01,2013-01-10 01:58:00,
2013-01-09 21:59:00,40.6,23.5,29.09,East,90,2.7,2.7,50,0.00,,---,0.00,VWS V14.01,2013-01-10 01:59:00,
2013-01-09 22:00:00,40.6,23.5,29.09,East,90,2.7,2.7,50,0.00,,---,0.00,VWS V14.01,2013-01-10 02:00:00,
2013-01-09 22:01:00,40.6,23.5,29.09,East,90,2.7,2.7,50,0.00,,---,0.00,VWS V14.01,2013-01-10 02:01:00,
2013-01-09 22:02:00,40.6,23.5,29.09,East,90,2.7,2.7,50,0.00,,---,0.00,VWS V14.01,2013-01-10 02:02:00,
2013-01-09 22:03:00,39.4,21.8,29.12,East,90,2.7,2.7,49,0.00,,---,0.00,VWS V14.01,2013-01-10 02:03:00,
2013-01-09 22:04:00,40.6,23.0,29.09,East,90,2.7,2.7,49,0.00,,---,0.00,VWS V14.01,2013-01-10 02:04:00,
2013-01-09 22:05:00,40.5,23.3,29.09,East,90,2.7,2.7,50,0.00,,---,0.00,VWS V14.01,2013-01-10 02:05:00,
2013-01-09 22:06:00,40.6,23.0,29.09,East,90,2.7,2.7,49,0.00,,---,0.00,VWS V14.01,2013-01-10 02:06:00,
2013-01-09 22:07:00,40.5,23.3,29.09,East,90,2.7,2.7,50,0.00,,---,0.00,VWS V14.01,2013-01-10 02:07:00,
2013-01-09 22:08:00,39.4,21.8,29.12,East,90,2.7,2.7,49,0.00,,---,0.00,VWS V14.01,2013-01-10 02:08:00,
2013-01-09 22:09:00,40.3,23.1,29.09,East,90,2.7,2.7,50,0.00,,---,0.00,VWS V14.01,2013-01-10 02:09:00,
2013-01-09 22:10:00,40.3,22.7,29.09,East,90,2.7,2.7,49,0.00,,---,0.00,VWS V14.01,2013-01-10 02:10:00,
2013-01-09 22:11:00,40.3,23.1,29.09,East,90,2.7,2.7,50,0.00,,---,0.00,VWS V14.01,2013-01-10 02:11:00,
2013-01-09 22:12:00,40.5,22.8,29.09,East,90,2.7,2.7,49,0.00,,---,0.00,VWS V14.01,2013-01-10 02:12:00,
2013-01-09 22:13:00,39.2,21.7,29.14,East,90,2.7,2.7,49,0.00,,---,0.00,VWS V14.01,2013-01-10 02:13:00,
2013-01-09 22:14:00,40.5,22.8,29.09,East,90,2.7,2.7,49,0.00,,---,0.00,VWS V14.01,2013-01-10 02:14:00,
2013-01-09 22:15:00,40.5,22.8,29.09,East,90,2.7,2.7,49,0.00,,---,0.00,VWS V14.01,2013-01-10 02:15:00,
2013-01-09 22:16:00,40.5,22.8,29.09,East,90,2.7,2.7,49,0.00,,---,0.00,VWS V14.01,2013-01-10 02:16:00,
2013-01-09 22:17:00,40.5,22.8,29.09,East,90,2.7,2.7,49,0.00,,---,0.00,VWS V14.01,2013-01-10 02:17:00,
2013-01-09 22:18:00,39.0,22.0,29.14,East,90,2.7,2.7,50,0.00,,---,0.00,VWS V14.01,2013-01-10 02:18:00,
2013-01-09 22:19:00,40.5,22.8,29.09,East,90,2.7,2.7,49,0.00,,---,0.00,VWS V14.01,2013-01-10 02:19:00,
2013-01-09 22:20:00,40.6,23.0,29.09,East,90,2.7,2.7,49,0.00,,---,0.00,VWS V14.01,2013-01-10 02:20:00,
2013-01-09 22:21:00,40.6,23.0,29.09,East,90,2.7,2.7,49,0.00,,---,0.00,VWS V14.01,2013-01-10 02:21:00,
2013-01-09 22:22:00,40.6,23.0,29.09,East,90,2.7,2.7,49,0.00,,---,0.00,VWS V14.01,2013-01-10 02:22:00,
2013-01-09 22:23:00,38.8,21.8,29.14,East,90,2.7,2.7,50,0.00,,---,0.00,VWS V14.01,2013-01-10 02:23:00,
2013-01-09 22:24:00,40.5,22.8,29.09,East,90,2.7,2.7,49,0.00,,---,0.00,VWS V14.01,2013-01-10 02:24:00,
2013-01-09 22:25:00,40.5,22.8,29.09,East,90,2.7,2.7,49,0.00,,---,0.00,VWS V14.01,2013-01-10 02:25:00,
2013-01-09 22:26:00,40.5,22.8,29.09,East,90,2.7,2.7,49,0.00,,---,0.00,VWS V14.01,2013-01-10 02:26:00,
2013-01-09 22:27:00,40.6,23.0,29.09,East,90,2.7,2.7,49,0.00,,---,0.00,VWS V14.01,2013-01-10 02:27:00,
2013-01-09 22:28:00,38.7,21.6,29.17,East,90,2.7,2.7,50,0.00,,---,0.00,VWS V14.01,2013-01-10 02:28:00,
2013-01-09 22:29:00,40.6,23.0,29.09,East,90,2.7,2.7,49,0.00,,---,0.00,VWS V14.01,2013-01-10 02:29:00,
2013-01-09 22:30:00,40.6,23.0,29.09,East,90,2.7,2.7,49,0.00,,---,0.00,VWS V14.01,2013-01-10 02:30:00,
2013-01-09 22:31:00,40.5,22.8,29.11,East,90,2.7,2.7,49,0.00,,---,0.00,VWS V14.01,2013-01-10 02:31:00,
2013-01-09 22:32:00,40.5,22.3,29.11,East,90,2.7,2.7,48,0.00,,---,0.00,VWS V14.01,2013-01-10 02:32:00,
2013-01-09 22:33:00,38.5,21.5,29.17,East,90,2.7,2.7,50,0.00,,---,0.00,VWS V14.01,2013-01-10 02:33:00,
2013-01-09 22:34:00,40.3,22.7,29.11,East,90,2.7,2.7,49,0.00,,---,0.00,VWS V14.01,2013-01-10 02:34:00,
2013-01-09 22:35:00,40.5,22.8,29.11,East,90,2.7,2.7,49,0.00,,---,0.00,VWS V14.01,2013-01-10 02:35:00,
2013-01-09 22:36:00,40.5,22.3,29.11,East,90,2.7,2.7,48,0.00,,---,0.00,VWS V14.01,2013-01-10 02:36:00,
2013-01-09 22:37:00,40.5,22.8,29.11,East,90,2.7,2.7,49,0.00,,---,0.00,VWS V14.01,2013-01-10 02:37:00,
2013-01-09 22:38:00,37.9,21.0,29.17,East,90,2.7,2.7,50,0.00,,---,0.00,VWS V14.01,2013-01-10 02:38:00,
2013-01-09 22:39:00,40.3,22.7,29.11,East,90,2.7,2.7,49,0.00,,---,0.00,VWS V14.01,2013-01-10 02:39:00,
2013-01-09 22:40:00,40.1,22.5,29.11,East,90,2.7,2.7,49,0.00,,---,0.00,VWS V14.01,2013-01-10 02:40:00,
2013-01-09 22:41:00,40.1,22.5,29.11,East,90,2.7,2.7,49,0.00,,---,0.00,VWS V14.01,2013-01-10 02:41:00,
2013-01-09 22:42:00,40.3,22.7,29.11,East,90,2.7,2.7,49,0.00,,---,0.00,VWS V14.01,2013-01-10 02:42:00,
2013-01-09 22:43:00,37.0,20.6,29.14,East,90,2.7,2.7,51,0.00,,---,0.00,VWS V14.01,2013-01-10 02:43:00,
2013-01-09 22:44:00,40.3,22.7,29.11,East,90,2.7,2.7,49,0.00,,---,0.00,VWS V14.01,2013-01-10 02:44:00,
2013-01-09 22:45:00,40.5,22.3,29.11,East,90,2.7,2.7,48,0.00,,---,0.00,VWS V14.01,2013-01-10 02:45:00,
2013-01-09 22:46:00,40.5,22.8,29.11,East,90,2.7,2.7,49,0.00,,---,0.00,VWS V14.01,2013-01-10 02:46:00,
2013-01-09 22:47:00,40.5,22.8,29.11,East,90,2.7,2.7,49,0.00,,---,0.00,VWS V14.01,2013-01-10 02:47:00,
2013-01-09 22:48:00,37.4,20.9,29.14,East,90,2.7,2.7,51,0.00,,---,0.00,VWS V14.01,2013-01-10 02:48:00,
2013-01-09 22:49:00,40.5,22.8,29.11,East,90,2.7,2.7,49,0.00,,---,0.00,VWS V14.01,2013-01-10 02:49:00,
2013-01-09 22:50:00,40.3,22.7,29.11,East,90,2.7,2.7,49,0.00,,---,0.00,VWS V14.01,2013-01-10 02:50:00,
2013-01-09 22:51:00,40.3,22.2,29.11,East,90,2.7,2.7,48,0.00,,---,0.00,VWS V14.01,2013-01-10 02:51:00,
2013-01-09 22:52:00,40.3,22.2,29.11,East,90,2.7,2.7,48,0.00,,---,0.00,VWS V14.01,2013-01-10 02:52:00,
2013-01-09 22:53:00,35.8,19.9,29.14,East,90,2.7,2.7,52,0.00,,---,0.00,VWS V14.01,2013-01-10 02:53:00,
2013-01-09 22:54:00,39.9,22.3,29.11,East,90,2.7,2.7,49,0.00,,---,0.00,VWS V14.01,2013-01-10 02:54:00,
2013-01-09 22:55:00,39.9,22.3,29.11,East,90,2.7,2.7,49,0.00,,---,0.00,VWS V14.01,2013-01-10 02:55:00,
2013-01-09 22:56:00,39.9,22.3,29.11,East,90,2.7,2.7,49,0.00,,---,0.00,VWS V14.01,2013-01-10 02:56:00,
2013-01-09 22:57:00,39.9,22.3,29.11,East,90,2.7,2.7,49,0.00,,---,0.00,VWS V14.01,2013-01-10 02:57:00,
2013-01-09 22:58:00,35.4,20.0,29.14,East,90,2.7,2.7,53,0.00,,---,0.00,VWS V14.01,2013-01-10 02:58:00,
2013-01-09 22:59:00,39.6,22.0,29.11,East,90,2.7,2.7,49,0.00,,---,0.00,VWS V14.01,2013-01-10 02:59:00,
2013-01-09 23:00:00,39.6,22.0,29.11,East,90,2.7,2.7,49,0.00,,---,0.00,VWS V14.01,2013-01-10 03:00:00,
2013-01-09 23:01:00,39.6,22.0,29.11,East,90,2.7,2.7,49,0.00,,---,0.00,VWS V14.01,2013-01-10 03:01:00,
2013-01-09 23:02:00,39.6,22.0,29.11,East,90,2.7,2.7,49,0.00,,---,0.00,VWS V14.01,2013-01-10 03:02:00,
2013-01-09 23:03:00,34.3,19.0,29.14,East,90,2.7,2.7,53,0.00,,---,0.00,VWS V14.01,2013-01-10 03:03:00,
2013-01-09 23:04:00,39.6,22.0,29.11,East,90,2.7,2.7,49,0.00,,---,0.00,VWS V14.01,2013-01-10 03:04:00,
2013-01-09 23:05:00,39.4,21.8,29.11,East,90,2.7,2.7,49,0.00,,---,0.00,VWS V14.01,2013-01-10 03:05:00,
2013-01-09 23:06:00,39.4,21.8,29.11,East,90,2.7,2.7,49,0.00,,---,0.00,VWS V14.01,2013-01-10 03:06:00,
2013-01-09 23:07:00,39.4,21.8,29.11,East,90,2.7,2.7,49,0.00,,---,0.00,VWS V14.01,2013-01-10 03:07:00,
2013-01-09 23:08:00,34.0,18.7,29.14,East,90,2.7,2.7,53,0.00,,---,0.00,VWS V14.01,2013-01-10 03:08:00,
2013-01-09 23:09:00,39.4,21.8,29.11,East,90,2.7,2.7,49,0.00,,---,0.00,VWS V14.01,2013-01-10 03:09:00,
2013-01-09 23:10:00,39.4,21.8,29.11,East,90,2.7,2.7,49,0.00,,---,0.00,VWS V14.01,2013-01-10 03:10:00,
2013-01-09 23:11:00,39.2,21.7,29.11,East,90,2.7,2.7,49,0.00,,---,0.00,VWS V14.01,2013-01-10 03:11:00,
2013-01-09 23:12:00,39.4,21.8,29.11,East,90,2.7,2.7,49,0.00,,---,0.00,VWS V14.01,2013-01-10 03:12:00,
2013-01-09 23:13:00,33.4,19.4,29.17,East,90,2.7,2.7,56,0.00,,---,0.00,VWS V14.01,2013-01-10 03:13:00,
2013-01-09 23:14:00,39.2,21.7,29.11,East,90,2.7,2.7,49,0.00,,---,0.00,VWS V14.01,2013-01-10 03:14:00,
2013-01-09 23:15:00,39.2,21.7,29.11,East,90,2.7,2.7,49,0.00,,---,0.00,VWS V14.01,2013-01-10 03:15:00,
2013-01-09 23:16:00,39.2,21.7,29.15,East,90,2.7,2.7,49,0.00,,---,0.00,VWS V14.01,2013-01-10 03:16:00,
2013-01-09 23:17:00,39.2,21.7,29.15,East,90,2.7,2.7,49,0.00,,---,0.00,VWS V14.01,2013-01-10 03:17:00,
2013-01-09 23:18:00,33.3,18.9,29.17,East,90,2.7,2.7,55,0.00,,---,0.00,VWS V14.01,2013-01-10 03:18:00,
2013-01-09 23:19:00,39.2,21.7,29.15,East,90,2.7,2.7,49,0.00,,---,0.00,VWS V14.01,2013-01-10 03:19:00,
2013-01-09 23:20:00,39.2,21.7,29.15,East,90,2.7,2.7,49,0.00,,---,0.00,VWS V14.01,2013-01-10 03:20:00,
2013-01-09 23:21:00,39.2,21.7,29.15,East,90,2.7,2.7,49,0.00,,---,0.00,VWS V14.01,2013-01-10 03:21:00,
2013-01-09 23:22:00,39.2,21.7,29.15,East,90,2.7,2.7,49,0.00,,---,0.00,VWS V14.01,2013-01-10 03:22:00,
2013-01-09 23:23:00,33.1,19.1,29.17,East,90,2.7,2.7,56,0.00,,---,0.00,VWS V14.01,2013-01-10 03:23:00,
2013-01-09 23:24:00,39.0,22.0,29.15,East,90,2.7,2.7,50,0.00,,---,0.00,VWS V14.01,2013-01-10 03:24:00,
2013-01-09 23:25:00,39.0,22.0,29.15,East,90,2.7,2.7,50,0.00,,---,0.00,VWS V14.01,2013-01-10 03:25:00,
2013-01-09 23:26:00,38.8,21.8,29.15,East,90,2.7,2.7,50,0.00,,---,0.00,VWS V14.01,2013-01-10 03:26:00,
2013-01-09 23:27:00,38.8,21.8,29.15,East,90,2.7,2.7,50,0.00,,---,0.00,VWS V14.01,2013-01-10 03:27:00,
2013-01-09 23:28:00,32.5,19.4,29.20,East,90,2.7,2.7,58,0.00,,---,0.00,VWS V14.01,2013-01-10 03:28:00,
2013-01-09 23:29:00,38.8,21.8,29.15,East,90,2.7,2.7,50,0.00,,---,0.00,VWS V14.01,2013-01-10 03:29:00,
2013-01-09 23:30:00,38.7,21.6,29.15,East,90,2.7,2.7,50,0.00,,---,0.00,VWS V14.01,2013-01-10 03:30:00,
2013-01-09 23:31:00,38.7,21.6,29.17,East,90,2.7,2.7,50,0.00,,---,0.00,VWS V14.01,2013-01-10 03:31:00,
2013-01-09 23:32:00,38.7,21.6,29.17,East,90,2.7,2.7,50,0.00,,---,0.00,VWS V14.01,2013-01-10 03:32:00,
2013-01-09 23:33:00,38.7,21.6,29.17,East,90,2.7,2.7,50,0.00,,---,0.00,VWS V14.01,2013-01-10 03:33:00,
2013-01-09 23:34:00,32.0,18.9,29.20,East,90,2.7,2.7,58,0.00,,---,0.00,VWS V14.01,2013-01-10 03:34:00,
2013-01-09 23:35:00,38.5,21.5,29.17,East,90,2.7,2.7,50,0.00,,---,0.00,VWS V14.01,2013-01-10 03:35:00,
2013-01-09 23:36:00,38.5,21.5,29.17,East,90,2.7,2.7,50,0.00,,---,0.00,VWS V14.01,2013-01-10 03:36:00,
2013-01-09 23:37:00,38.5,21.5,29.17,East,90,2.7,2.7,50,0.00,,---,0.00,VWS V14.01,2013-01-10 03:37:00,
2013-01-09 23:38:00,38.5,21.5,29.17,East,90,2.7,2.7,50,0.00,,---,0.00,VWS V14.01,2013-01-10 03:38:00,
2013-01-09 23:39:00,31.8,18.7,29.20,East,90,2.7,2.7,58,0.00,,---,0.00,VWS V14.01,2013-01-10 03:39:00,
2013-01-09 23:40:00,38.5,21.5,29.17,East,90,2.7,2.7,50,0.00,,---,0.00,VWS V14.01,2013-01-10 03:40:00,
2013-01-09 23:41:00,37.9,21.0,29.17,East,90,2.7,2.7,50,0.00,,---,0.00,VWS V14.01,2013-01-10 03:41:00,
2013-01-09 23:42:00,37.9,21.0,29.17,East,90,2.7,2.7,50,0.00,,---,0.00,VWS V14.01,2013-01-10 03:42:00,
2013-01-09 23:43:00,37.9,21.0,29.17,East,90,2.7,2.7,50,0.00,,---,0.00,VWS V14.01,2013-01-10 03:43:00,
2013-01-09 23:44:00,30.7,18.5,29.20,East,90,2.7,2.7,60,0.00,,---,0.00,VWS V14.01,2013-01-10 03:44:00,
2013-01-09 23:45:00,37.9,21.0,29.17,East,90,2.7,2.7,50,0.00,,---,0.00,VWS V14.01,2013-01-10 03:45:00,
2013-01-09 23:46:00,37.9,21.0,29.15,East,90,2.7,2.7,50,0.00,,---,0.00,VWS V14.01,2013-01-10 03:46:00,
2013-01-09 23:47:00,37.9,21.0,29.15,East,90,2.7,2.7,50,0.00,,---,0.00,VWS V14.01,2013-01-10 03:47:00,
2013-01-09 23:48:00,37.4,20.9,29.15,East,90,2.7,2.7,51,0.00,,---,0.00,VWS V14.01,2013-01-10 03:48:00,
2013-01-09 23:49:00,30.4,19.3,29.20,East,90,2.7,2.7,63,0.00,,---,0.00,VWS V14.01,2013-01-10 03:49:00,
2013-01-09 23:50:00,36.9,20.4,29.15,East,90,2.7,2.7,51,0.00,,---,0.00,VWS V14.01,2013-01-10 03:50:00,
2013-01-09 23:51:00,37.0,20.6,29.15,East,90,2.7,2.7,51,0.00,,---,0.00,VWS V14.01,2013-01-10 03:51:00,
2013-01-09 23:52:00,37.0,20.6,29.15,East,90,2.7,2.7,51,0.00,,---,0.00,VWS V14.01,2013-01-10 03:52:00,
2013-01-09 23:53:00,37.4,20.9,29.15,East,90,2.7,2.7,51,0.00,,---,0.00,VWS V14.01,2013-01-10 03:53:00,
2013-01-09 23:54:00,31.6,22.3,29.20,East,90,2.7,2.7,68,0.00,,---,0.00,VWS V14.01,2013-01-10 03:54:00,
2013-01-09 23:55:00,37.0,20.6,29.15,East,90,2.7,2.7,51,0.00,,---,0.00,VWS V14.01,2013-01-10 03:55:00,
2013-01-09 23:56:00,37.0,20.6,29.15,East,90,2.7,2.7,51,0.00,,---,0.00,VWS V14.01,2013-01-10 03:56:00,
2013-01-09 23:57:00,36.3,20.4,29.15,East,90,2.7,2.7,52,0.00,,---,0.00,VWS V14.01,2013-01-10 03:57:00,
2013-01-09 23:58:00,35.8,19.9,29.15,East,90,2.7,2.7,52,0.00,,---,0.00,VWS V14.01,2013-01-10 03:58:00,
2013-01-09 23:59:00,32.0,23.3,29.20,East,90,2.7,2.7,70,0.00,,---,0.00,VWS V14.01,2013-01-10 03:59:00,